Provisional Data: East Branch Octoraro Creek at Street Road


Please select a monitoring station.
Please select start date.
Please select start date.

Toggle Unit: C/F Toggle Unit: C/F
Sample Time Temperature (C) Temperature (F) Specific Conductivity (mS/cm) pH   Turbidity (NTU+) DO (mg/L)
8/11/2023 12:00:00 AM 21.77 71.186 0.304 7.43 7.28 7.12
8/11/2023 12:15:00 AM 21.7 71.06 0.304 7.42 7.26 7.07
8/11/2023 12:30:00 AM 21.62 70.916 0.304 7.4 7.76 7.02
8/11/2023 12:45:00 AM 21.55 70.79 0.304 7.39 7.81 6.97
8/11/2023 1:00:00 AM 21.48 70.664 0.304 7.38 8.4 6.93
8/11/2023 1:15:00 AM 21.41 70.538 0.304 7.37 7.6 6.9
8/11/2023 1:30:00 AM 21.34 70.412 0.305 7.36 7.66 6.88
8/11/2023 1:45:00 AM 21.28 70.304 0.305 7.36 8.53 6.86
8/11/2023 2:00:00 AM 21.22 70.196 0.305 7.35 7.79 6.85
8/11/2023 2:15:00 AM 21.16 70.088 0.305 7.34 7.89 6.84
8/11/2023 2:30:00 AM 21.1 69.98 0.305 7.33 7.78 6.83
8/11/2023 2:45:00 AM 21.05 69.89 0.304 7.33 7.1 6.82
8/11/2023 3:00:00 AM 21 69.8 0.304 7.32 7.91 6.82
8/11/2023 3:15:00 AM 20.95 69.71 0.303 7.32 7.58 6.81
8/11/2023 3:30:00 AM 20.9 69.62 0.303 7.31 8.23 6.81
8/11/2023 3:45:00 AM 20.85 69.53 0.303 7.31 7.35 6.8
8/11/2023 4:00:00 AM 20.81 69.458 0.303 7.3 7.02 6.8
8/11/2023 4:15:00 AM 20.77 69.386 0.303 7.3 6.91 6.81
8/11/2023 4:30:00 AM 20.73 69.314 0.303 7.3 6.92 6.81
8/11/2023 4:45:00 AM 20.7 69.26 0.303 7.3 6.53 6.81
8/11/2023 5:00:00 AM 20.67 69.206 0.304 7.3 6.66 6.81
8/11/2023 5:15:00 AM 20.63 69.134 0.304 7.3 7.03 6.82
8/11/2023 5:30:00 AM 20.6 69.08 0.305 7.31 6.74 6.82
8/11/2023 5:45:00 AM 20.55 68.99 0.306 7.3 6.73 6.83
8/11/2023 6:00:00 AM 20.51 68.918 0.307 7.31 6.49 6.84
8/11/2023 6:15:00 AM 20.46 68.828 0.308 7.31 7.5 6.85
8/11/2023 6:30:00 AM 20.43 68.774 0.309 7.31 7.05 6.89
8/11/2023 6:45:00 AM 20.4 68.72 0.311 7.32 5.69 6.94
8/11/2023 7:00:00 AM 20.36 68.648 0.312 7.33 5.94 7
8/11/2023 7:15:00 AM 20.34 68.612 0.313 7.34 5.62 7.09
8/11/2023 7:30:00 AM 20.32 68.576 0.314 7.35 5.44 7.2
8/11/2023 7:45:00 AM 20.33 68.594 0.315 7.37 5.26 7.35
8/11/2023 8:00:00 AM 20.36 68.648 0.316 7.41 4.55 7.55
8/11/2023 8:15:00 AM 20.41 68.738 0.317 7.45 4.49 7.81
8/11/2023 8:30:00 AM 20.5 68.9 0.317 7.5 4.27 8.11
8/11/2023 8:45:00 AM 20.58 69.044 0.318 7.56 4.13 8.39
8/11/2023 9:00:00 AM 20.69 69.242 0.318 7.61 3.74 8.66
8/11/2023 9:15:00 AM 20.82 69.476 0.318 7.68 3.48 8.93
8/11/2023 9:30:00 AM 20.98 69.764 0.318 7.76 3.39 9.24
8/11/2023 9:45:00 AM 21.15 70.07 0.318 7.85 3.22 9.54
8/11/2023 10:00:00 AM 21.36 70.448 0.318 7.95 2.94 9.84
8/11/2023 10:15:00 AM 21.5 70.7 0.318 8.02 2.82 10.02
8/11/2023 10:30:00 AM 21.73 71.114 0.317 8.12 2.78 10.29
8/11/2023 10:45:00 AM 21.9 71.42 0.317 8.2 2.77 10.51
8/11/2023 11:00:00 AM 22.1 71.78 0.316 8.28 2.96 10.68
8/11/2023 11:15:00 AM 22.34 72.212 0.316 8.36 2.63 10.87
8/11/2023 11:30:00 AM 22.53 72.554 0.315 8.43 2.52 11.07
8/11/2023 11:45:00 AM 22.64 72.752 0.314 8.49 2.53 11.18
8/11/2023 12:00:00 PM 22.69 72.842 0.313 8.5 2.54 11.15
8/11/2023 12:15:00 PM 22.81 73.058 0.312 8.52 2.38 11.15
8/11/2023 12:30:00 PM 22.96 73.328 0.311 8.55 2.42 11.25
8/11/2023 12:45:00 PM 23.21 73.778 0.31 8.61 2.49 11.42
8/11/2023 1:00:00 PM 23.42 74.156 0.308 8.68 2.43 11.66
8/11/2023 1:15:00 PM 23.58 74.444 0.306 8.72 2.46 11.78
8/11/2023 1:30:00 PM 23.58 74.444 0.305 8.75 2.51 11.8
8/11/2023 1:45:00 PM 23.61 74.498 0.303 8.76 2.5 11.74
8/11/2023 2:00:00 PM 23.82 74.876 0.302 8.78 2.7 11.76
8/11/2023 2:15:00 PM 24.01 75.218 0.3 8.81 2.66 11.83
8/11/2023 2:30:00 PM 24.17 75.506 0.299 8.86 2.74 11.94
8/11/2023 2:45:00 PM 24.36 75.848 0.297 8.9 2.87 12.03
8/11/2023 3:00:00 PM 24.52 76.136 0.295 8.92 2.73 12.04
8/11/2023 3:15:00 PM 24.63 76.334 0.294 8.95 2.64 12.05
8/11/2023 3:30:00 PM 24.65 76.37 0.293 8.96 2.66 11.95
8/11/2023 3:45:00 PM 24.83 76.694 0.292 8.98 2.77 11.9
8/11/2023 4:00:00 PM 25.03 77.054 0.291 9 2.69 11.93
8/11/2023 4:15:00 PM 25.15 77.27 0.29 9.02 2.74 11.89
8/11/2023 4:30:00 PM 25.16 77.288 0.289 9.02 2.79 11.68
8/11/2023 4:45:00 PM 25.2 77.36 0.289 9.02 2.9 11.51
8/11/2023 5:00:00 PM 25.25 77.45 0.288 9.02 2.98 11.35
8/11/2023 5:15:00 PM 25.29 77.522 0.287 9.02 2.98 11.22
8/11/2023 5:30:00 PM 25.28 77.504 0.287 9.02 2.74 11.02
8/11/2023 5:45:00 PM 25.31 77.558 0.287 9.01 2.83 10.83
8/11/2023 6:00:00 PM 25.32 77.576 0.287 9 2.63 10.63
8/11/2023 6:15:00 PM 25.32 77.576 0.287 8.99 2.97 10.43
8/11/2023 6:30:00 PM 25.34 77.612 0.286 8.97 2.65 10.24
8/11/2023 6:45:00 PM 25.34 77.612 0.286 8.95 2.63 10.01
8/11/2023 7:00:00 PM 25.33 77.594 0.287 8.93 3.04 9.77
8/11/2023 7:15:00 PM 25.33 77.594 0.287 8.9 3.17 9.53
8/11/2023 7:30:00 PM 25.33 77.594 0.287 8.87 2.95 9.29
8/11/2023 7:45:00 PM 25.29 77.522 0.287 8.83 3.07 9.05
8/11/2023 8:00:00 PM 25.24 77.432 0.287 8.79 3.15 8.81
8/11/2023 8:15:00 PM 25.18 77.324 0.288 8.74 2.99 8.59
8/11/2023 8:30:00 PM 25.11 77.198 0.288 8.69 3.35 8.36
8/11/2023 8:45:00 PM 25.04 77.07201 0.289 8.63 3.37 8.16
8/11/2023 9:00:00 PM 24.95 76.91 0.289 8.55 3.68 7.95
8/11/2023 9:15:00 PM 24.87 76.766 0.29 8.48 3.57 7.78
8/11/2023 9:30:00 PM 24.76 76.568 0.29 8.39 3.59 7.61
8/11/2023 9:45:00 PM 24.66 76.388 0.291 8.29 3.65 7.46
8/11/2023 10:00:00 PM 24.54 76.172 0.291 8.18 3.38 7.31
8/11/2023 10:15:00 PM 24.41 75.938 0.292 8.06 3.29 7.18
8/11/2023 10:30:00 PM 24.29 75.722 0.292 7.95 3.27 7.06
8/11/2023 10:45:00 PM 24.15 75.47 0.292 7.84 3.42 6.93
8/11/2023 11:00:00 PM 24.01 75.218 0.293 7.75 3.36 6.82
8/11/2023 11:15:00 PM 23.87 74.966 0.293 7.67 3.65 6.72
8/11/2023 11:30:00 PM 23.73 74.714 0.293 7.61 3.81 6.63
8/11/2023 11:45:00 PM 23.59 74.462 0.293 7.55 3.41 6.56
8/12/2023 12:00:00 AM 23.46 74.228 0.293 7.51 3.36 6.49
8/12/2023 12:15:00 AM 23.33 73.994 0.293 7.48 3.54 6.43
8/12/2023 12:30:00 AM 23.21 73.778 0.293 7.45 3.73 6.39
8/12/2023 12:45:00 AM 23.09 73.562 0.293 7.43 3.97 6.35
8/12/2023 1:00:00 AM 22.98 73.364 0.293 7.4 3.34 6.3
8/12/2023 1:15:00 AM 22.88 73.184 0.293 7.39 3.37 6.27
8/12/2023 1:30:00 AM 22.77 72.986 0.293 7.37 3.44 6.25
8/12/2023 1:45:00 AM 22.68 72.824 0.293 7.36 3.2 6.23
8/12/2023 2:00:00 AM 22.59 72.662 0.293 7.34 3.2 6.21
8/12/2023 2:15:00 AM 22.49 72.482 0.293 7.33 3.19 6.19
8/12/2023 2:30:00 AM 22.41 72.338 0.292 7.32 3.32 6.18
8/12/2023 2:45:00 AM 22.33 72.194 0.292 7.31 3.05 6.17
8/12/2023 3:00:00 AM 22.25 72.05 0.292 7.3 3.33 6.16
8/12/2023 3:15:00 AM 22.19 71.942 0.292 7.29 3.41 6.16
8/12/2023 3:30:00 AM 22.11 71.798 0.292 7.28 3.75 6.16
8/12/2023 3:45:00 AM 22.05 71.69 0.292 7.28 3.16 6.16
8/12/2023 4:00:00 AM 21.98 71.564 0.292 7.27 3.24 6.15
8/12/2023 4:15:00 AM 21.93 71.474 0.292 7.27 3.37 6.15
8/12/2023 4:30:00 AM 21.87 71.366 0.292 7.26 4.01 6.15
8/12/2023 4:45:00 AM 21.82 71.276 0.292 7.26 4.09 6.14
8/12/2023 5:00:00 AM 21.77 71.186 0.292 7.25 3.32 6.14
8/12/2023 5:15:00 AM 21.72 71.096 0.292 7.25 3.47 6.15
8/12/2023 5:30:00 AM 21.67 71.006 0.292 7.24 3.97 6.15
8/12/2023 5:45:00 AM 21.61 70.898 0.292 7.24 3.61 6.15
8/12/2023 6:00:00 AM 21.54 70.772 0.292 7.24 3.84 6.15
8/12/2023 6:15:00 AM 21.48 70.664 0.292 7.23 3.62 6.15
8/12/2023 6:30:00 AM 21.44 70.592 0.292 7.23 3.87 6.18
8/12/2023 6:45:00 AM 21.4 70.52 0.292 7.23 4.29 6.26
8/12/2023 7:00:00 AM 21.38 70.484 0.292 7.24 3.71 6.39
8/12/2023 7:15:00 AM 21.37 70.466 0.292 7.25 3.67 6.51
8/12/2023 7:30:00 AM 21.35 70.43 0.292 7.27 3.23 6.7
8/12/2023 7:45:00 AM 21.33 70.394 0.292 7.29 3.13 6.84
8/12/2023 8:00:00 AM 21.34 70.412 0.292 7.31 3 7.06
8/12/2023 8:15:00 AM 21.4 70.52 0.292 7.35 2.99 7.39
8/12/2023 8:30:00 AM 21.47 70.646 0.292 7.39 2.48 7.72
8/12/2023 8:45:00 AM 21.59 70.862 0.292 7.46 2.65 8.1
8/12/2023 9:00:00 AM 21.73 71.114 0.292 7.53 2.39 8.47
8/12/2023 9:15:00 AM 21.94 71.492 0.292 7.62 2.45 8.95
8/12/2023 9:30:00 AM 22.16 71.888 0.292 7.75 2.81 9.43
8/12/2023 9:45:00 AM 22.34 72.212 0.292 7.85 2.48 9.71
8/12/2023 10:00:00 AM 22.51 72.518 0.292 7.93 2.15 9.92
8/12/2023 10:15:00 AM 22.74 72.932 0.292 8.04 2.34 10.2
8/12/2023 10:30:00 AM 22.99 73.382 0.292 8.16 2.18 10.48
8/12/2023 10:45:00 AM 23.28 73.904 0.292 8.29 1.94 10.85
8/12/2023 11:00:00 AM 23.56 74.408 0.291 8.41 2.21 11.15
8/12/2023 11:15:00 AM 23.87 74.966 0.291 8.51 2.1 11.41
8/12/2023 11:30:00 AM 24.17 75.506 0.291 8.58 2.07 11.59
8/12/2023 11:45:00 AM 24.48 76.064 0.291 8.65 2.19 11.81
8/12/2023 12:00:00 PM 24.78 76.604 0.291 8.71 2 12
8/12/2023 12:15:00 PM 25.06 77.108 0.291 8.76 2.14 12.14
8/12/2023 12:30:00 PM 25.34 77.612 0.291 8.81 2.07 12.26
8/12/2023 12:45:00 PM 25.48 77.864 0.291 8.83 1.99 12.24
8/12/2023 1:00:00 PM 25.75 78.35 0.291 8.88 1.96 12.37
8/12/2023 1:15:00 PM 25.98 78.764 0.291 8.9 2.19 12.38
8/12/2023 1:30:00 PM 26.1 78.98 0.291 8.93 2.21 12.4
8/12/2023 1:45:00 PM 26.25 79.25 0.291 8.95 2.16 12.43
8/12/2023 2:00:00 PM 26.47 79.646 0.291 8.97 2.26 12.44
8/12/2023 2:15:00 PM 26.63 79.934 0.291 8.99 2.31 12.49
8/12/2023 2:30:00 PM 26.8 80.24 0.291 9.02 2.31 12.52
8/12/2023 2:45:00 PM 26.92 80.456 0.291 9.04 2.39 12.51
8/12/2023 3:00:00 PM 27.01 80.618 0.291 9.06 2.46 12.49
8/12/2023 3:15:00 PM 27.07 80.726 0.291 9.07 2.45 12.41
8/12/2023 3:30:00 PM 27.08 80.744 0.291 9.08 2.33 12.31
8/12/2023 3:45:00 PM 27.13 80.834 0.291 9.08 2.37 12.21
8/12/2023 4:00:00 PM 27.08 80.744 0.291 9.09 2.39 12.04
8/12/2023 4:15:00 PM 26.93 80.474 0.291 9.08 2.44 11.75
8/12/2023 4:30:00 PM 26.94 80.492 0.291 9.08 2.58 11.61
8/12/2023 4:45:00 PM 27 80.6 0.291 9.09 2.3 11.54
8/12/2023 5:00:00 PM 27.08 80.744 0.29 9.1 4.98 11.48
8/12/2023 5:15:00 PM 27.09 80.762 0.29 9.11 2.23 11.32
8/12/2023 5:30:00 PM 27.04 80.672 0.29 9.1 20482.43 11.11
8/12/2023 5:45:00 PM 27.06 80.708 0.29 9.1 2.18 10.91
8/12/2023 6:00:00 PM 27.11 80.798 0.29 9.1 2.01 10.84
8/12/2023 6:15:00 PM 27.14 80.852 0.29 9.1 2.19 10.7
8/12/2023 6:30:00 PM 27.09 80.762 0.291 9.09 2.25 10.4
8/12/2023 6:45:00 PM 27.04 80.672 0.291 9.07 2.17 10.08
8/12/2023 7:00:00 PM 27.02 80.636 0.291 9.03 1.89 9.74
8/12/2023 7:15:00 PM 27 80.6 0.291 8.99 1.79 9.4
8/12/2023 7:30:00 PM 26.99 80.582 0.292 8.96 2.01 9.09
8/12/2023 7:45:00 PM 26.99 80.582 0.292 8.93 1.89 8.81
8/12/2023 8:00:00 PM 26.99 80.582 0.293 8.88 2.16 8.51
8/12/2023 8:15:00 PM 26.97 80.546 0.293 8.83 2.36 8.22
8/12/2023 8:30:00 PM 26.95 80.51 0.294 8.77 2.58 7.94
8/12/2023 8:45:00 PM 26.91 80.438 0.294 8.7 2.52 7.7
8/12/2023 9:00:00 PM 26.87 80.366 0.295 8.64 2.69 7.5
8/12/2023 9:15:00 PM 26.83 80.294 0.295 8.57 2.61 7.31
8/12/2023 9:30:00 PM 26.77 80.186 0.296 8.49 2.93 7.14
8/12/2023 9:45:00 PM 26.71 80.078 0.296 8.4 2.81 6.98
8/12/2023 10:00:00 PM 26.62 79.916 0.297 8.3 3.08 6.81
8/12/2023 10:15:00 PM 26.54 79.772 0.297 8.19 2.59 6.68
8/12/2023 10:30:00 PM 26.45 79.61 0.298 8.07 2.75 6.55
8/12/2023 10:45:00 PM 26.36 79.448 0.298 7.97 2.61 6.44
8/12/2023 11:00:00 PM 26.26 79.268 0.299 7.86 2.72 6.34
8/12/2023 11:15:00 PM 26.18 79.124 0.299 7.77 2.74 6.24
8/12/2023 11:30:00 PM 26.09 78.962 0.3 7.69 2.72 6.15
8/12/2023 11:45:00 PM 25.98 78.764 0.3 7.62 2.7 6.07
8/13/2023 12:00:00 AM 25.87 78.566 0.3 7.57 2.86 6
8/13/2023 12:15:00 AM 25.77 78.386 0.301 7.53 2.7 5.94
8/13/2023 12:30:00 AM 25.67 78.206 0.301 7.49 2.57 5.89
8/13/2023 12:45:00 AM 25.58 78.044 0.301 7.46 2.48 5.85
8/13/2023 1:00:00 AM 25.48 77.864 0.301 7.44 2.64 5.81
8/13/2023 1:15:00 AM 25.38 77.684 0.301 7.42 2.62 5.77
8/13/2023 1:30:00 AM 25.28 77.504 0.302 7.4 2.62 5.74
8/13/2023 1:45:00 AM 25.18 77.324 0.302 7.38 2.62 5.72
8/13/2023 2:00:00 AM 25.09 77.162 0.302 7.37 2.78 5.7
8/13/2023 2:15:00 AM 24.99 76.982 0.302 7.35 3.19 5.68
8/13/2023 2:30:00 AM 24.89 76.802 0.302 7.34 3.28 5.67
8/13/2023 2:45:00 AM 24.78 76.604 0.302 7.33 3.82 5.66
8/13/2023 3:00:00 AM 24.69 76.442 0.302 7.32 3.12 5.66
8/13/2023 3:15:00 AM 24.59 76.262 0.302 7.31 3.06 5.65
8/13/2023 3:30:00 AM 24.49 76.082 0.302 7.3 2.68 5.64
8/13/2023 3:45:00 AM 24.4 75.92 0.302 7.29 2.86 5.64
8/13/2023 4:00:00 AM 24.31 75.758 0.302 7.28 2.87 5.65
8/13/2023 4:15:00 AM 24.22 75.596 0.302 7.27 3.05 5.64
8/13/2023 4:30:00 AM 24.12 75.416 0.303 7.26 3.55 5.64
8/13/2023 4:45:00 AM 24.03 75.254 0.303 7.25 3.07 5.64
8/13/2023 5:00:00 AM 23.94 75.092 0.303 7.25 3.21 5.65
8/13/2023 5:15:00 AM 23.86 74.948 0.303 7.24 3.15 5.65
8/13/2023 5:30:00 AM 23.79 74.82201 0.303 7.24 2.83 5.66
8/13/2023 5:45:00 AM 23.71 74.67799 0.303 7.23 3.29 5.66
8/13/2023 6:00:00 AM 23.63 74.534 0.304 7.22 3.24 5.66
8/13/2023 6:15:00 AM 23.56 74.408 0.304 7.22 3.02 5.68
8/13/2023 6:30:00 AM 23.51 74.318 0.304 7.22 3.09 5.71
8/13/2023 6:45:00 AM 23.43 74.174 0.304 7.22 2.69 5.77
8/13/2023 7:00:00 AM 23.38 74.084 0.304 7.22 2.73 5.84
8/13/2023 7:15:00 AM 23.34 74.012 0.304 7.23 2.29 5.95
8/13/2023 7:30:00 AM 23.31 73.958 0.304 7.24 2.34 6.1
8/13/2023 7:45:00 AM 23.31 73.958 0.304 7.26 2.17 6.26
8/13/2023 8:00:00 AM 23.34 74.012 0.304 7.28 2.14 6.48
8/13/2023 8:15:00 AM 23.38 74.084 0.304 7.32 2.13 6.78
8/13/2023 8:30:00 AM 23.46 74.228 0.304 7.37 1.83 7.14
8/13/2023 8:45:00 AM 23.54 74.372 0.304 7.43 1.75 7.53
8/13/2023 9:00:00 AM 23.67 74.606 0.304 7.5 1.7 7.96
8/13/2023 9:15:00 AM 23.84 74.912 0.304 7.6 1.54 8.46
8/13/2023 9:30:00 AM 24 75.2 0.304 7.7 1.5 8.84
8/13/2023 9:45:00 AM 24.19 75.542 0.304 7.81 1.44 9.21
8/13/2023 10:00:00 AM 24.42 75.956 0.303 7.93 1.41 9.59
8/13/2023 10:15:00 AM 24.65 76.37 0.303 8.07 1.58 9.95
8/13/2023 10:30:00 AM 24.89 76.802 0.303 8.21 1.43 10.31
8/13/2023 10:45:00 AM 25.14 77.252 0.303 8.33 1.34 10.63
8/13/2023 11:00:00 AM 25.3 77.54 0.302 8.42 1.38 10.82
8/13/2023 11:15:00 AM 25.62 78.116 0.302 8.51 1.77 11.12
8/13/2023 11:30:00 AM 25.84 78.512 0.303 8.56 1.68 11.23
8/13/2023 11:45:00 AM 26.04 78.872 0.303 8.62 1.56 11.36
8/13/2023 12:00:00 PM 26.34 79.412 0.303 8.7 2.1 11.67
8/13/2023 12:15:00 PM 26.57 79.826 0.303 8.75 2.2 11.83
8/13/2023 12:30:00 PM 26.81 80.258 0.303 8.79 3.5 11.97
8/13/2023 12:45:00 PM 27.03 80.654 0.303 8.84 1.82 12.15
8/13/2023 1:00:00 PM 27.27 81.086 0.303 8.88 1.77 12.27
8/13/2023 1:15:00 PM 27.49 81.482 0.302 8.91 1.6 12.35
8/13/2023 1:30:00 PM 27.69 81.842 0.302 8.94 1.7 12.4
8/13/2023 1:45:00 PM 27.82 82.076 0.302 8.96 1.72 12.43
8/13/2023 2:00:00 PM 27.97 82.346 0.302 8.99 1.58 12.48
8/13/2023 2:15:00 PM 28.09 82.562 0.302 9 1.7 12.45
8/13/2023 2:30:00 PM 28.19 82.742 0.302 9.02 1.66 12.44
8/13/2023 2:45:00 PM 28.22 82.796 0.302 9.04 1.73 12.42
8/13/2023 3:00:00 PM 28.29 82.922 0.302 9.05 1.84 12.33
8/13/2023 3:15:00 PM 28.34 83.012 0.302 9.06 1.91 12.3
8/13/2023 3:30:00 PM 28.22 82.796 0.302 9.06 1.64 12.06
8/13/2023 3:45:00 PM 28.28 82.904 0.302 9.08 1.83 11.98
8/13/2023 4:00:00 PM 28.26 82.868 0.302 9.08 1.78 11.82
8/13/2023 4:15:00 PM 28.28 82.904 0.302 9.09 1.78 11.75
8/13/2023 4:30:00 PM 28.23 82.814 0.302 9.09 1.84 11.58
8/13/2023 4:45:00 PM 28.19 82.742 0.301 9.09 1.7 11.4
8/13/2023 5:00:00 PM 28.13 82.634 0.301 9.09 1.65 11.19
8/13/2023 5:15:00 PM 28.1 82.58 0.301 9.09 1.86 11.04
8/13/2023 5:30:00 PM 28 82.4 0.301 9.09 2.11 10.78
8/13/2023 5:45:00 PM 27.93 82.274 0.301 9.09 1.82 10.57
8/13/2023 6:00:00 PM 27.85 82.13 0.301 9.08 1.69 10.34
8/13/2023 6:15:00 PM 27.81 82.058 0.301 9.07 1.73 10.12
8/13/2023 6:30:00 PM 27.75 81.95 0.301 9.06 1.68 9.81
8/13/2023 6:45:00 PM 27.72 81.896 0.301 9.04 1.9 9.51
8/13/2023 7:00:00 PM 27.69 81.842 0.302 9.01 2.02 9.2
8/13/2023 7:15:00 PM 27.67 81.806 0.302 8.98 2 8.87
8/13/2023 7:30:00 PM 27.66 81.788 0.302 8.94 1.87 8.56
8/13/2023 7:45:00 PM 27.62 81.716 0.303 8.91 1.88 8.28
8/13/2023 8:00:00 PM 27.56 81.608 0.303 8.88 1.9 8.04
8/13/2023 8:15:00 PM 27.5 81.5 0.304 8.85 1.96 7.82
8/13/2023 8:30:00 PM 27.42 81.356 0.304 8.8 2.14 7.6
8/13/2023 8:45:00 PM 27.34 81.212 0.305 8.75 2.25 7.4
8/13/2023 9:00:00 PM 27.25 81.05 0.305 8.7 2.34 7.21
8/13/2023 9:15:00 PM 27.16 80.888 0.306 8.64 2.34 7.05
8/13/2023 9:30:00 PM 27.07 80.726 0.307 8.58 2.36 6.9
8/13/2023 9:45:00 PM 26.97 80.546 0.307 8.5 2.74 6.75
8/13/2023 10:00:00 PM 26.88 80.384 0.308 8.42 2.36 6.63
8/13/2023 10:15:00 PM 26.76 80.168 0.309 8.32 2.68 6.5
8/13/2023 10:30:00 PM 26.67 80.006 0.309 8.23 2.45 6.39
8/13/2023 10:45:00 PM 26.53 79.754 0.31 8.11 2.8 6.28
8/13/2023 11:00:00 PM 26.42 79.556 0.311 8 2.49 6.18
8/13/2023 11:15:00 PM 26.28 79.304 0.312 7.89 2.29 6.09
8/13/2023 11:30:00 PM 26.15 79.07 0.312 7.79 2.32 6.02
8/13/2023 11:45:00 PM 26 78.8 0.313 7.71 2.12 5.95
8/14/2023 12:00:00 AM 25.85 78.53 0.313 7.64 2.21 5.89
8/14/2023 12:15:00 AM 25.7 78.26 0.314 7.59 2.2 5.84
8/14/2023 12:30:00 AM 25.54 77.972 0.314 7.54 2.57 5.8
8/14/2023 12:45:00 AM 25.38 77.684 0.314 7.5 2.51 5.78
8/14/2023 1:00:00 AM 25.23 77.414 0.315 7.47 2.34 5.75
8/14/2023 1:15:00 AM 25.06 77.108 0.315 7.44 2.4 5.73
8/14/2023 1:30:00 AM 24.91 76.838 0.315 7.41 2.41 5.72
8/14/2023 1:45:00 AM 24.76 76.568 0.315 7.39 2.21 5.71
8/14/2023 2:00:00 AM 24.62 76.316 0.316 7.37 2.43 5.71
8/14/2023 2:15:00 AM 24.48 76.064 0.316 7.36 2.24 5.71
8/14/2023 2:30:00 AM 24.34 75.812 0.316 7.34 2.26 5.71
8/14/2023 2:45:00 AM 24.19 75.542 0.316 7.33 2.34 5.72
8/14/2023 3:00:00 AM 24.05 75.29 0.316 7.32 2.35 5.73
8/14/2023 3:15:00 AM 23.92 75.056 0.316 7.31 2.28 5.74
8/14/2023 3:30:00 AM 23.8 74.84 0.316 7.3 4.28 5.75
8/14/2023 3:45:00 AM 23.67 74.606 0.316 7.29 2.53 5.76
8/14/2023 4:00:00 AM 23.55 74.39 0.315 7.29 3.78 5.77
8/14/2023 4:15:00 AM 23.44 74.192 0.315 7.28 2.51 5.79
8/14/2023 4:30:00 AM 23.32 73.976 0.315 7.27 2.42 5.8
8/14/2023 4:45:00 AM 23.22 73.796 0.315 7.27 2.19 5.8
8/14/2023 5:00:00 AM 23.11 73.598 0.315 7.26 2.2 5.82
8/14/2023 5:15:00 AM 23.02 73.436 0.315 7.26 2.42 5.85
8/14/2023 5:30:00 AM 22.94 73.292 0.315 7.25 2.64 5.86
8/14/2023 5:45:00 AM 22.85 73.13 0.315 7.25 2.81 5.87
8/14/2023 6:00:00 AM 22.78 73.004 0.315 7.25 2.88 5.88
8/14/2023 6:15:00 AM 22.7 72.86 0.315 7.25 2.67 5.89
8/14/2023 6:30:00 AM 22.62 72.716 0.315 7.25 2.44 5.89
8/14/2023 6:45:00 AM 22.55 72.59 0.314 7.25 2.43 5.99
8/14/2023 7:00:00 AM 22.47 72.446 0.314 7.25 2.21 6.09
8/14/2023 7:15:00 AM 22.42 72.356 0.314 7.26 2.22 6.21
8/14/2023 7:30:00 AM 22.37 72.266 0.314 7.28 2.09 6.39
8/14/2023 7:45:00 AM 22.35 72.23 0.314 7.3 1.91 6.59
8/14/2023 8:00:00 AM 22.37 72.266 0.314 7.33 1.83 6.9
8/14/2023 8:15:00 AM 22.39 72.302 0.314 7.37 2.05 7.18
8/14/2023 8:30:00 AM 22.43 72.374 0.314 7.41 1.72 7.5
8/14/2023 8:45:00 AM 22.45 72.41 0.313 7.45 1.78 7.73
8/14/2023 9:00:00 AM 22.47 72.446 0.313 7.48 1.61 7.91
8/14/2023 9:15:00 AM 22.52 72.536 0.313 7.52 1.44 8.19
8/14/2023 9:30:00 AM 22.6 72.68 0.313 7.59 1.3 8.54
8/14/2023 9:45:00 AM 22.67 72.806 0.313 7.66 1.25 8.85
8/14/2023 10:00:00 AM 22.74 72.932 0.312 7.74 1.87 9.17
8/14/2023 10:15:00 AM 22.94 73.292 0.312 7.85 1.76 9.53
8/14/2023 10:30:00 AM 23.12 73.616 0.312 7.95 1.22 9.85
8/14/2023 10:45:00 AM 23.36 74.048 0.312 8.1 1.28 10.27
8/14/2023 11:00:00 AM 23.64 74.552 0.311 8.25 1.17 10.66
8/14/2023 11:15:00 AM 23.87 74.966 0.311 8.39 1.22 11.05
8/14/2023 11:30:00 AM 24.11 75.398 0.31 8.52 1.24 11.43
8/14/2023 11:45:00 AM 24.35 75.83 0.31 8.6 1.48 11.65
8/14/2023 12:00:00 PM 24.72 76.496 0.311 8.67 1.31 11.89
8/14/2023 12:15:00 PM 24.97 76.946 0.31 8.73 1.24 12.1
8/14/2023 12:30:00 PM 25.16 77.288 0.31 8.78 1.22 12.23
8/14/2023 12:45:00 PM 25.33 77.594 0.31 8.84 1.3 12.43
8/14/2023 1:00:00 PM 25.45 77.81 0.309 8.89 1.35 12.53
8/14/2023 1:15:00 PM 25.64 78.152 0.309 8.92 1.29 12.6
8/14/2023 1:30:00 PM 25.85 78.53 0.309 8.96 1.46 12.71
8/14/2023 1:45:00 PM 26.27 79.286 0.309 9 1.47 12.87
8/14/2023 2:00:00 PM 26.59 79.862 0.309 9.04 1.38 12.94
8/14/2023 2:15:00 PM 26.89 80.402 0.308 9.08 1.39 13.09
8/14/2023 2:30:00 PM 26.96 80.528 0.308 9.11 1.38 13.05
8/14/2023 2:45:00 PM 27.03 80.654 0.308 9.14 1.35 13.07
8/14/2023 3:00:00 PM 27.2 80.96 0.308 9.16 1.41 13.04
8/14/2023 3:15:00 PM 27.18 80.924 0.309 9.17 1.43 12.86
8/14/2023 3:30:00 PM 27.21 80.978 0.308 9.18 1.53 12.78
8/14/2023 3:45:00 PM 27.29 81.122 0.309 9.2 1.42 12.7
8/14/2023 4:00:00 PM 27.33 81.194 0.308 9.21 1.48 12.54
8/14/2023 4:15:00 PM 27.23 81.014 0.308 9.22 1.35 12.34
8/14/2023 4:30:00 PM 27.25 81.05 0.308 9.23 1.4 12.22
8/14/2023 4:45:00 PM 27.26 81.068 0.309 9.22 1.51 12.04
8/14/2023 5:00:00 PM 27.34 81.212 0.309 9.23 2.78 11.99
8/14/2023 5:15:00 PM 27.26 81.068 0.309 9.23 1.62 11.76
8/14/2023 5:30:00 PM 27.15 80.87 0.309 9.22 1.58 11.53
8/14/2023 5:45:00 PM 26.98 80.564 0.309 9.2 1.58 11.12
8/14/2023 6:00:00 PM 26.83 80.294 0.309 9.17 1.77 10.63
8/14/2023 6:15:00 PM 26.72 80.096 0.31 9.14 1.6 10.18
8/14/2023 6:30:00 PM 26.66 79.988 0.31 9.11 1.59 9.87
8/14/2023 6:45:00 PM 26.63 79.934 0.31 9.09 1.53 9.56
8/14/2023 7:00:00 PM 26.6 79.88 0.31 9.07 1.7 9.28
8/14/2023 7:15:00 PM 26.57 79.826 0.31 9.04 1.62 9
8/14/2023 7:30:00 PM 26.53 79.754 0.31 9.01 1.75 8.71
8/14/2023 7:45:00 PM 26.35 79.43 0.308 8.98 1.75 8.4
8/14/2023 8:00:00 PM 26.31 79.358 0.308 8.93 1.81 8.14
8/14/2023 8:15:00 PM 26.28 79.304 0.308 8.89 2.05 7.9
8/14/2023 8:30:00 PM 26.25 79.25 0.31 8.85 2.05 7.68
8/14/2023 8:45:00 PM 26.21 79.17799 0.31 8.79 2.36 7.47
8/14/2023 9:00:00 PM 26.16 79.088 0.311 8.73 2.49 7.27
8/14/2023 9:15:00 PM 26.12 79.016 0.311 8.67 2.58 7.1
8/14/2023 9:30:00 PM 26.07 78.926 0.311 8.61 2.59 6.95
8/14/2023 9:45:00 PM 26.04 78.872 0.312 8.54 2.42 6.81
8/14/2023 10:00:00 PM 26.02 78.836 0.313 8.45 2.16 6.67
8/14/2023 10:15:00 PM 25.98 78.764 0.314 8.36 2.29 6.55
8/14/2023 10:30:00 PM 25.93 78.674 0.314 8.25 2.35 6.42
8/14/2023 10:45:00 PM 25.89 78.602 0.315 8.13 2.35 6.31
8/14/2023 11:00:00 PM 25.84 78.512 0.315 8.02 2.16 6.21
8/14/2023 11:15:00 PM 25.78 78.404 0.316 7.91 2.68 6.12
8/14/2023 11:30:00 PM 25.73 78.314 0.316 7.82 3.12 6.04
8/14/2023 11:45:00 PM 25.67 78.206 0.316 7.74 3.45 5.97
8/15/2023 12:00:00 AM 25.61 78.098 0.317 7.67 2.53 5.91
8/15/2023 12:15:00 AM 25.54 77.972 0.317 7.62 2.36 5.86
8/15/2023 12:30:00 AM 25.47 77.846 0.317 7.58 2.22 5.81
8/15/2023 12:45:00 AM 25.39 77.702 0.317 7.54 2.22 5.77
8/15/2023 1:00:00 AM 25.32 77.576 0.317 7.51 2.2 5.74
8/15/2023 1:15:00 AM 25.24 77.432 0.318 7.48 2.28 5.72
8/15/2023 1:30:00 AM 25.17 77.306 0.318 7.46 1.97 5.7
8/15/2023 1:45:00 AM 25.09 77.162 0.318 7.44 2.52 5.69
8/15/2023 2:00:00 AM 25.02 77.036 0.318 7.42 2.31 5.68
8/15/2023 2:15:00 AM 24.95 76.91 0.318 7.41 2.29 5.67
8/15/2023 2:30:00 AM 24.88 76.784 0.318 7.4 2.44 5.66
8/15/2023 2:45:00 AM 24.81 76.658 0.318 7.39 2.29 5.66
8/15/2023 3:00:00 AM 24.73 76.514 0.318 7.37 2.21 5.66
8/15/2023 3:15:00 AM 24.68 76.424 0.318 7.36 2.28 5.66
8/15/2023 3:30:00 AM 24.61 76.298 0.318 7.36 2.16 5.66
8/15/2023 3:45:00 AM 24.55 76.19 0.318 7.35 2.77 5.67
8/15/2023 4:00:00 AM 24.5 76.1 0.318 7.34 2.99 5.66
8/15/2023 4:15:00 AM 24.44 75.992 0.318 7.33 2.84 5.66
8/15/2023 4:30:00 AM 24.38 75.884 0.318 7.32 2.67 5.66
8/15/2023 4:45:00 AM 24.31 75.758 0.318 7.32 2.95 5.66
8/15/2023 5:00:00 AM 24.25 75.65 0.318 7.31 3.06 5.67
8/15/2023 5:15:00 AM 24.18 75.524 0.318 7.3 2.83 5.67
8/15/2023 5:30:00 AM 24.12 75.416 0.318 7.3 2.9 5.68
8/15/2023 5:45:00 AM 24.06 75.308 0.318 7.29 2.74 5.68
8/15/2023 6:00:00 AM 24 75.2 0.318 7.29 2.85 5.69
8/15/2023 6:15:00 AM 23.95 75.11 0.318 7.29 2.7 5.7
8/15/2023 6:30:00 AM 23.9 75.02 0.317 7.28 2.47 5.72
8/15/2023 6:45:00 AM 23.85 74.93 0.317 7.28 2.32 5.78
8/15/2023 7:00:00 AM 23.81 74.858 0.317 7.29 2.29 5.84
8/15/2023 7:15:00 AM 23.77 74.786 0.317 7.29 1.98 5.91
8/15/2023 7:30:00 AM 23.74 74.732 0.317 7.3 2.07 6
8/15/2023 7:45:00 AM 23.73 74.714 0.317 7.31 2.01 6.18
8/15/2023 8:00:00 AM 23.73 74.714 0.317 7.33 1.71 6.34
8/15/2023 8:15:00 AM 23.77 74.786 0.316 7.37 1.87 6.67
8/15/2023 8:30:00 AM 23.81 74.858 0.316 7.4 1.58 6.96
8/15/2023 8:45:00 AM 23.9 75.02 0.316 7.47 1.49 7.37
8/15/2023 9:00:00 AM 23.99 75.182 0.316 7.52 1.45 7.68
8/15/2023 9:15:00 AM 24.12 75.416 0.315 7.61 1.48 8.12
8/15/2023 9:30:00 AM 24.28 75.704 0.315 7.7 1.26 8.53
8/15/2023 9:45:00 AM 24.47 76.046 0.315 7.82 1.56 8.98
8/15/2023 10:00:00 AM 24.69 76.442 0.314 7.95 1.22 9.38
8/15/2023 10:15:00 AM 24.95 76.91 0.314 8.09 1.18 9.79
8/15/2023 10:30:00 AM 25.19 77.342 0.313 8.24 1.27 10.17
8/15/2023 10:45:00 AM 25.37 77.666 0.313 8.34 1.16 10.44
8/15/2023 11:00:00 AM 25.67 78.206 0.312 8.45 1.43 10.77
8/15/2023 11:15:00 AM 25.72 78.296 0.312 8.48 1.32 10.78
8/15/2023 11:30:00 AM 26.03 78.854 0.312 8.58 1.32 11.14
8/15/2023 11:45:00 AM 26.18 79.124 0.311 8.64 1.09 11.29
8/15/2023 12:00:00 PM 26.43 79.574 0.311 8.7 1.36 11.53
8/15/2023 12:15:00 PM 26.55 79.79 0.311 8.74 1.53 11.58
8/15/2023 12:30:00 PM 26.62 79.916 0.311 8.78 1.22 11.7
8/15/2023 12:45:00 PM 26.77 80.186 0.311 8.8 1.36 11.67
8/15/2023 1:00:00 PM 26.68 80.024 0.311 8.79 1.37 11.42
8/15/2023 1:15:00 PM 26.68 80.024 0.311 8.8 1.47 11.4
8/15/2023 1:30:00 PM 26.83 80.294 0.311 8.81 1.31 11.45
8/15/2023 1:45:00 PM 26.89 80.402 0.31 8.84 1.26 11.55
8/15/2023 2:00:00 PM 26.83 80.294 0.31 8.86 1.24 11.53
8/15/2023 2:15:00 PM 27.05 80.69 0.31 8.9 1.27 11.73
8/15/2023 2:30:00 PM 27.32 81.176 0.31 8.93 1.43 11.84
8/15/2023 2:45:00 PM 27.56 81.608 0.31 8.97 1.52 12.01
8/15/2023 3:00:00 PM 27.65 81.77 0.31 8.99 1.42 11.99
8/15/2023 3:15:00 PM 27.7 81.86 0.31 9.01 1.41 12.05
8/15/2023 3:30:00 PM 27.79 82.022 0.31 9.02 1.44 11.98
8/15/2023 3:45:00 PM 27.79 82.022 0.31 9.04 2.21 11.96
8/15/2023 4:00:00 PM 27.88 82.184 0.309 9.05 1.52 11.89
8/15/2023 4:15:00 PM 27.9 82.22 0.31 9.06 1.44 11.77
8/15/2023 4:30:00 PM 27.78 82.004 0.309 9.06 1.42 11.51
8/15/2023 4:45:00 PM 27.64 81.752 0.31 9.05 1.51 11.15
8/15/2023 5:00:00 PM 27.51 81.518 0.31 9.01 1.43 10.71
8/15/2023 5:15:00 PM 27.52 81.536 0.31 9 1.6 10.53
8/15/2023 5:30:00 PM 27.66 81.788 0.31 9.01 1.48 10.54
8/15/2023 5:45:00 PM 27.7 81.86 0.31 9.02 1.6 10.46
8/15/2023 6:00:00 PM 27.7 81.86 0.311 9.03 1.78 10.34
8/15/2023 6:15:00 PM 27.71 81.878 0.311 9.02 1.59 10.12
8/15/2023 6:30:00 PM 27.71 81.878 0.311 9.01 1.57 9.98
8/15/2023 6:45:00 PM 27.67 81.806 0.312 8.98 1.79 9.69
8/15/2023 7:00:00 PM 27.6 81.68 0.313 8.94 1.56 9.31
8/15/2023 7:15:00 PM 27.56 81.608 0.313 8.9 1.52 9.01
8/15/2023 7:30:00 PM 27.52 81.536 0.314 8.87 1.69 8.77
8/15/2023 7:45:00 PM 27.49 81.482 0.315 8.84 1.64 8.48
8/15/2023 8:00:00 PM 27.46 81.42799 0.316 8.79 1.87 8.19
8/15/2023 8:15:00 PM 27.43 81.374 0.316 8.74 1.89 7.91
8/15/2023 8:30:00 PM 27.42 81.356 0.317 8.69 1.93 7.65
8/15/2023 8:45:00 PM 27.4 81.32 0.318 8.62 3.43 7.39
8/15/2023 9:00:00 PM 27.38 81.284 0.319 8.54 2.1 7.18
8/15/2023 9:15:00 PM 27.37 81.266 0.32 8.47 2.44 7
8/15/2023 9:30:00 PM 27.35 81.23 0.321 8.39 2.53 6.84
8/15/2023 9:45:00 PM 27.31 81.158 0.322 8.29 2.51 6.69
8/15/2023 10:00:00 PM 27.25 81.05 0.324 8.18 2.62 6.53
8/15/2023 10:15:00 PM 27.18 80.924 0.325 8.06 2.58 6.39
8/15/2023 10:30:00 PM 27.12 80.816 0.326 7.94 2.71 6.26
8/15/2023 10:45:00 PM 27.05 80.69 0.327 7.84 2.52 6.13
8/15/2023 11:00:00 PM 26.96 80.528 0.328 7.75 2.28 6.03
8/15/2023 11:15:00 PM 26.88 80.384 0.329 7.66 2.4 5.93
8/15/2023 11:30:00 PM 26.8 80.24 0.33 7.6 3.08 5.82
8/15/2023 11:45:00 PM 26.71 80.078 0.331 7.55 2.93 5.72
8/16/2023 12:00:00 AM 26.62 79.916 0.332 7.5 4.47 5.63
8/16/2023 12:15:00 AM 26.5 79.7 0.333 7.46 2.82 5.56
8/16/2023 12:30:00 AM 26.4 79.52 0.333 7.43 2.92 5.49
8/16/2023 12:45:00 AM 26.3 79.34 0.334 7.4 2.7 5.44
8/16/2023 1:00:00 AM 26.21 79.17799 0.334 7.38 2.94 5.38
8/16/2023 1:15:00 AM 26.11 78.998 0.334 7.36 3.24 5.33
8/16/2023 1:30:00 AM 26.02 78.836 0.334 7.34 3.05 5.3
8/16/2023 1:45:00 AM 25.94 78.692 0.335 7.32 2.91 5.26
8/16/2023 2:00:00 AM 25.85 78.53 0.335 7.31 3.23 5.23
8/16/2023 2:15:00 AM 25.77 78.386 0.334 7.3 3.3 5.24
8/16/2023 2:30:00 AM 25.64 78.152 0.333 7.3 3.56 5.29
8/16/2023 2:45:00 AM 25.55 77.99 0.333 7.29 3.44 5.25
8/16/2023 3:00:00 AM 25.46 77.828 0.333 7.28 4.17 5.21
8/16/2023 3:15:00 AM 25.37 77.666 0.333 7.27 3.93 5.17
8/16/2023 3:30:00 AM 25.26 77.468 0.334 7.27 4.15 5.17
8/16/2023 3:45:00 AM 25.16 77.288 0.333 7.26 4.12 5.16
8/16/2023 4:00:00 AM 25.06 77.108 0.333 7.25 3.87 5.16
8/16/2023 4:15:00 AM 24.95 76.91 0.332 7.25 3.9 5.19
8/16/2023 4:30:00 AM 24.83 76.694 0.332 7.25 3.69 5.2
8/16/2023 4:45:00 AM 24.74 76.532 0.332 7.24 3.72 5.21
8/16/2023 5:00:00 AM 24.64 76.352 0.332 7.24 4.2 5.23
8/16/2023 5:15:00 AM 24.54 76.172 0.332 7.24 3.94 5.25
8/16/2023 5:30:00 AM 24.45 76.01 0.331 7.24 3.66 5.27
8/16/2023 5:45:00 AM 24.36 75.848 0.331 7.23 3.76 5.27
8/16/2023 6:00:00 AM 24.25 75.65 0.331 7.23 3.97 5.29
8/16/2023 6:15:00 AM 24.16 75.488 0.331 7.23 3.75 5.32
8/16/2023 6:30:00 AM 24.07 75.326 0.33 7.22 3.86 5.35
8/16/2023 6:45:00 AM 24 75.2 0.33 7.23 3.5 5.43
8/16/2023 7:00:00 AM 23.93 75.074 0.329 7.23 3.22 5.53
8/16/2023 7:15:00 AM 23.87 74.966 0.329 7.24 3.02 5.65
8/16/2023 7:30:00 AM 23.81 74.858 0.329 7.25 3.12 5.78
8/16/2023 7:45:00 AM 23.77 74.786 0.328 7.27 2.89 5.94
8/16/2023 8:00:00 AM 23.74 74.732 0.328 7.29 2.78 6.14
8/16/2023 8:15:00 AM 23.74 74.732 0.327 7.32 2.65 6.41
8/16/2023 8:30:00 AM 23.77 74.786 0.327 7.36 2.38 6.76
8/16/2023 8:45:00 AM 23.83 74.894 0.327 7.41 2.29 7.16
8/16/2023 9:00:00 AM 23.92 75.056 0.326 7.48 2.06 7.59
8/16/2023 9:15:00 AM 24.04 75.272 0.326 7.55 2.03 8.02
8/16/2023 9:30:00 AM 24.2 75.56 0.325 7.65 1.95 8.46
8/16/2023 9:45:00 AM 24.38 75.884 0.325 7.75 1.99 8.89
8/16/2023 10:00:00 AM 24.59 76.262 0.325 7.88 1.89 9.33
8/16/2023 10:15:00 AM 24.84 76.712 0.325 8.02 1.8 9.75
8/16/2023 10:30:00 AM 25.1 77.18 0.324 8.17 1.76 10.15
8/16/2023 10:45:00 AM 25.38 77.684 0.324 8.29 1.79 10.5
8/16/2023 11:00:00 AM 25.65 78.17 0.324 8.4 3.89 10.82
8/16/2023 11:15:00 AM 25.93 78.674 0.323 8.5 1.88 11.12
8/16/2023 11:30:00 AM 26.2 79.16 0.323 8.58 1.71 11.37
8/16/2023 11:45:00 AM 26.49 79.682 0.323 8.65 3.16 11.6
8/16/2023 12:00:00 PM 26.79 80.222 0.323 8.72 1.73 11.84
8/16/2023 12:15:00 PM 26.78 80.204 0.323 8.74 1.72 11.8
8/16/2023 12:30:00 PM 26.91 80.438 0.323 8.78 1.75 11.91
8/16/2023 12:45:00 PM 27.15 80.87 0.323 8.8 1.83 11.94
8/16/2023 1:00:00 PM 27.23 81.014 0.323 8.82 1.74 11.98
8/16/2023 1:15:00 PM 27.54 81.57201 0.323 8.86 1.91 12.13
8/16/2023 1:30:00 PM 27.8 82.04 0.322 8.9 1.8 12.32
8/16/2023 1:45:00 PM 28.01 82.418 0.322 8.95 1.83 12.5
8/16/2023 2:00:00 PM 28.22 82.796 0.322 8.99 1.91 12.64
8/16/2023 2:15:00 PM 28.07 82.526 0.322 9 1.86 12.49
8/16/2023 2:30:00 PM 28.18 82.724 0.322 9.02 1.85 12.5
8/16/2023 2:45:00 PM 28.05 82.49 0.322 9.01 1.9 12.22
8/16/2023 3:00:00 PM 28.21 82.778 0.321 9.03 1.87 12.28
8/16/2023 3:15:00 PM 28.2 82.76 0.321 9.02 1.88 12.06
8/16/2023 3:30:00 PM 28.09 82.562 0.321 9.03 1.74 11.99
8/16/2023 3:45:00 PM 28.23 82.814 0.321 9.05 1.93 12.02
8/16/2023 4:00:00 PM 28.09 82.562 0.32 9.04 2.14 11.76
8/16/2023 4:15:00 PM 28.07 82.526 0.32 9.06 1.94 11.77
8/16/2023 4:30:00 PM 28.03 82.454 0.32 9.05 2.07 11.55
8/16/2023 4:45:00 PM 27.83 82.094 0.319 9.03 1.96 11.17
8/16/2023 5:00:00 PM 27.85 82.13 0.319 9.05 1.89 11.21
8/16/2023 5:15:00 PM 27.72 81.896 0.319 9.03 1.8 10.93
8/16/2023 5:30:00 PM 27.66 81.788 0.319 9.03 1.94 10.81
8/16/2023 5:45:00 PM 27.58 81.644 0.318 9.03 1.83 10.63
8/16/2023 6:00:00 PM 27.52 81.536 0.318 9.03 1.87 10.43
8/16/2023 6:15:00 PM 27.47 81.446 0.317 9.02 1.83 10.21
8/16/2023 6:30:00 PM 27.45 81.41 0.317 9.01 1.83 9.94
8/16/2023 6:45:00 PM 27.43 81.374 0.317 8.98 1.82 9.63
8/16/2023 7:00:00 PM 27.4 81.32 0.317 8.95 1.78 9.29
8/16/2023 7:15:00 PM 27.36 81.248 0.317 8.91 1.83 8.92
8/16/2023 7:30:00 PM 27.32 81.176 0.317 8.87 1.83 8.58
8/16/2023 7:45:00 PM 27.29 81.122 0.318 8.84 1.81 8.32
8/16/2023 8:00:00 PM 27.25 81.05 0.318 8.8 2.67 8.09
8/16/2023 8:15:00 PM 27.2 80.96 0.318 8.76 2 7.87
8/16/2023 8:30:00 PM 27.15 80.87 0.318 8.72 2.03 7.66
8/16/2023 8:45:00 PM 27.08 80.744 0.319 8.67 2.35 7.47
8/16/2023 9:00:00 PM 27.01 80.618 0.319 8.62 2.17 7.3
8/16/2023 9:15:00 PM 26.92 80.456 0.32 8.56 2.79 7.13
8/16/2023 9:30:00 PM 26.84 80.312 0.32 8.5 3.79 6.99
8/16/2023 9:45:00 PM 26.77 80.186 0.321 8.43 2.66 6.85
8/16/2023 10:00:00 PM 26.68 80.024 0.321 8.35 2.48 6.72
8/16/2023 10:15:00 PM 26.6 79.88 0.322 8.26 2.52 6.58
8/16/2023 10:30:00 PM 26.5 79.7 0.323 8.17 2.31 6.48
8/16/2023 10:45:00 PM 26.4 79.52 0.323 8.06 2.46 6.36
8/16/2023 11:00:00 PM 26.29 79.32201 0.324 7.95 2.87 6.26
8/16/2023 11:15:00 PM 26.17 79.106 0.324 7.85 2.3 6.17
8/16/2023 11:30:00 PM 26.04 78.872 0.325 7.76 2.3 6.09
8/16/2023 11:45:00 PM 25.93 78.674 0.326 7.69 2.27 6.02
8/17/2023 12:00:00 AM 25.81 78.458 0.326 7.62 2.63 5.95
8/17/2023 12:15:00 AM 25.69 78.242 0.327 7.57 2.63 5.89
8/17/2023 12:30:00 AM 25.55 77.99 0.327 7.53 2.17 5.84
8/17/2023 12:45:00 AM 25.42 77.756 0.327 7.49 2.07 5.79
8/17/2023 1:00:00 AM 25.26 77.468 0.327 7.46 2.48 5.76
8/17/2023 1:15:00 AM 25.12 77.216 0.327 7.43 2.5 5.74
8/17/2023 1:30:00 AM 24.98 76.964 0.327 7.41 2.24 5.72
8/17/2023 1:45:00 AM 24.83 76.694 0.327 7.39 2.11 5.71
8/17/2023 2:00:00 AM 24.69 76.442 0.327 7.37 1.95 5.69
8/17/2023 2:15:00 AM 24.56 76.208 0.327 7.36 1.88 5.69
8/17/2023 2:30:00 AM 24.43 75.974 0.327 7.35 1.87 5.68
8/17/2023 2:45:00 AM 24.3 75.74 0.327 7.34 1.85 5.69
8/17/2023 3:00:00 AM 24.16 75.488 0.327 7.33 2.13 5.69
8/17/2023 3:15:00 AM 24.03 75.254 0.326 7.32 1.93 5.71
8/17/2023 3:30:00 AM 23.91 75.038 0.326 7.31 2.26 5.72
8/17/2023 3:45:00 AM 23.8 74.84 0.326 7.3 2.08 5.72
8/17/2023 4:00:00 AM 23.68 74.624 0.326 7.29 2.36 5.74
8/17/2023 4:15:00 AM 23.56 74.408 0.326 7.29 2.27 5.76
8/17/2023 4:30:00 AM 23.45 74.21 0.325 7.28 2.26 5.76
8/17/2023 4:45:00 AM 23.35 74.03 0.325 7.28 2.16 5.78
8/17/2023 5:00:00 AM 23.23 73.814 0.325 7.27 2.43 5.79
8/17/2023 5:15:00 AM 23.12 73.616 0.325 7.27 2.13 5.81
8/17/2023 5:30:00 AM 23.01 73.418 0.324 7.26 2.65 5.83
8/17/2023 5:45:00 AM 22.92 73.256 0.324 7.26 2.66 5.84
8/17/2023 6:00:00 AM 22.82 73.076 0.324 7.25 2.82 5.85
8/17/2023 6:15:00 AM 22.73 72.914 0.324 7.25 2.62 5.87
8/17/2023 6:30:00 AM 22.63 72.734 0.323 7.25 2.35 5.9
8/17/2023 6:45:00 AM 22.55 72.59 0.323 7.25 2.32 5.97
8/17/2023 7:00:00 AM 22.48 72.464 0.322 7.26 2.41 6.08
8/17/2023 7:15:00 AM 22.41 72.338 0.322 7.27 2.22 6.25
8/17/2023 7:30:00 AM 22.38 72.284 0.321 7.29 1.97 6.45
8/17/2023 7:45:00 AM 22.35 72.23 0.321 7.31 1.92 6.64
8/17/2023 8:00:00 AM 22.35 72.23 0.321 7.34 1.93 6.87
8/17/2023 8:15:00 AM 22.37 72.266 0.32 7.38 2.02 7.14
8/17/2023 8:30:00 AM 22.42 72.356 0.32 7.42 1.88 7.48
8/17/2023 8:45:00 AM 22.52 72.536 0.32 7.49 1.52 7.93
8/17/2023 9:00:00 AM 22.66 72.788 0.319 7.58 1.55 8.42
8/17/2023 9:15:00 AM 22.82 73.076 0.319 7.68 1.34 8.88
8/17/2023 9:30:00 AM 23 73.4 0.319 7.79 1.27 9.28
8/17/2023 9:45:00 AM 23.15 73.67 0.318 7.91 1.18 9.63
8/17/2023 10:00:00 AM 23.34 74.012 0.319 8.07 1.27 10.06
8/17/2023 10:15:00 AM 23.57 74.426 0.318 8.22 1.17 10.45
8/17/2023 10:30:00 AM 23.78 74.804 0.318 8.31 1.28 10.65
8/17/2023 10:45:00 AM 23.99 75.182 0.317 8.42 1.19 10.94
8/17/2023 11:00:00 AM 24.26 75.668 0.317 8.5 1.11 11.19
8/17/2023 11:15:00 AM 24.54 76.172 0.317 8.59 1.24 11.45
8/17/2023 11:30:00 AM 24.8 76.64 0.316 8.68 1.35 11.74
8/17/2023 11:45:00 AM 25.07 77.126 0.316 8.74 1.16 11.94
8/17/2023 12:00:00 PM 25.41 77.738 0.316 8.81 1.35 12.18
8/17/2023 12:15:00 PM 25.7 78.26 0.315 8.86 1.32 12.32
8/17/2023 12:30:00 PM 26.01 78.818 0.315 8.91 1.29 12.47
8/17/2023 12:45:00 PM 26.29 79.32201 0.315 8.95 1.23 12.6
8/17/2023 1:00:00 PM 26.44 79.592 0.315 8.99 1.33 12.61
8/17/2023 1:15:00 PM 26.6 79.88 0.315 9.03 1.27 12.74
8/17/2023 1:30:00 PM 26.92 80.456 0.315 9.06 1.32 12.79
8/17/2023 1:45:00 PM 26.81 80.258 0.315 9.07 1.22 12.66
8/17/2023 2:00:00 PM 26.96 80.528 0.315 9.1 1.19 12.71
8/17/2023 2:15:00 PM 26.92 80.456 0.315 9.1 1.49 12.56
8/17/2023 2:30:00 PM 27.16 80.888 0.315 9.12 1.25 12.63
8/17/2023 2:45:00 PM 27.23 81.014 0.315 9.14 1.36 12.57
8/17/2023 3:00:00 PM 27.16 80.888 0.315 9.15 1.22 12.48
8/17/2023 3:15:00 PM 27.04 80.672 0.315 9.15 1.3 12.31
8/17/2023 3:30:00 PM 26.92 80.456 0.315 9.15 1.31 12.12
8/17/2023 3:45:00 PM 26.89 80.402 0.315 9.15 1.28 11.98
8/17/2023 4:00:00 PM 26.8 80.24 0.315 9.14 1.45 11.69
8/17/2023 4:15:00 PM 26.94 80.492 0.315 9.16 1.31 11.8
8/17/2023 4:30:00 PM 27.02 80.636 0.315 9.16 1.31 11.69
8/17/2023 4:45:00 PM 27.06 80.708 0.315 9.18 1.32 11.66
8/17/2023 5:00:00 PM 27.07 80.726 0.315 9.19 1.35 11.6
8/17/2023 5:15:00 PM 26.93 80.474 0.315 9.18 1.36 11.35
8/17/2023 5:30:00 PM 26.86 80.348 0.315 9.17 1.5 11.08
8/17/2023 5:45:00 PM 26.8 80.24 0.315 9.16 1.42 10.86
8/17/2023 6:00:00 PM 26.76 80.168 0.316 9.15 1.5 10.68
8/17/2023 6:15:00 PM 26.73 80.114 0.316 9.15 1.64 10.51
8/17/2023 6:30:00 PM 26.7 80.06 0.316 9.13 1.45 10.22
8/17/2023 6:45:00 PM 26.67 80.006 0.316 9.11 1.41 9.96
8/17/2023 7:00:00 PM 26.64 79.952 0.316 9.07 1.44 9.57
8/17/2023 7:15:00 PM 26.62 79.916 0.317 9.04 1.42 9.27
8/17/2023 7:30:00 PM 26.61 79.898 0.317 9.01 1.54 8.95
8/17/2023 7:45:00 PM 26.56 79.808 0.317 8.96 1.63 8.62
8/17/2023 8:00:00 PM 26.55 79.79 0.318 8.92 1.63 8.33
8/17/2023 8:15:00 PM 26.53 79.754 0.318 8.88 1.74 8.05
8/17/2023 8:30:00 PM 26.52 79.736 0.319 8.83 2.03 7.8
8/17/2023 8:45:00 PM 26.51 79.718 0.319 8.79 1.94 7.59
8/17/2023 9:00:00 PM 26.49 79.682 0.32 8.74 1.93 7.4
8/17/2023 9:15:00 PM 26.46 79.628 0.32 8.68 2.26 7.21
8/17/2023 9:30:00 PM 26.42 79.556 0.321 8.62 2.08 7.05
8/17/2023 9:45:00 PM 26.38 79.484 0.321 8.55 2.15 6.88
8/17/2023 10:00:00 PM 26.36 79.448 0.322 8.48 2.26 6.74
8/17/2023 10:15:00 PM 26.31 79.358 0.323 8.39 1.95 6.61
8/17/2023 10:30:00 PM 26.26 79.268 0.323 8.3 1.85 6.48
8/17/2023 10:45:00 PM 26.22 79.196 0.324 8.2 2.03 6.36
8/17/2023 11:00:00 PM 26.18 79.124 0.324 8.09 1.87 6.25
8/17/2023 11:15:00 PM 26.13 79.034 0.325 7.99 2.58 6.15
8/17/2023 11:30:00 PM 26.09 78.962 0.325 7.89 2.62 6.06
8/17/2023 11:45:00 PM 26.03 78.854 0.325 7.81 2.09 5.97
8/18/2023 12:00:00 AM 25.97 78.746 0.326 7.73 2.03 5.9
8/18/2023 12:15:00 AM 25.91 78.638 0.326 7.67 2.14 5.83
8/18/2023 12:30:00 AM 25.86 78.548 0.326 7.61 2.49 5.77
8/18/2023 12:45:00 AM 25.8 78.44 0.326 7.56 2.08 5.72
8/18/2023 1:00:00 AM 25.74 78.332 0.326 7.52 2.23 5.67
8/18/2023 1:15:00 AM 25.68 78.224 0.326 7.49 2.65 5.63
8/18/2023 1:30:00 AM 25.6 78.08 0.326 7.47 2.18 5.59
8/18/2023 1:45:00 AM 25.54 77.972 0.326 7.45 2.17 5.58
8/18/2023 2:00:00 AM 25.41 77.738 0.322 7.45 2.12 5.77
8/18/2023 2:15:00 AM 25.32 77.576 0.323 7.41 2.55 5.65
8/18/2023 2:30:00 AM 25.24 77.432 0.323 7.4 2.75 5.62
8/18/2023 2:45:00 AM 25.16 77.288 0.323 7.38 2.47 5.54
8/18/2023 3:00:00 AM 25.08 77.144 0.324 7.36 2.58 5.5
8/18/2023 3:15:00 AM 25 77 0.324 7.34 2.84 5.47
8/18/2023 3:30:00 AM 24.91 76.838 0.323 7.33 2.19 5.46
8/18/2023 3:45:00 AM 24.83 76.694 0.323 7.32 1.92 5.45
8/18/2023 4:00:00 AM 24.73 76.514 0.323 7.32 1.76 5.45
8/18/2023 4:15:00 AM 24.65 76.37 0.323 7.31 2.26 5.45
8/18/2023 4:30:00 AM 24.58 76.244 0.322 7.3 5.16 5.46
8/18/2023 4:45:00 AM 24.51 76.118 0.322 7.3 2.26 5.47
8/18/2023 5:00:00 AM 24.43 75.974 0.321 7.29 4.88 5.47
8/18/2023 5:15:00 AM 24.36 75.848 0.321 7.29 2.86 5.48
8/18/2023 5:30:00 AM 24.29 75.722 0.321 7.28 2.86 5.49
8/18/2023 5:45:00 AM 24.21 75.578 0.321 7.28 2.3 5.48
8/18/2023 6:00:00 AM 24.1 75.38 0.321 7.28 2.08 5.49
8/18/2023 6:15:00 AM 24.02 75.236 0.32 7.27 2.16 5.48
8/18/2023 6:30:00 AM 23.93 75.074 0.32 7.27 2.45 5.46
8/18/2023 6:45:00 AM 23.83 74.894 0.32 7.27 1.97 5.55
8/18/2023 7:00:00 AM 23.76 74.768 0.32 7.28 1.82 5.68
8/18/2023 7:15:00 AM 23.73 74.714 0.319 7.3 1.64 5.89
8/18/2023 7:30:00 AM 23.71 74.67799 0.319 7.33 1.8 6.18
8/18/2023 7:45:00 AM 23.66 74.588 0.319 7.34 1.88 6.3
8/18/2023 8:00:00 AM 23.62 74.516 0.318 7.36 1.49 6.5
8/18/2023 8:15:00 AM 23.6 74.48 0.318 7.39 1.33 6.76
8/18/2023 8:30:00 AM 23.57 74.426 0.317 7.42 1.17 6.94
8/18/2023 8:45:00 AM 23.55 74.39 0.317 7.45 1.12 7.17
8/18/2023 9:00:00 AM 23.52 74.336 0.316 7.49 1.02 7.44
8/18/2023 9:15:00 AM 23.52 74.336 0.315 7.55 0.9 7.76
8/18/2023 9:30:00 AM 23.53 74.354 0.315 7.59 0.93 7.97
8/18/2023 9:45:00 AM 23.57 74.426 0.315 7.66 0.82 8.27
8/18/2023 10:00:00 AM 23.68 74.624 0.315 7.75 1.01 8.68
8/18/2023 10:15:00 AM 23.88 74.984 0.315 7.91 0.83 9.22
8/18/2023 10:30:00 AM 24.13 75.434 0.315 8.1 1.03 9.77
8/18/2023 10:45:00 AM 24.38 75.884 0.314 8.28 0.85 10.26
8/18/2023 11:00:00 AM 24.62 76.316 0.313 8.42 0.81 10.65
8/18/2023 11:15:00 AM 24.95 76.91 0.313 8.55 0.75 11.06
8/18/2023 11:30:00 AM 25.17 77.306 0.312 8.63 0.73 11.31
8/18/2023 11:45:00 AM 25.46 77.828 0.312 8.71 0.97 11.58
8/18/2023 12:00:00 PM 25.64 78.152 0.312 8.77 0.69 11.79
8/18/2023 12:15:00 PM 25.98 78.764 0.311 8.84 0.73 12.03
8/18/2023 12:30:00 PM 26.1 78.98 0.311 8.88 0.64 12.07
8/18/2023 12:45:00 PM 26.22 79.196 0.31 8.93 1.39 12.26
8/18/2023 1:00:00 PM 26.3 79.34 0.31 8.95 0.77 12.16
8/18/2023 1:15:00 PM 26.48 79.664 0.31 8.99 0.8 12.27
8/18/2023 1:30:00 PM 26.73 80.114 0.309 9.03 0.76 12.45
8/18/2023 1:45:00 PM 26.91 80.438 0.309 9.05 0.84 12.51
8/18/2023 2:00:00 PM 27.06 80.708 0.309 9.1 1.14 12.65
8/18/2023 2:15:00 PM 27.21 80.978 0.309 9.13 1.03 12.69
8/18/2023 2:30:00 PM 27.21 80.978 0.309 9.15 0.92 12.68
8/18/2023 2:45:00 PM 27.29 81.122 0.309 9.17 0.98 12.63
8/18/2023 3:00:00 PM 27.39 81.302 0.309 9.18 0.75 12.66
8/18/2023 3:15:00 PM 27.17 80.906 0.309 9.18 0.86 12.33
8/18/2023 3:30:00 PM 27.05 80.69 0.309 9.19 1.66 12.22
8/18/2023 3:45:00 PM 27.03 80.654 0.309 9.19 0.83 12.16
8/18/2023 4:00:00 PM 26.89 80.402 0.309 9.18 0.88 11.92
8/18/2023 4:15:00 PM 26.87 80.366 0.309 9.2 1.04 11.94
8/18/2023 4:30:00 PM 26.83 80.294 0.309 9.2 0.87 11.85
8/18/2023 4:45:00 PM 26.64 79.952 0.309 9.2 0.94 11.62
8/18/2023 5:00:00 PM 26.51 79.718 0.309 9.21 0.92 11.53
8/18/2023 5:15:00 PM 26.34 79.412 0.309 9.19 0.85 11.23
8/18/2023 5:30:00 PM 26.18 79.124 0.309 9.18 0.9 11.03
8/18/2023 5:45:00 PM 26.02 78.836 0.309 9.18 0.86 10.82
8/18/2023 6:00:00 PM 25.86 78.548 0.309 9.16 0.91 10.58
8/18/2023 6:15:00 PM 25.73 78.314 0.309 9.14 1.19 10.34
8/18/2023 6:30:00 PM 25.63 78.134 0.309 9.14 1.02 10.18
8/18/2023 6:45:00 PM 25.55 77.99 0.309 9.12 1.08 9.92
8/18/2023 7:00:00 PM 25.46 77.828 0.309 9.09 1.08 9.63
8/18/2023 7:15:00 PM 25.4 77.72 0.31 9.06 1.09 9.34
8/18/2023 7:30:00 PM 25.36 77.648 0.31 9.03 1.36 9.04
8/18/2023 7:45:00 PM 25.31 77.558 0.31 8.99 1.16 8.75
8/18/2023 8:00:00 PM 25.24 77.432 0.31 8.95 1.12 8.49
8/18/2023 8:15:00 PM 25.18 77.324 0.309 8.92 1.12 8.26
8/18/2023 8:30:00 PM 25.12 77.216 0.311 8.88 1.41 8.04
8/18/2023 8:45:00 PM 25.04 77.07201 0.312 8.84 1.52 7.86
8/18/2023 9:00:00 PM 24.96 76.92799 0.312 8.8 1.63 7.69
8/18/2023 9:15:00 PM 24.87 76.766 0.313 8.75 1.55 7.54
8/18/2023 9:30:00 PM 24.78 76.604 0.313 8.69 1.65 7.39
8/18/2023 9:45:00 PM 24.7 76.46 0.314 8.63 1.68 7.26
8/18/2023 10:00:00 PM 24.6 76.28 0.315 8.56 1.64 7.14
8/18/2023 10:15:00 PM 24.51 76.118 0.315 8.49 1.58 7.02
8/18/2023 10:30:00 PM 24.42 75.956 0.316 8.4 1.57 6.91
8/18/2023 10:45:00 PM 24.31 75.758 0.317 8.31 1.66 6.81
8/18/2023 11:00:00 PM 24.22 75.596 0.317 8.21 1.63 6.71
8/18/2023 11:15:00 PM 24.12 75.416 0.318 8.11 1.52 6.63
8/18/2023 11:30:00 PM 24 75.2 0.319 8 1.75 6.55
8/18/2023 11:45:00 PM 23.88 74.984 0.319 7.9 1.58 6.48
8/19/2023 12:00:00 AM 23.77 74.786 0.32 7.82 1.75 6.42
8/19/2023 12:15:00 AM 23.67 74.606 0.321 7.75 1.77 6.35
8/19/2023 12:30:00 AM 23.56 74.408 0.321 7.68 1.63 6.3
8/19/2023 12:45:00 AM 23.44 74.192 0.321 7.62 1.49 6.25
8/19/2023 1:00:00 AM 23.32 73.976 0.322 7.58 1.55 6.21
8/19/2023 1:15:00 AM 23.2 73.76 0.322 7.54 1.63 6.18
8/19/2023 1:30:00 AM 23.06 73.508 0.323 7.51 1.89 6.16
8/19/2023 1:45:00 AM 22.94 73.292 0.323 7.48 1.69 6.13
8/19/2023 2:00:00 AM 22.81 73.058 0.323 7.46 2.05 6.1
8/19/2023 2:15:00 AM 22.68 72.824 0.324 7.44 1.81 6.11
8/19/2023 2:30:00 AM 22.54 72.57201 0.324 7.42 2.23 6.11
8/19/2023 2:45:00 AM 22.42 72.356 0.324 7.41 2.01 6.1
8/19/2023 3:00:00 AM 22.27 72.086 0.323 7.4 2.44 6.11
8/19/2023 3:15:00 AM 22.14 71.852 0.323 7.39 1.94 6.12
8/19/2023 3:30:00 AM 22 71.6 0.323 7.38 1.71 6.14
8/19/2023 3:45:00 AM 21.87 71.366 0.324 7.37 1.64 6.14
8/19/2023 4:00:00 AM 21.74 71.132 0.324 7.36 1.82 6.16
8/19/2023 4:15:00 AM 21.61 70.898 0.324 7.27 1.66 6.18
8/19/2023 4:30:00 AM 21.5 70.7 0.324 7.27 1.77 6.19
8/19/2023 4:45:00 AM 21.37 70.466 0.324 7.27 1.82 6.21
8/19/2023 5:00:00 AM 21.24 70.232 0.324 7.26 1.85 6.23
8/19/2023 5:15:00 AM 21.11 69.998 0.324 7.25 1.68 6.25
8/19/2023 5:30:00 AM 20.99 69.782 0.324 7.23 2.15 6.27
8/19/2023 5:45:00 AM 20.89 69.602 0.324 7.23 2.24 6.28
8/19/2023 6:00:00 AM 20.76 69.368 0.324 7.23 1.87 6.31
8/19/2023 6:15:00 AM 20.65 69.17 0.324 7.22 2.12 6.32
8/19/2023 6:30:00 AM 20.53 68.954 0.323 7.23 1.7 6.38
8/19/2023 6:45:00 AM 20.43 68.774 0.323 7.23 1.55 6.44
8/19/2023 7:00:00 AM 20.34 68.612 0.323 7.25 1.59 6.56
8/19/2023 7:15:00 AM 20.26 68.468 0.323 7.27 1.26 6.7
8/19/2023 7:30:00 AM 20.19 68.342 0.323 7.29 1.27 6.87
8/19/2023 7:45:00 AM 20.14 68.252 0.323 7.32 1.23 7.05
8/19/2023 8:00:00 AM 20.11 68.198 0.323 7.36 1.15 7.28
8/19/2023 8:15:00 AM 20.11 68.198 0.323 7.41 1.1 7.55
8/19/2023 8:30:00 AM 20.14 68.252 0.322 7.47 1 7.89
8/19/2023 8:45:00 AM 20.2 68.36 0.322 7.54 0.91 8.28
8/19/2023 9:00:00 AM 20.29 68.522 0.322 7.63 0.84 8.7
8/19/2023 9:15:00 AM 20.4 68.72 0.321 7.74 0.74 9.13
8/19/2023 9:30:00 AM 20.55 68.99 0.321 7.86 0.69 9.57
8/19/2023 9:45:00 AM 20.73 69.314 0.321 8.01 0.67 9.99
8/19/2023 10:00:00 AM 20.95 69.71 0.32 8.16 0.63 10.4
8/19/2023 10:15:00 AM 21.18 70.124 0.319 8.31 0.63 10.79
8/19/2023 10:30:00 AM 21.43 70.574 0.319 8.45 0.71 11.15
8/19/2023 10:45:00 AM 21.71 71.078 0.318 8.56 0.6 11.48
8/19/2023 11:00:00 AM 21.98 71.564 0.318 8.66 0.61 11.78
8/19/2023 11:15:00 AM 22.24 72.032 0.317 8.74 0.66 12.05
8/19/2023 11:30:00 AM 22.54 72.57201 0.317 8.8 0.62 12.27
8/19/2023 11:45:00 AM 22.85 73.13 0.316 8.86 0.72 12.49
8/19/2023 12:00:00 PM 23.15 73.67 0.316 8.91 0.66 12.65
8/19/2023 12:15:00 PM 23.42 74.156 0.315 8.96 0.58 12.84
8/19/2023 12:30:00 PM 23.66 74.588 0.316 9.01 0.61 12.95
8/19/2023 12:45:00 PM 23.91 75.038 0.316 9.04 0.75 13.05
8/19/2023 1:00:00 PM 24.17 75.506 0.315 9.07 0.71 13.13
8/19/2023 1:15:00 PM 24.37 75.866 0.315 9.11 0.63 13.22
8/19/2023 1:30:00 PM 24.55 76.19 0.315 9.13 0.67 13.26
8/19/2023 1:45:00 PM 24.72 76.496 0.315 9.16 0.61 13.29
8/19/2023 2:00:00 PM 24.83 76.694 0.315 9.18 0.73 13.3
8/19/2023 2:15:00 PM 24.99 76.982 0.315 9.2 0.83 13.31
8/19/2023 2:30:00 PM 25.08 77.144 0.315 9.21 0.76 13.28
8/19/2023 2:45:00 PM 25.16 77.288 0.315 9.23 0.71 13.28
8/19/2023 3:00:00 PM 25.2 77.36 0.315 9.24 1.1 13.21
8/19/2023 3:15:00 PM 25.22 77.396 0.315 9.25 0.81 13.13
8/19/2023 3:30:00 PM 25.21 77.378 0.315 9.26 0.78 13.03
8/19/2023 3:45:00 PM 25.19 77.342 0.315 9.26 0.81 12.93
8/19/2023 4:00:00 PM 25.14 77.252 0.315 9.26 0.77 12.8
8/19/2023 4:15:00 PM 25.08 77.144 0.315 9.26 0.78 12.65
8/19/2023 4:30:00 PM 25.01 77.018 0.315 9.26 0.81 12.49
8/19/2023 4:45:00 PM 24.92 76.856 0.315 9.27 0.77 12.39
8/19/2023 5:00:00 PM 24.8 76.64 0.315 9.27 0.86 12.19
8/19/2023 5:15:00 PM 24.68 76.424 0.315 9.26 0.75 12.01
8/19/2023 5:30:00 PM 24.6 76.28 0.315 9.26 0.74 11.82
8/19/2023 5:45:00 PM 24.47 76.046 0.315 9.25 0.73 11.58
8/19/2023 6:00:00 PM 24.35 75.83 0.315 9.23 0.85 11.32
8/19/2023 6:15:00 PM 24.26 75.668 0.315 9.22 0.98 11.08
8/19/2023 6:30:00 PM 24.2 75.56 0.315 9.2 1.06 10.78
8/19/2023 6:45:00 PM 24.15 75.47 0.315 9.18 0.98 10.51
8/19/2023 7:00:00 PM 24.1 75.38 0.316 9.17 0.87 10.23
8/19/2023 7:15:00 PM 24.05 75.29 0.316 9.14 0.82 9.94
8/19/2023 7:30:00 PM 24.01 75.218 0.316 9.12 0.8 9.65
8/19/2023 7:45:00 PM 23.95 75.11 0.317 9.09 0.92 9.35
8/19/2023 8:00:00 PM 23.91 75.038 0.317 9.06 0.85 9.05
8/19/2023 8:15:00 PM 23.86 74.948 0.318 9.03 1.24 8.8
8/19/2023 8:30:00 PM 23.82 74.876 0.318 9 1.2 8.57
8/19/2023 8:45:00 PM 23.79 74.82201 0.319 8.97 1.12 8.37
8/19/2023 9:00:00 PM 23.76 74.768 0.319 8.93 1.65 8.19
8/19/2023 9:15:00 PM 23.72 74.696 0.32 8.89 1.53 8
8/19/2023 9:30:00 PM 23.68 74.624 0.321 8.85 1.67 7.83
8/19/2023 9:45:00 PM 23.65 74.57 0.322 8.8 1.46 7.66
8/19/2023 10:00:00 PM 23.6 74.48 0.323 8.75 1.29 7.51
8/19/2023 10:15:00 PM 23.56 74.408 0.323 8.69 1.28 7.36
8/19/2023 10:30:00 PM 23.49 74.282 0.324 8.62 1.37 7.24
8/19/2023 10:45:00 PM 23.43 74.174 0.325 8.55 1.36 7.12
8/19/2023 11:00:00 PM 23.35 74.03 0.326 8.47 1.26 7.02
8/19/2023 11:15:00 PM 23.29 73.922 0.327 8.38 1.29 6.92
8/19/2023 11:30:00 PM 23.2 73.76 0.328 8.27 1.29 6.83
8/19/2023 11:45:00 PM 23.13 73.634 0.329 8.16 1.42 6.74
8/20/2023 12:00:00 AM 23.04 73.472 0.33 8.05 1.39 6.67
8/20/2023 12:15:00 AM 22.96 73.328 0.331 7.94 1.52 6.59
8/20/2023 12:30:00 AM 22.87 73.166 0.331 7.85 1.26 6.52
8/20/2023 12:45:00 AM 22.77 72.986 0.332 7.77 1.64 6.47
8/20/2023 1:00:00 AM 22.66 72.788 0.333 7.7 1.89 6.41
8/20/2023 1:15:00 AM 22.54 72.57201 0.333 7.64 1.58 6.38
8/20/2023 1:30:00 AM 22.43 72.374 0.334 7.6 1.64 6.36
8/20/2023 1:45:00 AM 22.31 72.158 0.334 7.56 1.8 6.33
8/20/2023 2:00:00 AM 22.17 71.906 0.335 7.52 1.62 6.32
8/20/2023 2:15:00 AM 22.06 71.708 0.335 7.5 1.61 6.3
8/20/2023 2:30:00 AM 21.92 71.456 0.336 7.48 1.37 6.3
8/20/2023 2:45:00 AM 21.8 71.24 0.336 7.45 1.59 6.29
8/20/2023 3:00:00 AM 21.66 70.988 0.336 7.44 2.02 6.3
8/20/2023 3:15:00 AM 21.53 70.754 0.337 7.42 1.97 6.31
8/20/2023 3:30:00 AM 21.39 70.502 0.337 7.41 2.35 6.33
8/20/2023 3:45:00 AM 21.25 70.25 0.337 7.39 3.33 6.34
8/20/2023 4:00:00 AM 21.12 70.016 0.337 7.38 1.95 6.35
8/20/2023 4:15:00 AM 20.99 69.782 0.337 7.37 1.88 6.36
8/20/2023 4:30:00 AM 20.87 69.566 0.337 7.36 1.92 6.37
8/20/2023 4:45:00 AM 20.74 69.332 0.337 7.36 1.56 6.4
8/20/2023 5:00:00 AM 20.61 69.098 0.337 7.35 1.64 6.43
8/20/2023 5:15:00 AM 20.48 68.864 0.337 7.34 2.12 6.45
8/20/2023 5:30:00 AM 20.36 68.648 0.336 7.33 2.27 6.46
8/20/2023 5:45:00 AM 20.24 68.432 0.336 7.33 2.4 6.48
8/20/2023 6:00:00 AM 20.13 68.234 0.336 7.29 2.28 6.49
8/20/2023 6:15:00 AM 20.02 68.036 0.336 7.29 2.05 6.52
8/20/2023 6:30:00 AM 19.92 67.856 0.336 7.28 1.75 6.56
8/20/2023 6:45:00 AM 19.82 67.676 0.336 7.28 1.83 6.63
8/20/2023 7:00:00 AM 19.73 67.514 0.336 7.28 1.71 6.75
8/20/2023 7:15:00 AM 19.65 67.37 0.335 7.29 1.53 6.89
8/20/2023 7:30:00 AM 19.58 67.244 0.335 7.31 1.35 7.06
8/20/2023 7:45:00 AM 19.54 67.172 0.335 7.33 1.3 7.26
8/20/2023 8:00:00 AM 19.51 67.118 0.335 7.36 1.22 7.49
8/20/2023 8:15:00 AM 19.51 67.118 0.334 7.4 1.23 7.75
8/20/2023 8:30:00 AM 19.53 67.154 0.334 7.45 1.12 8.09
8/20/2023 8:45:00 AM 19.6 67.28 0.334 7.52 1.12 8.48
8/20/2023 9:00:00 AM 19.71 67.478 0.333 7.6 0.96 8.89
8/20/2023 9:15:00 AM 19.85 67.73 0.333 7.71 0.82 9.33
8/20/2023 9:30:00 AM 20.04 68.07201 0.332 7.83 0.75 9.76
8/20/2023 9:45:00 AM 20.24 68.432 0.331 7.97 0.74 10.18
8/20/2023 10:00:00 AM 20.49 68.882 0.331 8.12 0.64 10.61
8/20/2023 10:15:00 AM 20.77 69.386 0.33 8.28 1.78 11.01
8/20/2023 10:30:00 AM 21.07 69.926 0.329 8.42 0.6 11.39
8/20/2023 10:45:00 AM 21.38 70.484 0.328 8.54 0.68 11.73
8/20/2023 11:00:00 AM 21.69 71.042 0.327 8.65 0.58 12.05
8/20/2023 11:15:00 AM 22.01 71.618 0.328 8.73 0.6 12.31
8/20/2023 11:30:00 AM 22.33 72.194 0.327 8.81 0.6 12.55
8/20/2023 11:45:00 AM 22.6 72.68 0.326 8.87 0.64 12.74
8/20/2023 12:00:00 PM 22.87 73.166 0.325 8.94 0.78 12.98
8/20/2023 12:15:00 PM 23.12 73.616 0.324 8.99 0.7 13.14
8/20/2023 12:30:00 PM 23.46 74.228 0.324 9.03 0.61 13.27
8/20/2023 12:45:00 PM 23.78 74.804 0.323 9.07 0.61 13.4
8/20/2023 1:00:00 PM 24.07 75.326 0.323 9.1 0.79 13.47
8/20/2023 1:15:00 PM 24.32 75.776 0.322 9.13 0.69 13.54
8/20/2023 1:30:00 PM 24.45 76.01 0.322 9.16 0.62 13.57
8/20/2023 1:45:00 PM 24.69 76.442 0.322 9.19 0.78 13.65
8/20/2023 2:00:00 PM 24.83 76.694 0.321 9.21 0.93 13.61
8/20/2023 2:15:00 PM 25.01 77.018 0.321 9.22 0.76 13.62
8/20/2023 2:30:00 PM 25.13 77.234 0.321 9.24 0.74 13.59
8/20/2023 2:45:00 PM 25.21 77.378 0.32 9.26 0.71 13.56
8/20/2023 3:00:00 PM 25.3 77.54 0.32 9.27 0.73 13.5
8/20/2023 3:15:00 PM 25.39 77.702 0.32 9.28 0.84 13.59
8/20/2023 3:30:00 PM 25.37 77.666 0.32 9.29 0.9 13.41
8/20/2023 3:45:00 PM 25.4 77.72 0.319 9.3 0.76 13.31
8/20/2023 4:00:00 PM 25.42 77.756 0.319 9.31 0.72 13.19
8/20/2023 4:15:00 PM 25.38 77.684 0.319 9.31 0.74 13.02
8/20/2023 4:30:00 PM 25.33 77.594 0.319 9.31 0.81 12.87
8/20/2023 4:45:00 PM 25.27 77.486 0.319 9.31 1.02 12.8
8/20/2023 5:00:00 PM 25.15 77.27 0.319 9.31 0.77 12.54
8/20/2023 5:15:00 PM 24.99 76.982 0.318 9.3 0.81 12.27
8/20/2023 5:30:00 PM 24.88 76.784 0.318 9.29 0.76 12.01
8/20/2023 5:45:00 PM 24.8 76.64 0.318 9.28 0.75 11.79
8/20/2023 6:00:00 PM 24.76 76.568 0.319 9.27 0.99 11.57
8/20/2023 6:15:00 PM 24.71 76.478 0.318 9.25 0.91 11.3
8/20/2023 6:30:00 PM 24.66 76.388 0.318 9.23 0.77 11.04
8/20/2023 6:45:00 PM 24.62 76.316 0.318 9.21 0.76 10.74
8/20/2023 7:00:00 PM 24.58 76.244 0.318 9.2 0.88 10.44
8/20/2023 7:15:00 PM 24.55 76.19 0.319 9.17 0.78 10.11
8/20/2023 7:30:00 PM 24.52 76.136 0.319 9.13 0.88 9.76
8/20/2023 7:45:00 PM 24.49 76.082 0.319 9.1 0.74 9.43
8/20/2023 8:00:00 PM 24.47 76.046 0.32 9.07 0.92 9.12
8/20/2023 8:15:00 PM 24.45 76.01 0.32 9.03 0.9 8.82
8/20/2023 8:30:00 PM 24.44 75.992 0.321 9 1.08 8.56
8/20/2023 8:45:00 PM 24.43 75.974 0.321 8.96 1.22 8.34
8/20/2023 9:00:00 PM 24.41 75.938 0.322 8.92 1.53 8.13
8/20/2023 9:15:00 PM 24.4 75.92 0.322 8.88 3.83 7.93
8/20/2023 9:30:00 PM 24.38 75.884 0.323 8.83 1.68 7.74
8/20/2023 9:45:00 PM 24.36 75.848 0.324 8.78 1.55 7.57
8/20/2023 10:00:00 PM 24.34 75.812 0.325 8.72 1.35 7.41
8/20/2023 10:15:00 PM 24.3 75.74 0.326 8.66 1.36 7.25
8/20/2023 10:30:00 PM 24.27 75.686 0.327 8.59 1.38 7.11
8/20/2023 10:45:00 PM 24.23 75.614 0.327 8.5 1.71 6.98
8/20/2023 11:00:00 PM 24.17 75.506 0.328 8.41 1.67 6.86
8/20/2023 11:15:00 PM 24.11 75.398 0.329 8.31 1.73 6.75
8/20/2023 11:30:00 PM 24.05 75.29 0.33 8.21 1.4 6.66
8/20/2023 11:45:00 PM 23.97 75.146 0.331 8.09 1.33 6.57
8/21/2023 12:00:00 AM 23.91 75.038 0.332 7.99 1.33 6.48
8/21/2023 12:15:00 AM 23.83 74.894 0.333 7.88 1.58 6.41
8/21/2023 12:30:00 AM 23.74 74.732 0.333 7.79 1.71 6.35
8/21/2023 12:45:00 AM 23.67 74.606 0.334 7.72 1.95 6.28
8/21/2023 1:00:00 AM 23.57 74.426 0.335 7.66 1.74 6.22
8/21/2023 1:15:00 AM 23.49 74.282 0.335 7.6 1.23 6.18
8/21/2023 1:30:00 AM 23.39 74.102 0.336 7.56 1.15 6.15
8/21/2023 1:45:00 AM 23.29 73.922 0.337 7.52 1.35 6.12
8/21/2023 2:00:00 AM 23.2 73.76 0.337 7.49 1.46 6.09
8/21/2023 2:15:00 AM 23.09 73.562 0.337 7.46 1.73 6.07
8/21/2023 2:30:00 AM 22.99 73.382 0.338 7.44 1.84 6.06
8/21/2023 2:45:00 AM 22.89 73.202 0.338 7.42 1.51 6.05
8/21/2023 3:00:00 AM 22.78 73.004 0.339 7.4 1.53 6.04
8/21/2023 3:15:00 AM 22.66 72.788 0.339 7.38 1.48 6.04
8/21/2023 3:30:00 AM 22.56 72.608 0.339 7.37 1.51 6.04
8/21/2023 3:45:00 AM 22.47 72.446 0.339 7.36 1.72 6.05
8/21/2023 4:00:00 AM 22.37 72.266 0.34 7.34 1.94 6.04
8/21/2023 4:15:00 AM 22.29 72.122 0.34 7.34 1.8 6.06
8/21/2023 4:30:00 AM 22.2 71.96 0.34 7.33 2.26 6.08
8/21/2023 4:45:00 AM 22.1 71.78 0.34 7.32 2 6.08
8/21/2023 5:00:00 AM 22 71.6 0.34 7.32 1.65 6.1
8/21/2023 5:15:00 AM 21.9 71.42 0.341 7.31 1.56 6.1
8/21/2023 5:30:00 AM 21.8 71.24 0.341 7.3 1.7 6.1
8/21/2023 5:45:00 AM 21.7 71.06 0.341 7.29 1.67 6.13
8/21/2023 6:00:00 AM 21.61 70.898 0.341 7.29 1.67 6.14
8/21/2023 6:15:00 AM 21.52 70.736 0.341 7.28 1.48 6.15
8/21/2023 6:30:00 AM 21.45 70.61 0.341 7.28 1.54 6.16
8/21/2023 6:45:00 AM 21.38 70.484 0.341 7.28 1.5 6.22
8/21/2023 7:00:00 AM 21.32 70.376 0.341 7.29 1.4 6.34
8/21/2023 7:15:00 AM 21.28 70.304 0.341 7.3 1.12 6.53
8/21/2023 7:30:00 AM 21.25 70.25 0.341 7.33 1.18 6.84
8/21/2023 7:45:00 AM 21.24 70.232 0.34 7.36 1.03 7.1
8/21/2023 8:00:00 AM 21.24 70.232 0.34 7.4 1.09 7.44
8/21/2023 8:15:00 AM 21.27 70.286 0.34 7.46 0.97 7.81
8/21/2023 8:30:00 AM 21.31 70.358 0.34 7.51 0.88 8.16
8/21/2023 8:45:00 AM 21.38 70.484 0.34 7.59 0.76 8.58
8/21/2023 9:00:00 AM 21.43 70.574 0.339 7.65 0.81 8.89
8/21/2023 9:15:00 AM 21.48 70.664 0.339 7.73 0.65 9.22
8/21/2023 9:30:00 AM 21.52 70.736 0.339 7.8 0.49 9.45
8/21/2023 9:45:00 AM 21.61 70.898 0.338 7.89 0.6 9.74
8/21/2023 10:00:00 AM 21.72 71.096 0.338 7.98 0.5 10.02
8/21/2023 10:15:00 AM 21.95 71.51 0.337 8.14 1.06 10.46
8/21/2023 10:30:00 AM 22.19 71.942 0.336 8.31 0.62 10.93
8/21/2023 10:45:00 AM 22.46 72.42799 0.335 8.46 0.59 11.37
8/21/2023 11:00:00 AM 22.77 72.986 0.334 8.6 0.61 11.77
8/21/2023 11:15:00 AM 23.1 73.58 0.333 8.7 0.52 12.13
8/21/2023 11:30:00 AM 23.41 74.138 0.333 8.78 0.58 12.41
8/21/2023 11:45:00 AM 23.75 74.75 0.332 8.85 0.41 12.69
8/21/2023 12:00:00 PM 24.13 75.434 0.331 8.92 0.48 12.96
8/21/2023 12:15:00 PM 24.31 75.758 0.33 8.97 0.55 13.1
8/21/2023 12:30:00 PM 24.58 76.244 0.329 9.03 0.63 13.27
8/21/2023 12:45:00 PM 24.81 76.658 0.329 9.07 0.54 13.42
8/21/2023 1:00:00 PM 24.99 76.982 0.328 9.11 0.61 13.48
8/21/2023 1:15:00 PM 25.18 77.324 0.327 9.14 0.6 13.55
8/21/2023 1:30:00 PM 25.28 77.504 0.327 9.17 0.6 13.55
8/21/2023 1:45:00 PM 25.36 77.648 0.326 9.2 0.64 13.55
8/21/2023 2:00:00 PM 25.49 77.882 0.326 9.22 0.65 13.56
8/21/2023 2:15:00 PM 25.5 77.9 0.325 9.24 0.62 13.48
8/21/2023 2:30:00 PM 25.55 77.99 0.325 9.26 1 13.47
8/21/2023 2:45:00 PM 25.71 78.278 0.324 9.28 0.58 13.47
8/21/2023 3:00:00 PM 25.84 78.512 0.324 9.3 0.67 13.46
8/21/2023 3:15:00 PM 25.86 78.548 0.323 9.31 0.69 13.33
8/21/2023 3:30:00 PM 25.87 78.566 0.323 9.32 0.67 13.25
8/21/2023 3:45:00 PM 25.95 78.71 0.323 9.33 0.65 13.18
8/21/2023 4:00:00 PM 26.03 78.854 0.322 9.34 0.72 13.09
8/21/2023 4:15:00 PM 26.07 78.926 0.322 9.34 0.71 13.01
8/21/2023 4:30:00 PM 26.05 78.89 0.322 9.35 0.74 12.84
8/21/2023 4:45:00 PM 26.05 78.89 0.321 9.35 0.72 12.68
8/21/2023 5:00:00 PM 26.01 78.818 0.321 9.34 0.76 12.45
8/21/2023 5:15:00 PM 25.98 78.764 0.321 9.34 0.85 12.32
8/21/2023 5:30:00 PM 25.91 78.638 0.321 9.33 0.91 12.06
8/21/2023 5:45:00 PM 25.83 78.494 0.321 9.32 0.75 11.85
8/21/2023 6:00:00 PM 25.75 78.35 0.321 9.31 0.72 11.54
8/21/2023 6:15:00 PM 25.68 78.224 0.32 9.29 0.8 11.26
8/21/2023 6:30:00 PM 25.61 78.098 0.321 9.27 0.93 10.95
8/21/2023 6:45:00 PM 25.55 77.99 0.321 9.25 0.87 10.65
8/21/2023 7:00:00 PM 25.48 77.864 0.321 9.22 0.86 10.29
8/21/2023 7:15:00 PM 25.43 77.774 0.321 9.18 0.82 9.91
8/21/2023 7:30:00 PM 25.39 77.702 0.322 9.14 0.96 9.53
8/21/2023 7:45:00 PM 25.34 77.612 0.322 9.1 0.86 9.17
8/21/2023 8:00:00 PM 25.3 77.54 0.323 9.05 0.94 8.83
8/21/2023 8:15:00 PM 25.27 77.486 0.323 9.01 1.02 8.54
8/21/2023 8:30:00 PM 25.24 77.432 0.324 8.96 1.23 8.29
8/21/2023 8:45:00 PM 25.2 77.36 0.324 8.92 1.37 8.06
8/21/2023 9:00:00 PM 25.17 77.306 0.325 8.87 1.21 7.86
8/21/2023 9:15:00 PM 25.14 77.252 0.326 8.82 1.44 7.67
8/21/2023 9:30:00 PM 25.11 77.198 0.326 8.77 1.5 7.5
8/21/2023 9:45:00 PM 25.08 77.144 0.327 8.71 1.46 7.33
8/21/2023 10:00:00 PM 25.05 77.09 0.328 8.64 1.36 7.16
8/21/2023 10:15:00 PM 25.02 77.036 0.329 8.57 1.68 7
8/21/2023 10:30:00 PM 24.99 76.982 0.33 8.5 1.49 6.87
8/21/2023 10:45:00 PM 24.96 76.92799 0.331 8.41 1.4 6.74
8/21/2023 11:00:00 PM 24.92 76.856 0.332 8.31 1.48 6.62
8/21/2023 11:15:00 PM 24.87 76.766 0.332 8.2 1.93 6.51
8/21/2023 11:30:00 PM 24.84 76.712 0.333 8.09 1.75 6.4
8/21/2023 11:45:00 PM 24.78 76.604 0.334 7.99 1.71 6.32
8/22/2023 12:00:00 AM 24.73 76.514 0.335 7.88 1.32 6.24
8/22/2023 12:15:00 AM 24.66 76.388 0.336 7.79 1.26 6.17
8/22/2023 12:30:00 AM 24.62 76.316 0.337 7.71 1.62 6.09
8/22/2023 12:45:00 AM 24.57 76.226 0.337 7.65 1.73 6.03
8/22/2023 1:00:00 AM 24.51 76.118 0.338 7.6 1.43 5.97
8/22/2023 1:15:00 AM 24.44 75.992 0.338 7.56 1.31 5.93
8/22/2023 1:30:00 AM 24.38 75.884 0.339 7.52 1.13 5.89
8/22/2023 1:45:00 AM 24.3 75.74 0.339 7.49 1.12 5.85
8/22/2023 2:00:00 AM 24.21 75.578 0.34 7.46 1.12 5.82
8/22/2023 2:15:00 AM 24.13 75.434 0.34 7.43 1.6 5.8
8/22/2023 2:30:00 AM 24.04 75.272 0.341 7.41 1.37 5.78
8/22/2023 2:45:00 AM 23.96 75.128 0.341 7.39 1.34 5.75
8/22/2023 3:00:00 AM 23.88 74.984 0.341 7.38 1.34 5.75
8/22/2023 3:15:00 AM 23.81 74.858 0.341 7.37 1.32 5.73
8/22/2023 3:30:00 AM 23.72 74.696 0.341 7.36 1.37 5.73
8/22/2023 3:45:00 AM 23.63 74.534 0.341 7.35 2.95 5.7
8/22/2023 4:00:00 AM 23.54 74.372 0.341 7.34 2.03 5.71
8/22/2023 4:15:00 AM 23.44 74.192 0.341 7.33 1.87 5.72
8/22/2023 4:30:00 AM 23.36 74.048 0.341 7.33 1.93 5.72
8/22/2023 4:45:00 AM 23.27 73.886 0.341 7.32 1.85 5.73
8/22/2023 5:00:00 AM 23.19 73.742 0.341 7.32 1.57 5.74
8/22/2023 5:15:00 AM 23.1 73.58 0.341 7.31 1.53 5.74
8/22/2023 5:30:00 AM 23.02 73.436 0.341 7.31 1.68 5.75
8/22/2023 5:45:00 AM 22.94 73.292 0.34 7.3 1.68 5.75
8/22/2023 6:00:00 AM 22.85 73.13 0.34 7.3 1.54 5.77
8/22/2023 6:15:00 AM 22.77 72.986 0.34 7.3 1.49 5.78
8/22/2023 6:30:00 AM 22.69 72.842 0.34 7.29 1.32 5.79
8/22/2023 6:45:00 AM 22.62 72.716 0.339 7.29 1.26 5.82
8/22/2023 7:00:00 AM 22.55 72.59 0.339 7.29 1.18 5.88
8/22/2023 7:15:00 AM 22.47 72.446 0.339 7.3 1.21 5.98
8/22/2023 7:30:00 AM 22.42 72.356 0.338 7.32 1.06 6.25
8/22/2023 7:45:00 AM 22.37 72.266 0.338 7.35 0.89 6.51
8/22/2023 8:00:00 AM 22.31 72.158 0.338 7.38 0.82 6.77
8/22/2023 8:15:00 AM 22.29 72.122 0.337 7.43 0.82 7.15
8/22/2023 8:30:00 AM 22.24 72.032 0.337 7.47 0.8 7.4
8/22/2023 8:45:00 AM 22.19 71.942 0.336 7.52 0.68 7.7
8/22/2023 9:00:00 AM 22.17 71.906 0.336 7.57 0.73 8.02
8/22/2023 9:15:00 AM 22.17 71.906 0.336 7.65 0.66 8.41
8/22/2023 9:30:00 AM 22.21 71.978 0.335 7.77 0.6 8.92
8/22/2023 9:45:00 AM 22.29 72.122 0.335 7.92 0.68 9.44
8/22/2023 10:00:00 AM 22.43 72.374 0.334 8.1 0.57 9.96
8/22/2023 10:15:00 AM 22.6 72.68 0.333 8.27 0.66 10.45
8/22/2023 10:30:00 AM 22.82 73.076 0.332 8.42 0.61 10.92
8/22/2023 10:45:00 AM 23.03 73.454 0.331 8.56 0.6 11.34
8/22/2023 11:00:00 AM 23.27 73.886 0.33 8.67 0.54 11.73
8/22/2023 11:15:00 AM 23.51 74.318 0.329 8.76 0.79 12.08
8/22/2023 11:30:00 AM 23.77 74.786 0.328 8.84 0.58 12.37
8/22/2023 11:45:00 AM 24.06 75.308 0.327 8.9 0.63 12.61
8/22/2023 12:00:00 PM 24.36 75.848 0.327 8.96 0.67 12.83
8/22/2023 12:15:00 PM 24.6 76.28 0.326 9.01 0.74 13.04
8/22/2023 12:30:00 PM 24.84 76.712 0.325 9.06 0.64 13.18
8/22/2023 12:45:00 PM 25.05 77.09 0.325 9.11 0.71 13.34
8/22/2023 1:00:00 PM 25.25 77.45 0.324 9.15 0.69 13.46
8/22/2023 1:15:00 PM 25.42 77.756 0.323 9.19 0.78 13.56
8/22/2023 1:30:00 PM 25.59 78.062 0.323 9.22 0.69 13.63
8/22/2023 1:45:00 PM 25.76 78.368 0.322 9.24 0.75 13.64
8/22/2023 2:00:00 PM 25.93 78.674 0.322 9.27 0.74 13.66
8/22/2023 2:15:00 PM 26.09 78.962 0.321 9.29 0.69 13.67
8/22/2023 2:30:00 PM 26.2 79.16 0.321 9.31 0.84 13.67
8/22/2023 2:45:00 PM 26.3 79.34 0.321 9.33 0.77 13.63
8/22/2023 3:00:00 PM 26.36 79.448 0.32 9.34 0.69 13.57
8/22/2023 3:15:00 PM 26.37 79.466 0.32 9.35 0.76 13.44
8/22/2023 3:30:00 PM 26.38 79.484 0.32 9.36 0.71 13.35
8/22/2023 3:45:00 PM 26.33 79.394 0.319 9.36 0.76 13.18
8/22/2023 4:00:00 PM 26.28 79.304 0.319 9.36 0.79 13.06
8/22/2023 4:15:00 PM 26.18 79.124 0.319 9.37 0.75 12.88
8/22/2023 4:30:00 PM 26.07 78.926 0.319 9.36 0.71 12.68
8/22/2023 4:45:00 PM 25.95 78.71 0.319 9.36 1.24 12.51
8/22/2023 5:00:00 PM 25.79 78.422 0.318 9.35 0.72 12.32
8/22/2023 5:15:00 PM 25.63 78.134 0.318 9.35 0.89 12.09
8/22/2023 5:30:00 PM 25.47 77.846 0.318 9.33 0.74 11.83
8/22/2023 5:45:00 PM 25.29 77.522 0.318 9.32 0.61 11.56
8/22/2023 6:00:00 PM 25.11 77.198 0.318 9.3 0.72 11.25
8/22/2023 6:15:00 PM 24.94 76.892 0.318 9.28 0.76 10.99
8/22/2023 6:30:00 PM 24.8 76.64 0.318 9.26 0.73 10.66
8/22/2023 6:45:00 PM 24.69 76.442 0.318 9.24 0.79 10.34
8/22/2023 7:00:00 PM 24.58 76.244 0.318 9.21 0.9 10.02
8/22/2023 7:15:00 PM 24.51 76.118 0.318 9.18 0.73 9.7
8/22/2023 7:30:00 PM 24.45 76.01 0.318 9.15 0.86 9.38
8/22/2023 7:45:00 PM 24.37 75.866 0.318 9.12 0.73 9.08
8/22/2023 8:00:00 PM 24.31 75.758 0.318 9.09 0.75 8.82
8/22/2023 8:15:00 PM 24.23 75.614 0.318 9.06 0.91 8.57
8/22/2023 8:30:00 PM 24.17 75.506 0.318 9.02 1.2 8.37
8/22/2023 8:45:00 PM 24.11 75.398 0.319 8.99 1.03 8.18
8/22/2023 9:00:00 PM 24.05 75.29 0.319 8.96 1.18 8
8/22/2023 9:15:00 PM 23.99 75.182 0.319 8.92 1.16 7.84
8/22/2023 9:30:00 PM 23.94 75.092 0.32 8.88 2.65 7.68
8/22/2023 9:45:00 PM 23.88 74.984 0.32 8.84 1.13 7.53
8/22/2023 10:00:00 PM 23.81 74.858 0.321 8.79 1.58 7.39
8/22/2023 10:15:00 PM 23.75 74.75 0.322 8.73 1.67 7.24
8/22/2023 10:30:00 PM 23.69 74.642 0.322 8.67 2.05 7.11
8/22/2023 10:45:00 PM 23.62 74.516 0.323 8.61 1.21 7
8/22/2023 11:00:00 PM 23.55 74.39 0.324 8.54 1.19 6.89
8/22/2023 11:15:00 PM 23.48 74.264 0.325 8.46 1.37 6.79
8/22/2023 11:30:00 PM 23.41 74.138 0.326 8.37 1.3 6.69
8/22/2023 11:45:00 PM 23.31 73.958 0.327 8.27 1.26 6.61
8/23/2023 12:00:00 AM 23.23 73.814 0.328 8.17 1.38 6.54
8/23/2023 12:15:00 AM 23.15 73.67 0.328 8.06 1.22 6.48
8/23/2023 12:30:00 AM 23.04 73.472 0.329 7.96 1.29 6.41
8/23/2023 12:45:00 AM 22.94 73.292 0.33 7.86 1.12 6.35
8/23/2023 1:00:00 AM 22.83 73.094 0.331 7.78 1.1 6.3
8/23/2023 1:15:00 AM 22.73 72.914 0.332 7.71 1.32 6.24
8/23/2023 1:30:00 AM 22.6 72.68 0.332 7.65 1.4 6.22
8/23/2023 1:45:00 AM 22.49 72.482 0.333 7.6 1.33 6.2
8/23/2023 2:00:00 AM 22.37 72.266 0.333 7.56 1.27 6.17
8/23/2023 2:15:00 AM 22.25 72.05 0.334 7.53 1.66 6.16
8/23/2023 2:30:00 AM 22.14 71.852 0.334 7.5 2.15 6.14
8/23/2023 2:45:00 AM 22.02 71.636 0.334 7.47 1.44 6.12
8/23/2023 3:00:00 AM 21.89 71.402 0.335 7.45 1.33 6.12
8/23/2023 3:15:00 AM 21.77 71.186 0.335 7.43 1.2 6.12
8/23/2023 3:30:00 AM 21.64 70.952 0.335 7.42 1.15 6.13
8/23/2023 3:45:00 AM 21.51 70.718 0.335 7.4 1.19 6.13
8/23/2023 4:00:00 AM 21.38 70.484 0.336 7.39 1.27 6.16
8/23/2023 4:15:00 AM 21.25 70.25 0.336 7.38 1.82 6.17
8/23/2023 4:30:00 AM 21.14 70.052 0.336 7.37 1.95 6.18
8/23/2023 4:45:00 AM 21.02 69.836 0.336 7.36 1.65 6.18
8/23/2023 5:00:00 AM 20.9 69.62 0.336 7.35 1.35 6.21
8/23/2023 5:15:00 AM 20.77 69.386 0.336 7.34 1.29 6.24
8/23/2023 5:30:00 AM 20.65 69.17 0.336 7.34 1.36 6.26
8/23/2023 5:45:00 AM 20.54 68.972 0.335 7.32 1.51 6.25
8/23/2023 6:00:00 AM 20.42 68.756 0.335 7.3 1.43 6.28
8/23/2023 6:15:00 AM 20.3 68.54 0.335 7.3 1.54 6.3
8/23/2023 6:30:00 AM 20.2 68.36 0.335 7.29 1.39 6.34
8/23/2023 6:45:00 AM 20.09 68.162 0.335 7.26 1.42 6.42
8/23/2023 7:00:00 AM 20 68 0.335 7.26 1.37 6.51
8/23/2023 7:15:00 AM 19.91 67.838 0.335 7.28 1.36 6.65
8/23/2023 7:30:00 AM 19.83 67.694 0.335 7.29 1.38 6.83
8/23/2023 7:45:00 AM 19.78 67.604 0.334 7.32 1.34 7.01
8/23/2023 8:00:00 AM 19.74 67.532 0.334 7.34 1.15 7.21
8/23/2023 8:15:00 AM 19.72 67.496 0.334 7.38 1.07 7.49
8/23/2023 8:30:00 AM 19.73 67.514 0.334 7.43 1.01 7.8
8/23/2023 8:45:00 AM 19.78 67.604 0.334 7.49 0.98 8.19
8/23/2023 9:00:00 AM 19.95 67.91 0.334 7.61 1.03 8.79
8/23/2023 9:15:00 AM 20.06 68.108 0.333 7.73 0.69 9.3
8/23/2023 9:30:00 AM 20.27 68.486 0.333 7.89 0.68 9.84
8/23/2023 9:45:00 AM 20.39 68.702 0.332 8.02 0.6 10.2
8/23/2023 10:00:00 AM 20.57 69.026 0.332 8.18 0.61 10.6
8/23/2023 10:15:00 AM 20.69 69.242 0.331 8.31 0.51 10.92
8/23/2023 10:30:00 AM 20.93 69.674 0.33 8.47 0.61 11.39
8/23/2023 10:45:00 AM 21.03 69.854 0.33 8.57 0.53 11.65
8/23/2023 11:00:00 AM 21.26 70.268 0.329 8.68 0.66 12.04
8/23/2023 11:15:00 AM 21.59 70.862 0.328 8.77 0.59 12.35
8/23/2023 11:30:00 AM 21.75 71.15 0.328 8.84 0.71 12.59
8/23/2023 11:45:00 AM 22.08 71.744 0.328 8.91 0.61 12.87
8/23/2023 12:00:00 PM 22.39 72.302 0.327 8.96 0.53 13.03
8/23/2023 12:15:00 PM 22.72 72.896 0.326 9.01 0.72 13.23
8/23/2023 12:30:00 PM 22.91 73.238 0.325 9.07 0.57 13.4
8/23/2023 12:45:00 PM 22.84 73.112 0.325 9.1 0.7 13.38
8/23/2023 1:00:00 PM 22.9 73.22 0.324 9.13 0.59 13.38
8/23/2023 1:15:00 PM 23.04 73.472 0.324 9.16 0.62 13.48
8/23/2023 1:30:00 PM 23.11 73.598 0.323 9.18 0.61 13.45
8/23/2023 1:45:00 PM 23.28 73.904 0.323 9.21 0.56 13.56
8/23/2023 2:00:00 PM 23.36 74.048 0.322 9.22 0.67 13.55
8/23/2023 2:15:00 PM 23.41 74.138 0.322 9.25 0.59 13.63
8/23/2023 2:30:00 PM 23.43 74.174 0.321 9.28 0.58 13.63
8/23/2023 2:45:00 PM 23.42 74.156 0.321 9.29 0.42 13.59
8/23/2023 3:00:00 PM 23.37 74.066 0.32 9.3 0.63 13.49
8/23/2023 3:15:00 PM 23.29 73.922 0.32 9.29 0.61 13.25
8/23/2023 3:30:00 PM 23.29 73.922 0.32 9.3 0.74 13.21
8/23/2023 3:45:00 PM 23.28 73.904 0.319 9.31 0.64 13.1
8/23/2023 4:00:00 PM 23.23 73.814 0.319 9.3 0.65 12.9
8/23/2023 4:15:00 PM 23.18 73.724 0.318 9.3 0.6 12.69
8/23/2023 4:30:00 PM 23.13 73.634 0.317 9.29 0.7 12.43
8/23/2023 4:45:00 PM 23.09 73.562 0.317 9.29 0.63 12.27
8/23/2023 5:00:00 PM 23.05 73.49 0.317 9.28 0.69 12.08
8/23/2023 5:15:00 PM 23.03 73.454 0.317 9.27 0.89 11.98
8/23/2023 5:30:00 PM 22.98 73.364 0.316 9.26 0.78 11.7
8/23/2023 5:45:00 PM 22.93 73.274 0.316 9.24 0.64 11.52
8/23/2023 6:00:00 PM 22.89 73.202 0.316 9.23 0.72 11.32
8/23/2023 6:15:00 PM 22.85 73.13 0.316 9.22 0.72 11.16
8/23/2023 6:30:00 PM 22.82 73.076 0.316 9.2 0.79 10.95
8/23/2023 6:45:00 PM 22.76 72.968 0.316 9.18 0.75 10.66
8/23/2023 7:00:00 PM 22.71 72.878 0.316 9.15 0.81 10.38
8/23/2023 7:15:00 PM 22.67 72.806 0.316 9.11 0.69 10.09
8/23/2023 7:30:00 PM 22.62 72.716 0.316 9.07 0.89 9.77
8/23/2023 7:45:00 PM 22.59 72.662 0.317 9.03 0.81 9.47
8/23/2023 8:00:00 PM 22.55 72.59 0.317 8.97 1.12 9.17
8/23/2023 8:15:00 PM 22.52 72.536 0.317 8.92 0.97 8.9
8/23/2023 8:30:00 PM 22.49 72.482 0.318 8.86 1.02 8.68
8/23/2023 8:45:00 PM 22.48 72.464 0.318 8.81 0.88 8.47
8/23/2023 9:00:00 PM 22.46 72.42799 0.318 8.74 1.15 8.28
8/23/2023 9:15:00 PM 22.45 72.41 0.319 8.68 0.99 8.1
8/23/2023 9:30:00 PM 22.44 72.392 0.319 8.6 1.07 7.94
8/23/2023 9:45:00 PM 22.43 72.374 0.32 8.52 1.15 7.78
8/23/2023 10:00:00 PM 22.42 72.356 0.32 8.43 1.01 7.63
8/23/2023 10:15:00 PM 22.41 72.338 0.321 8.32 1.22 7.49
8/23/2023 10:30:00 PM 22.41 72.338 0.322 8.22 1.27 7.35
8/23/2023 10:45:00 PM 22.39 72.302 0.322 8.11 1.21 7.23
8/23/2023 11:00:00 PM 22.39 72.302 0.322 8.02 1.2 7.12
8/23/2023 11:15:00 PM 22.37 72.266 0.323 7.92 1.25 7.02
8/23/2023 11:30:00 PM 22.36 72.248 0.324 7.85 1.27 6.93
8/23/2023 11:45:00 PM 22.35 72.23 0.325 7.78 1.26 6.84
8/24/2023 12:00:00 AM 22.33 72.194 0.325 7.73 1.99 6.76
8/24/2023 12:15:00 AM 22.3 72.14 0.326 7.68 1.27 6.7
8/24/2023 12:30:00 AM 22.27 72.086 0.326 7.63 1.32 6.64
8/24/2023 12:45:00 AM 22.25 72.05 0.326 7.6 1.18 6.58
8/24/2023 1:00:00 AM 22.22 71.996 0.327 7.56 2.06 6.53
8/24/2023 1:15:00 AM 22.19 71.942 0.327 7.53 1.96 6.48
8/24/2023 1:30:00 AM 22.15 71.87 0.327 7.48 26.01 6.42
8/24/2023 1:45:00 AM 22.11 71.798 0.328 7.47 21.25 6.4
8/24/2023 2:00:00 AM 22.08 71.744 0.328 7.47 2.36 6.39
8/24/2023 2:15:00 AM 22.03 71.654 0.328 7.46 1.73 6.36
8/24/2023 2:30:00 AM 21.99 71.582 0.329 7.44 1.36 6.35
8/24/2023 2:45:00 AM 21.94 71.492 0.329 7.43 1.37 6.34
8/24/2023 3:00:00 AM 21.89 71.402 0.329 7.42 1.97 6.32
8/24/2023 3:15:00 AM 21.83 71.294 0.329 7.4 2.07 6.31
8/24/2023 3:30:00 AM 21.77 71.186 0.33 7.39 1.84 6.3
8/24/2023 3:45:00 AM 21.71 71.078 0.33 7.39 1.39 6.31
8/24/2023 4:00:00 AM 21.65 70.97 0.33 7.38 1.41 6.3
8/24/2023 4:15:00 AM 21.59 70.862 0.33 7.37 3.79 6.29
8/24/2023 4:30:00 AM 21.53 70.754 0.33 7.37 1.39 6.29
8/24/2023 4:45:00 AM 21.47 70.646 0.33 7.36 1.39 6.29
8/24/2023 5:00:00 AM 21.41 70.538 0.329 7.35 1.38 6.3
8/24/2023 5:15:00 AM 21.35 70.43 0.33 7.35 1.68 6.3
8/24/2023 5:30:00 AM 21.3 70.34 0.33 7.34 1.44 6.31
8/24/2023 5:45:00 AM 21.25 70.25 0.33 7.33 1.46 6.31
8/24/2023 6:00:00 AM 21.2 70.16 0.33 7.33 1.65 6.31
8/24/2023 6:15:00 AM 21.15 70.07 0.33 7.32 1.6 6.3
8/24/2023 6:30:00 AM 21.11 69.998 0.33 7.32 1.58 6.3
8/24/2023 6:45:00 AM 21.08 69.944 0.33 7.31 1.44 6.32
8/24/2023 7:00:00 AM 21.05 69.89 0.33 7.31 1.56 6.34
8/24/2023 7:15:00 AM 21.01 69.818 0.329 7.31 1.46 6.37
8/24/2023 7:30:00 AM 20.99 69.782 0.329 7.32 1.23 6.45
8/24/2023 7:45:00 AM 20.96 69.728 0.329 7.32 1.24 6.52
8/24/2023 8:00:00 AM 20.94 69.692 0.329 7.33 1.05 6.62
8/24/2023 8:15:00 AM 20.92 69.656 0.329 7.34 0.98 6.71
8/24/2023 8:30:00 AM 20.9 69.62 0.329 7.35 0.94 6.8
8/24/2023 8:45:00 AM 20.88 69.584 0.329 7.37 0.93 6.94
8/24/2023 9:00:00 AM 20.86 69.548 0.328 7.37 0.87 7.01
8/24/2023 9:15:00 AM 20.85 69.53 0.328 7.39 0.76 7.12
8/24/2023 9:30:00 AM 20.84 69.512 0.328 7.4 0.77 7.22
8/24/2023 9:45:00 AM 20.84 69.512 0.328 7.42 0.77 7.43
8/24/2023 10:00:00 AM 20.85 69.53 0.328 7.46 0.74 7.67
8/24/2023 10:15:00 AM 20.85 69.53 0.328 7.49 0.75 7.9
8/24/2023 10:30:00 AM 20.91 69.638 0.327 7.57 0.75 8.33
8/24/2023 10:45:00 AM 20.95 69.71 0.327 7.64 0.66 8.68
8/24/2023 11:00:00 AM 21.05 69.89 0.327 7.77 0.77 9.18
8/24/2023 11:15:00 AM 21.1 69.98 0.326 7.88 0.68 9.56
8/24/2023 11:30:00 AM 21.15 70.07 0.326 8.01 0.61 9.93
8/24/2023 11:45:00 AM 21.18 70.124 0.326 8.11 0.62 10.18
8/24/2023 12:00:00 PM 21.18 70.124 0.325 8.17 0.76 10.3
8/24/2023 12:15:00 PM 21.24 70.232 0.325 8.28 0.74 10.59
8/24/2023 12:30:00 PM 21.28 70.304 0.324 8.36 0.66 10.8
8/24/2023 12:45:00 PM 21.31 70.358 0.324 8.44 0.64 11.01
8/24/2023 1:00:00 PM 21.41 70.538 0.323 8.55 0.61 11.34
8/24/2023 1:15:00 PM 21.44 70.592 0.322 8.61 0.68 11.49
8/24/2023 1:30:00 PM 21.48 70.664 0.322 8.66 1.54 11.6
8/24/2023 1:45:00 PM 21.5 70.7 0.321 8.71 0.69 11.65
8/24/2023 2:00:00 PM 21.52 70.736 0.321 8.72 0.58 11.63
8/24/2023 2:15:00 PM 21.53 70.754 0.321 8.75 0.67 11.61
8/24/2023 2:30:00 PM 21.52 70.736 0.321 8.75 1.2 11.52
8/24/2023 2:45:00 PM 21.62 70.916 0.32 8.8 0.67 11.73
8/24/2023 3:00:00 PM 21.71 71.078 0.319 8.85 0.64 11.85
8/24/2023 3:15:00 PM 21.92 71.456 0.319 8.91 0.74 12.11
8/24/2023 3:30:00 PM 22.01 71.618 0.318 8.95 0.7 12.21
8/24/2023 3:45:00 PM 22.15 71.87 0.318 9 0.75 12.36
8/24/2023 4:00:00 PM 22.25 72.05 0.317 9.03 0.69 12.4
8/24/2023 4:15:00 PM 22.33 72.194 0.317 9.06 0.82 12.45
8/24/2023 4:30:00 PM 22.3 72.14 0.317 9.06 0.8 12.33
8/24/2023 4:45:00 PM 22.25 72.05 0.317 9.06 0.8 12.15
8/24/2023 5:00:00 PM 22.19 71.942 0.316 9.05 0.83 11.97
8/24/2023 5:15:00 PM 22.16 71.888 0.316 9.05 0.88 11.82
8/24/2023 5:30:00 PM 22.14 71.852 0.316 9.04 0.84 11.55
8/24/2023 5:45:00 PM 22.16 71.888 0.316 9.05 0.74 11.52
8/24/2023 6:00:00 PM 22.2 71.96 0.316 9.06 0.77 11.46
8/24/2023 6:15:00 PM 22.21 71.978 0.315 9.06 0.87 11.33
8/24/2023 6:30:00 PM 22.24 72.032 0.315 9.06 0.8 11.22
8/24/2023 6:45:00 PM 22.23 72.014 0.316 9.03 0.82 10.96
8/24/2023 7:00:00 PM 22.2 71.96 0.316 9 0.82 10.63
8/24/2023 7:15:00 PM 22.17 71.906 0.316 8.94 1.02 10.24
8/24/2023 7:30:00 PM 22.14 71.852 0.317 8.88 0.83 9.87
8/24/2023 7:45:00 PM 22.11 71.798 0.317 8.81 0.87 9.53
8/24/2023 8:00:00 PM 22.08 71.744 0.318 8.75 0.94 9.26
8/24/2023 8:15:00 PM 22.06 71.708 0.318 8.69 1.07 9.03
8/24/2023 8:30:00 PM 22.02 71.636 0.318 8.65 1.16 8.85
8/24/2023 8:45:00 PM 21.99 71.582 0.319 8.59 0.95 8.68
8/24/2023 9:00:00 PM 21.96 71.528 0.319 8.53 1.14 8.5
8/24/2023 9:15:00 PM 21.93 71.474 0.319 8.44 1.48 8.32
8/24/2023 9:30:00 PM 21.89 71.402 0.32 8.35 1.34 8.15
8/24/2023 9:45:00 PM 21.85 71.33 0.32 8.25 1.38 8
8/24/2023 10:00:00 PM 21.81 71.258 0.321 8.15 1.26 7.86
8/24/2023 10:15:00 PM 21.77 71.186 0.321 8.05 1.31 7.73
8/24/2023 10:30:00 PM 21.73 71.114 0.321 7.96 1.23 7.62
8/24/2023 10:45:00 PM 21.69 71.042 0.322 7.88 1.33 7.52
8/24/2023 11:00:00 PM 21.67 71.006 0.322 7.81 1.39 7.42
8/24/2023 11:15:00 PM 21.65 70.97 0.322 7.76 1.28 7.33
8/24/2023 11:30:00 PM 21.63 70.934 0.323 7.7 1.39 7.25
8/24/2023 11:45:00 PM 21.61 70.898 0.323 7.66 1.24 7.17
8/25/2023 12:00:00 AM 21.6 70.88 0.324 7.62 1.42 7.1
8/25/2023 12:15:00 AM 21.58 70.844 0.324 7.58 1.21 7.03
8/25/2023 12:30:00 AM 21.56 70.808 0.324 7.55 1.31 6.97
8/25/2023 12:45:00 AM 21.55 70.79 0.325 7.52 1.13 6.91
8/25/2023 1:00:00 AM 21.52 70.736 0.325 7.5 1.33 6.86
8/25/2023 1:15:00 AM 21.49 70.682 0.325 7.48 1.26 6.82
8/25/2023 1:30:00 AM 21.45 70.61 0.325 7.45 1.32 6.78
8/25/2023 1:45:00 AM 21.42 70.556 0.326 7.44 1.62 6.74
8/25/2023 2:00:00 AM 21.4 70.52 0.326 7.42 1.52 6.7
8/25/2023 2:15:00 AM 21.37 70.466 0.326 7.41 1.43 6.66
8/25/2023 2:30:00 AM 21.35 70.43 0.327 7.39 2 6.63
8/25/2023 2:45:00 AM 21.34 70.412 0.327 7.38 1.74 6.6
8/25/2023 3:00:00 AM 21.32 70.376 0.327 7.37 1.48 6.57
8/25/2023 3:15:00 AM 21.31 70.358 0.327 7.36 1.53 6.56
8/25/2023 3:30:00 AM 21.28 70.304 0.327 7.35 1.39 6.54
8/25/2023 3:45:00 AM 21.27 70.286 0.328 7.35 1.29 6.52
8/25/2023 4:00:00 AM 21.25 70.25 0.328 7.34 1.35 6.5
8/25/2023 4:15:00 AM 21.23 70.214 0.328 7.33 1.48 6.49
8/25/2023 4:30:00 AM 21.21 70.17799 0.328 7.33 1.56 6.48
8/25/2023 4:45:00 AM 21.2 70.16 0.328 7.33 1.51 6.47
8/25/2023 5:00:00 AM 21.18 70.124 0.328 7.32 1.31 6.45
8/25/2023 5:15:00 AM 21.17 70.106 0.328 7.32 1.66 6.44
8/25/2023 5:30:00 AM 21.15 70.07 0.328 7.31 1.84 6.42
8/25/2023 5:45:00 AM 21.13 70.034 0.328 7.31 1.88 6.42
8/25/2023 6:00:00 AM 21.1 69.98 0.329 7.3 2.07 6.41
8/25/2023 6:15:00 AM 21.07 69.926 0.329 7.3 1.76 6.4
8/25/2023 6:30:00 AM 21.04 69.872 0.329 7.3 1.62 6.4
8/25/2023 6:45:00 AM 21.02 69.836 0.329 7.3 1.48 6.47
8/25/2023 7:00:00 AM 21.01 69.818 0.329 7.3 1.7 6.51
8/25/2023 7:15:00 AM 20.99 69.782 0.329 7.31 1.66 6.59
8/25/2023 7:30:00 AM 20.99 69.782 0.329 7.32 1.3 6.71
8/25/2023 7:45:00 AM 21 69.8 0.329 7.34 1.19 6.86
8/25/2023 8:00:00 AM 21.01 69.818 0.329 7.36 1.18 7.07
8/25/2023 8:15:00 AM 21.02 69.836 0.329 7.39 1.02 7.25
8/25/2023 8:30:00 AM 21.03 69.854 0.329 7.42 0.99 7.49
8/25/2023 8:45:00 AM 21.04 69.872 0.329 7.44 0.93 7.62
8/25/2023 9:00:00 AM 21.1 69.98 0.329 7.51 0.84 8.07
8/25/2023 9:15:00 AM 21.13 70.034 0.329 7.54 0.8 8.21
8/25/2023 9:30:00 AM 21.23 70.214 0.328 7.65 1.06 8.72
8/25/2023 9:45:00 AM 21.3 70.34 0.328 7.72 0.81 9.04
8/25/2023 10:00:00 AM 21.41 70.538 0.328 7.86 0.75 9.5
8/25/2023 10:15:00 AM 21.49 70.682 0.327 7.96 0.7 9.79
8/25/2023 10:30:00 AM 21.62 70.916 0.327 8.11 0.81 10.21
8/25/2023 10:45:00 AM 21.82 71.276 0.326 8.23 0.71 10.54
8/25/2023 11:00:00 AM 21.99 71.582 0.327 8.38 0.7 10.92
8/25/2023 11:15:00 AM 22.07 71.726 0.326 8.45 0.81 11.13
8/25/2023 11:30:00 AM 22.45 72.41 0.325 8.59 0.74 11.56
8/25/2023 11:45:00 AM 22.53 72.554 0.325 8.66 0.77 11.76
8/25/2023 12:00:00 PM 22.69 72.842 0.324 8.75 0.9 12.02
8/25/2023 12:15:00 PM 22.83 73.094 0.323 8.81 0.75 12.18
8/25/2023 12:30:00 PM 23.01 73.418 0.323 8.87 0.74 12.36
8/25/2023 12:45:00 PM 23.4 74.12 0.322 8.93 0.78 12.63
8/25/2023 1:00:00 PM 23.78 74.804 0.321 8.98 0.75 12.8
8/25/2023 1:15:00 PM 23.86 74.948 0.321 9.04 0.72 12.93
8/25/2023 1:30:00 PM 23.96 75.128 0.32 9.07 0.71 12.89
8/25/2023 1:45:00 PM 24.01 75.218 0.32 9.1 0.58 12.94
8/25/2023 2:00:00 PM 24.06 75.308 0.319 9.12 0.59 12.92
8/25/2023 2:15:00 PM 24.19 75.542 0.319 9.15 0.63 12.97
8/25/2023 2:30:00 PM 24.45 76.01 0.318 9.17 0.61 13.01
8/25/2023 2:45:00 PM 24.78 76.604 0.318 9.2 0.64 13.11
8/25/2023 3:00:00 PM 24.89 76.802 0.317 9.22 0.68 13.07
8/25/2023 3:15:00 PM 25.05 77.09 0.317 9.24 0.8 13.04
8/25/2023 3:30:00 PM 25.07 77.126 0.316 9.25 0.78 12.91
8/25/2023 3:45:00 PM 25.04 77.07201 0.316 9.26 0.81 12.78
8/25/2023 4:00:00 PM 25.09 77.162 0.316 9.26 0.69 12.68
8/25/2023 4:15:00 PM 25.08 77.144 0.316 9.26 0.68 12.54
8/25/2023 4:30:00 PM 25.14 77.252 0.315 9.27 0.77 12.49
8/25/2023 4:45:00 PM 25.15 77.27 0.315 9.27 0.72 12.35
8/25/2023 5:00:00 PM 25.23 77.414 0.315 9.29 0.93 12.33
8/25/2023 5:15:00 PM 25.25 77.45 0.314 9.28 0.85 12.17
8/25/2023 5:30:00 PM 25.26 77.468 0.314 9.28 0.75 12
8/25/2023 5:45:00 PM 25.27 77.486 0.314 9.27 0.82 11.8
8/25/2023 6:00:00 PM 25.23 77.414 0.314 9.25 0.96 11.47
8/25/2023 6:15:00 PM 25.16 77.288 0.314 9.22 0.78 11.12
8/25/2023 6:30:00 PM 25.1 77.18 0.314 9.19 0.89 10.79
8/25/2023 6:45:00 PM 25.05 77.09 0.314 9.16 0.84 10.43
8/25/2023 7:00:00 PM 25.01 77.018 0.314 9.12 0.76 10.07
8/25/2023 7:15:00 PM 24.98 76.964 0.314 9.08 0.77 9.72
8/25/2023 7:30:00 PM 24.94 76.892 0.315 9.04 0.75 9.38
8/25/2023 7:45:00 PM 24.9 76.82 0.315 9 0.85 9.05
8/25/2023 8:00:00 PM 24.87 76.766 0.315 8.95 1.01 8.75
8/25/2023 8:15:00 PM 24.85 76.73 0.316 8.91 1.05 8.49
8/25/2023 8:30:00 PM 24.83 76.694 0.316 8.86 1.26 8.25
8/25/2023 8:45:00 PM 24.8 76.64 0.316 8.81 1.14 8.04
8/25/2023 9:00:00 PM 24.77 76.586 0.317 8.75 1.58 7.85
8/25/2023 9:15:00 PM 24.75 76.55 0.317 8.69 1.48 7.66
8/25/2023 9:30:00 PM 24.73 76.514 0.318 8.61 1.39 7.48
8/25/2023 9:45:00 PM 24.72 76.496 0.318 8.53 1.32 7.3
8/25/2023 10:00:00 PM 24.69 76.442 0.319 8.44 1.61 7.14
8/25/2023 10:15:00 PM 24.66 76.388 0.319 8.34 1.61 6.99
8/25/2023 10:30:00 PM 24.62 76.316 0.32 8.23 1.47 6.86
8/25/2023 10:45:00 PM 24.58 76.244 0.32 8.11 1.34 6.73
8/25/2023 11:00:00 PM 24.54 76.172 0.321 8 1.27 6.62
8/25/2023 11:15:00 PM 24.49 76.082 0.321 7.9 2.19 6.52
8/25/2023 11:30:00 PM 24.44 75.992 0.322 7.81 1.3 6.42
8/25/2023 11:45:00 PM 24.38 75.884 0.322 7.72 1.38 6.33
8/26/2023 12:00:00 AM 24.32 75.776 0.323 7.66 1.3 6.25
8/26/2023 12:15:00 AM 24.25 75.65 0.323 7.6 1.49 6.19
8/26/2023 12:30:00 AM 24.19 75.542 0.323 7.55 1.64 6.11
8/26/2023 12:45:00 AM 24.14 75.452 0.324 7.51 1.28 6.05
8/26/2023 1:00:00 AM 24.06 75.308 0.324 7.47 1.24 6
8/26/2023 1:15:00 AM 23.99 75.182 0.324 7.44 1.28 5.95
8/26/2023 1:30:00 AM 23.92 75.056 0.324 7.41 1.4 5.9
8/26/2023 1:45:00 AM 23.84 74.912 0.324 7.39 1.81 5.88
8/26/2023 2:00:00 AM 23.77 74.786 0.324 7.37 1.94 5.84
8/26/2023 2:15:00 AM 23.69 74.642 0.325 7.35 1.24 5.82
8/26/2023 2:30:00 AM 23.61 74.498 0.325 7.34 1.26 5.8
8/26/2023 2:45:00 AM 23.54 74.372 0.325 7.32 1.22 5.79
8/26/2023 3:00:00 AM 23.45 74.21 0.325 7.31 1.31 5.78
8/26/2023 3:15:00 AM 23.37 74.066 0.325 7.3 2.25 5.77
8/26/2023 3:30:00 AM 23.29 73.922 0.325 7.29 1.75 5.77
8/26/2023 3:45:00 AM 23.21 73.778 0.325 7.28 1.17 5.77
8/26/2023 4:00:00 AM 23.12 73.616 0.325 7.27 1.45 5.77
8/26/2023 4:15:00 AM 23.03 73.454 0.325 7.27 1.36 5.78
8/26/2023 4:30:00 AM 22.95 73.31 0.324 7.26 1.46 5.78
8/26/2023 4:45:00 AM 22.87 73.166 0.324 7.26 1.2 5.79
8/26/2023 5:00:00 AM 22.79 73.022 0.324 7.25 1.68 5.79
8/26/2023 5:15:00 AM 22.7 72.86 0.324 7.25 1.43 5.8
8/26/2023 5:30:00 AM 22.62 72.716 0.324 7.25 1.42 5.81
8/26/2023 5:45:00 AM 22.54 72.57201 0.324 7.24 1.53 5.82
8/26/2023 6:00:00 AM 22.45 72.41 0.324 7.24 1.5 5.84
8/26/2023 6:15:00 AM 22.37 72.266 0.324 7.24 1.31 5.85
8/26/2023 6:30:00 AM 22.3 72.14 0.323 7.23 1.35 5.88
8/26/2023 6:45:00 AM 22.23 72.014 0.323 7.23 1.14 5.93
8/26/2023 7:00:00 AM 22.16 71.888 0.323 7.24 1.22 6.01
8/26/2023 7:15:00 AM 22.12 71.816 0.323 7.25 1.16 6.13
8/26/2023 7:30:00 AM 22.07 71.726 0.323 7.26 1.62 6.29
8/26/2023 7:45:00 AM 22.04 71.672 0.323 7.29 0.93 6.53
8/26/2023 8:00:00 AM 22.03 71.654 0.323 7.31 0.88 6.78
8/26/2023 8:15:00 AM 22.04 71.672 0.323 7.35 3.11 7.1
8/26/2023 8:30:00 AM 22.1 71.78 0.323 7.41 0.83 7.52
8/26/2023 8:45:00 AM 22.19 71.942 0.322 7.48 0.81 7.98
8/26/2023 9:00:00 AM 22.28 72.104 0.322 7.57 0.92 8.39
8/26/2023 9:15:00 AM 22.38 72.284 0.322 7.65 0.69 8.79
8/26/2023 9:30:00 AM 22.54 72.57201 0.322 7.78 0.69 9.25
8/26/2023 9:45:00 AM 22.7 72.86 0.323 7.92 0.67 9.7
8/26/2023 10:00:00 AM 22.93 73.274 0.321 8.09 0.56 10.2
8/26/2023 10:15:00 AM 23.17 73.706 0.321 8.27 0.63 10.64
8/26/2023 10:30:00 AM 23.46 74.228 0.32 8.42 0.66 11.07
8/26/2023 10:45:00 AM 23.75 74.75 0.319 8.56 0.66 11.44
8/26/2023 11:00:00 AM 24.04 75.272 0.318 8.67 0.68 11.77
8/26/2023 11:15:00 AM 24.31 75.758 0.318 8.75 0.7 12.02
8/26/2023 11:30:00 AM 24.6 76.28 0.317 8.82 0.59 12.22
8/26/2023 11:45:00 AM 24.91 76.838 0.316 8.89 0.69 12.5
8/26/2023 12:00:00 PM 25.17 77.306 0.316 8.94 0.86 12.62
8/26/2023 12:15:00 PM 25.26 77.468 0.315 8.99 0.89 12.74
8/26/2023 12:30:00 PM 25.55 77.99 0.314 9.04 0.87 12.92
8/26/2023 12:45:00 PM 25.79 78.422 0.314 9.08 0.86 13.02
8/26/2023 1:00:00 PM 25.82 78.476 0.314 9.11 0.78 13.01
8/26/2023 1:15:00 PM 25.93 78.674 0.313 9.13 0.77 13.04
8/26/2023 1:30:00 PM 26.27 79.286 0.313 9.16 0.94 13.15
8/26/2023 1:45:00 PM 26.52 79.736 0.313 9.19 0.82 13.19
8/26/2023 2:00:00 PM 26.57 79.826 0.312 9.2 0.92 13.13
8/26/2023 2:15:00 PM 26.77 80.186 0.312 9.23 0.88 13.25
8/26/2023 2:30:00 PM 26.75 80.15 0.312 9.24 0.78 13.16
8/26/2023 2:45:00 PM 26.69 80.042 0.312 9.26 0.9 13.07
8/26/2023 3:00:00 PM 26.78 80.204 0.311 9.27 0.79 13.02
8/26/2023 3:15:00 PM 26.91 80.438 0.311 9.28 0.89 13
8/26/2023 3:30:00 PM 26.9 80.42 0.311 9.27 0.91 12.78
8/26/2023 3:45:00 PM 26.92 80.456 0.311 9.28 0.95 12.72
8/26/2023 4:00:00 PM 26.93 80.474 0.311 9.28 0.85 12.57
8/26/2023 4:15:00 PM 26.86 80.348 0.311 9.27 0.85 12.41
8/26/2023 4:30:00 PM 26.83 80.294 0.311 9.27 1.86 12.3
8/26/2023 4:45:00 PM 26.65 79.97 0.311 9.25 1.06 11.95
8/26/2023 5:00:00 PM 26.51 79.718 0.311 9.24 0.93 11.73
8/26/2023 5:15:00 PM 26.42 79.556 0.311 9.22 1.15 11.51
8/26/2023 5:30:00 PM 26.31 79.358 0.311 9.21 0.86 11.29
8/26/2023 5:45:00 PM 26.22 79.196 0.311 9.19 0.86 11.03
8/26/2023 6:00:00 PM 26.13 79.034 0.311 9.18 0.91 10.81
8/26/2023 6:15:00 PM 26.05 78.89 0.311 9.15 0.81 10.53
8/26/2023 6:30:00 PM 26.01 78.818 0.312 9.14 0.87 10.29
8/26/2023 6:45:00 PM 25.96 78.728 0.312 9.11 0.93 10.02
8/26/2023 7:00:00 PM 25.89 78.602 0.312 9.07 0.89 9.67
8/26/2023 7:15:00 PM 25.82 78.476 0.313 9.03 1.28 9.3
8/26/2023 7:30:00 PM 25.77 78.386 0.313 8.98 0.96 8.95
8/26/2023 7:45:00 PM 25.71 78.278 0.313 8.94 1.04 8.62
8/26/2023 8:00:00 PM 25.67 78.206 0.314 8.9 1.47 8.34
8/26/2023 8:15:00 PM 25.62 78.116 0.314 8.85 1.12 8.09
8/26/2023 8:30:00 PM 25.59 78.062 0.315 8.81 1.27 7.86
8/26/2023 8:45:00 PM 25.55 77.99 0.315 8.76 1.22 7.66
8/26/2023 9:00:00 PM 25.5 77.9 0.316 8.71 1.13 7.47
8/26/2023 9:15:00 PM 25.44 77.792 0.316 8.65 1.57 7.3
8/26/2023 9:30:00 PM 25.38 77.684 0.317 8.58 1.08 7.13
8/26/2023 9:45:00 PM 25.32 77.576 0.318 8.5 1.11 6.96
8/26/2023 10:00:00 PM 25.27 77.486 0.318 8.41 1.26 6.81
8/26/2023 10:15:00 PM 25.21 77.378 0.319 8.3 3.51 6.67
8/26/2023 10:30:00 PM 25.15 77.27 0.32 8.21 1.25 6.54
8/26/2023 10:45:00 PM 25.09 77.162 0.32 8.11 1.17 6.42
8/26/2023 11:00:00 PM 25.02 77.036 0.321 8 1.3 6.32
8/26/2023 11:15:00 PM 24.97 76.946 0.322 7.91 1.56 6.22
8/26/2023 11:30:00 PM 24.91 76.838 0.322 7.82 1.12 6.14
8/26/2023 11:45:00 PM 24.84 76.712 0.323 7.75 1.22 6.07
8/27/2023 12:00:00 AM 24.78 76.604 0.324 7.68 1.15 5.99
8/27/2023 12:15:00 AM 24.69 76.442 0.324 7.62 1.26 5.93
8/27/2023 12:30:00 AM 24.6 76.28 0.325 7.56 1.21 5.87
8/27/2023 12:45:00 AM 24.52 76.136 0.325 7.51 1.24 5.8
8/27/2023 1:00:00 AM 24.41 75.938 0.326 7.47 1.29 5.73
8/27/2023 1:15:00 AM 24.32 75.776 0.326 7.44 1.22 5.69
8/27/2023 1:30:00 AM 24.22 75.596 0.326 7.41 1.3 5.65
8/27/2023 1:45:00 AM 24.12 75.416 0.326 7.39 1.06 5.61
8/27/2023 2:00:00 AM 24.01 75.218 0.327 7.37 1.12 5.58
8/27/2023 2:15:00 AM 23.91 75.038 0.327 7.35 2.05 5.54
8/27/2023 2:30:00 AM 23.81 74.858 0.327 7.34 2.79 5.52
8/27/2023 2:45:00 AM 23.71 74.67799 0.327 7.33 1.74 5.51
8/27/2023 3:00:00 AM 23.6 74.48 0.327 7.31 1.99 5.5
8/27/2023 3:15:00 AM 23.48 74.264 0.327 7.3 1.29 5.5
8/27/2023 3:30:00 AM 23.38 74.084 0.328 7.29 1.21 5.48
8/27/2023 3:45:00 AM 23.26 73.868 0.328 7.29 1.25 5.5
8/27/2023 4:00:00 AM 23.15 73.67 0.328 7.28 1.2 5.51
8/27/2023 4:15:00 AM 23.05 73.49 0.328 7.28 1.04 5.5
8/27/2023 4:30:00 AM 22.95 73.31 0.328 7.27 1.34 5.51
8/27/2023 4:45:00 AM 22.84 73.112 0.328 7.27 1.36 5.53
8/27/2023 5:00:00 AM 22.73 72.914 0.328 7.27 1.26 5.55
8/27/2023 5:15:00 AM 22.63 72.734 0.328 7.26 1.16 5.57
8/27/2023 5:30:00 AM 22.53 72.554 0.328 7.26 1.36 5.59
8/27/2023 5:45:00 AM 22.42 72.356 0.328 7.26 1.5 5.6
8/27/2023 6:00:00 AM 22.32 72.176 0.327 7.25 1.57 5.62
8/27/2023 6:15:00 AM 22.22 71.996 0.327 7.25 1.68 5.62
8/27/2023 6:30:00 AM 22.12 71.816 0.327 7.25 1.35 5.68
8/27/2023 6:45:00 AM 22.03 71.654 0.327 7.25 1.05 5.75
8/27/2023 7:00:00 AM 21.95 71.51 0.326 7.26 1.03 5.87
8/27/2023 7:15:00 AM 21.88 71.384 0.325 7.28 1.25 6.05
8/27/2023 7:30:00 AM 21.83 71.294 0.325 7.3 0.9 6.3
8/27/2023 7:45:00 AM 21.77 71.186 0.325 7.32 0.92 6.51
8/27/2023 8:00:00 AM 21.75 71.15 0.325 7.35 0.9 6.79
8/27/2023 8:15:00 AM 21.73 71.114 0.325 7.38 0.75 7.04
8/27/2023 8:30:00 AM 21.75 71.15 0.324 7.43 0.73 7.41
8/27/2023 8:45:00 AM 21.78 71.204 0.324 7.48 0.76 7.74
8/27/2023 9:00:00 AM 21.85 71.33 0.324 7.55 0.73 8.13
8/27/2023 9:15:00 AM 21.95 71.51 0.323 7.64 0.64 8.57
8/27/2023 9:30:00 AM 22.08 71.744 0.323 7.75 0.72 9.04
8/27/2023 9:45:00 AM 22.25 72.05 0.322 7.89 0.6 9.54
8/27/2023 10:00:00 AM 22.45 72.41 0.322 8.05 4.12 10.02
8/27/2023 10:15:00 AM 22.7 72.86 0.322 8.25 0.87 10.51
8/27/2023 10:30:00 AM 22.99 73.382 0.321 8.42 1.48 11
8/27/2023 10:45:00 AM 23.24 73.832 0.32 8.57 0.89 11.44
8/27/2023 11:00:00 AM 23.52 74.336 0.32 8.68 4.29 11.79
8/27/2023 11:15:00 AM 23.81 74.858 0.319 8.78 0.88 12.11
8/27/2023 11:30:00 AM 24.1 75.38 0.318 8.85 0.73 12.36
8/27/2023 11:45:00 AM 24.41 75.938 0.318 8.92 0.73 12.61
8/27/2023 12:00:00 PM 24.72 76.496 0.317 8.98 0.76 12.81
8/27/2023 12:15:00 PM 25.05 77.09 0.316 9.03 0.83 12.95
8/27/2023 12:30:00 PM 25.36 77.648 0.316 9.08 0.8 13.13
8/27/2023 12:45:00 PM 25.64 78.152 0.315 9.11 0.73 13.26
8/27/2023 1:00:00 PM 25.91 78.638 0.315 9.16 0.75 13.39
8/27/2023 1:15:00 PM 26.12 79.016 0.314 9.19 1.82 13.4
8/27/2023 1:30:00 PM 26.21 79.17799 0.314 9.2 1.02 13.32
8/27/2023 1:45:00 PM 26.43 79.574 0.314 9.23 1.13 13.41
8/27/2023 2:00:00 PM 26.31 79.358 0.314 9.23 0.89 13.1
8/27/2023 2:15:00 PM 26.55 79.79 0.313 9.26 1.07 13.24
8/27/2023 2:30:00 PM 26.45 79.61 0.313 9.25 0.92 12.96
8/27/2023 2:45:00 PM 26.27 79.286 0.313 9.25 0.92 12.67
8/27/2023 3:00:00 PM 26.41 79.538 0.313 9.27 0.97 12.78
8/27/2023 3:15:00 PM 26.62 79.916 0.313 9.27 1.04 12.78
8/27/2023 3:30:00 PM 26.63 79.934 0.313 9.27 0.93 12.66
8/27/2023 3:45:00 PM 26.68 80.024 0.313 9.29 1.3 12.66
8/27/2023 4:00:00 PM 26.73 80.114 0.313 9.29 1.05 12.67
8/27/2023 4:15:00 PM 26.72 80.096 0.312 9.3 1.16 12.65
8/27/2023 4:30:00 PM 26.7 80.06 0.312 9.3 1.19 12.56
8/27/2023 4:45:00 PM 26.55 79.79 0.312 9.29 1.14 12.37
8/27/2023 5:00:00 PM 26.42 79.556 0.312 9.29 1.43 12.2
8/27/2023 5:15:00 PM 26.28 79.304 0.312 9.28 1.17 11.95
8/27/2023 5:30:00 PM 26.22 79.196 0.312 9.28 1.15 11.87
8/27/2023 5:45:00 PM 26.1 78.98 0.312 9.27 1.16 11.63
8/27/2023 6:00:00 PM 25.96 78.728 0.311 9.26 1.2 11.38
8/27/2023 6:15:00 PM 25.82 78.476 0.312 9.24 1.17 11.06
8/27/2023 6:30:00 PM 25.72 78.296 0.312 9.22 1.05 10.78
8/27/2023 6:45:00 PM 25.62 78.116 0.312 9.18 1.25 10.41
8/27/2023 7:00:00 PM 25.53 77.954 0.312 9.13 1.29 10.01
8/27/2023 7:15:00 PM 25.45 77.81 0.312 9.09 1.12 9.64
8/27/2023 7:30:00 PM 25.38 77.684 0.313 9.04 1.25 9.25
8/27/2023 7:45:00 PM 25.33 77.594 0.313 8.99 1.09 8.9
8/27/2023 8:00:00 PM 25.29 77.522 0.313 8.94 1.3 8.59
8/27/2023 8:15:00 PM 25.26 77.468 0.314 8.89 1.32 8.3
8/27/2023 8:30:00 PM 25.25 77.45 0.314 8.84 1.28 8.05
8/27/2023 8:45:00 PM 25.23 77.414 0.315 8.78 1.57 7.82
8/27/2023 9:00:00 PM 25.23 77.414 0.315 8.72 1.53 7.62
8/27/2023 9:15:00 PM 25.21 77.378 0.315 8.66 1.55 7.44
8/27/2023 9:30:00 PM 25.19 77.342 0.316 8.59 1.74 7.26
8/27/2023 9:45:00 PM 25.18 77.324 0.316 8.5 1.4 7.08
8/27/2023 10:00:00 PM 25.16 77.288 0.317 8.41 1.51 6.91
8/27/2023 10:15:00 PM 25.14 77.252 0.318 8.3 1.34 6.75
8/27/2023 10:30:00 PM 25.12 77.216 0.318 8.19 1.39 6.6
8/27/2023 10:45:00 PM 25.11 77.198 0.319 8.08 1.57 6.47
8/27/2023 11:00:00 PM 25.11 77.198 0.319 7.98 1.38 6.34
8/27/2023 11:15:00 PM 25.1 77.18 0.32 7.87 1.49 6.22
8/27/2023 11:30:00 PM 25.09 77.162 0.32 7.79 1.52 6.11
8/27/2023 11:45:00 PM 25.08 77.144 0.321 7.72 1.67 6.01
8/28/2023 12:00:00 AM 25.07 77.126 0.321 7.65 1.27 5.92
8/28/2023 12:15:00 AM 25.05 77.09 0.321 7.6 1.36 5.83
8/28/2023 12:30:00 AM 25.02 77.036 0.322 7.55 1.54 5.76
8/28/2023 12:45:00 AM 24.99 76.982 0.322 7.51 1.51 5.69
8/28/2023 1:00:00 AM 24.95 76.91 0.322 7.48 1.37 5.63
8/28/2023 1:15:00 AM 24.91 76.838 0.323 7.45 1.85 5.57
8/28/2023 1:30:00 AM 24.87 76.766 0.323 7.42 1.29 5.53
8/28/2023 1:45:00 AM 24.82 76.676 0.324 7.4 1.47 5.49
8/28/2023 2:00:00 AM 24.77 76.586 0.324 7.38 1.28 5.46
8/28/2023 2:15:00 AM 24.71 76.478 0.324 7.37 1.28 5.43
8/28/2023 2:30:00 AM 24.65 76.37 0.324 7.35 1.25 5.41
8/28/2023 2:45:00 AM 24.57 76.226 0.325 7.34 1.46 5.39
8/28/2023 3:00:00 AM 24.48 76.064 0.325 7.33 1.3 5.38
8/28/2023 3:15:00 AM 24.39 75.902 0.325 7.32 1.41 5.37
8/28/2023 3:30:00 AM 24.28 75.704 0.325 7.31 2.04 5.38
8/28/2023 3:45:00 AM 24.19 75.542 0.325 7.3 1.64 5.38
8/28/2023 4:00:00 AM 24.08 75.344 0.325 7.29 1.44 5.39
8/28/2023 4:15:00 AM 23.97 75.146 0.326 7.29 1.46 5.39
8/28/2023 4:30:00 AM 23.86 74.948 0.326 7.28 1.57 5.39
8/28/2023 4:45:00 AM 23.75 74.75 0.326 7.27 1.2 5.42
8/28/2023 5:00:00 AM 23.63 74.534 0.326 7.27 1.13 5.42
8/28/2023 5:15:00 AM 23.53 74.354 0.326 7.27 1.25 5.42
8/28/2023 5:30:00 AM 23.41 74.138 0.326 7.26 1.29 5.45
8/28/2023 5:45:00 AM 23.29 73.922 0.326 7.26 1.65 5.47
8/28/2023 6:00:00 AM 23.18 73.724 0.326 7.25 1.27 5.48
8/28/2023 6:15:00 AM 23.08 73.544 0.326 7.25 1.53 5.5
8/28/2023 6:30:00 AM 22.97 73.346 0.326 7.25 1.46 5.52
8/28/2023 6:45:00 AM 22.88 73.184 0.326 7.25 1.27 5.57
8/28/2023 7:00:00 AM 22.81 73.058 0.326 7.26 1.26 5.65
8/28/2023 7:15:00 AM 22.75 72.95 0.325 7.27 1.09 5.81
8/28/2023 7:30:00 AM 22.7 72.86 0.325 7.28 1.19 5.98
8/28/2023 7:45:00 AM 22.66 72.788 0.325 7.31 0.99 6.21
8/28/2023 8:00:00 AM 22.63 72.734 0.325 7.34 0.92 6.47
8/28/2023 8:15:00 AM 22.62 72.716 0.325 7.38 0.91 6.79
8/28/2023 8:30:00 AM 22.61 72.698 0.325 7.41 1.04 7.08
8/28/2023 8:45:00 AM 22.62 72.716 0.325 7.46 0.97 7.42
8/28/2023 9:00:00 AM 22.64 72.752 0.325 7.51 0.94 7.7
8/28/2023 9:15:00 AM 22.65 72.77 0.324 7.56 0.98 7.98
8/28/2023 9:30:00 AM 22.68 72.824 0.324 7.63 0.81 8.32
8/28/2023 9:45:00 AM 22.74 72.932 0.324 7.71 0.89 8.7
8/28/2023 10:00:00 AM 22.81 73.058 0.324 7.81 0.89 9.11
8/28/2023 10:15:00 AM 22.91 73.238 0.323 7.94 0.86 9.53
8/28/2023 10:30:00 AM 23.03 73.454 0.323 8.1 0.77 9.99
8/28/2023 10:45:00 AM 23.19 73.742 0.322 8.27 0.73 10.48
8/28/2023 11:00:00 AM 23.38 74.084 0.321 8.43 0.86 10.96
8/28/2023 11:15:00 AM 23.53 74.354 0.321 8.56 0.7 11.36
8/28/2023 11:30:00 AM 23.72 74.696 0.32 8.67 0.8 11.74
8/28/2023 11:45:00 AM 23.83 74.894 0.319 8.74 0.83 11.96
8/28/2023 12:00:00 PM 24.01 75.218 0.318 8.83 0.91 12.31
8/28/2023 12:15:00 PM 24.13 75.434 0.318 8.89 0.92 12.5
8/28/2023 12:30:00 PM 24.24 75.632 0.317 8.95 0.95 12.67
8/28/2023 12:45:00 PM 24.37 75.866 0.316 9 0.87 12.82
8/28/2023 1:00:00 PM 24.46 76.028 0.316 9.04 0.89 12.95
8/28/2023 1:15:00 PM 24.48 76.064 0.315 9.08 0.88 12.93
8/28/2023 1:30:00 PM 24.49 76.082 0.315 9.1 0.9 12.92
8/28/2023 1:45:00 PM 24.54 76.172 0.314 9.14 0.85 12.97
8/28/2023 2:00:00 PM 24.52 76.136 0.314 9.15 0.82 12.87
8/28/2023 2:15:00 PM 24.58 76.244 0.313 9.18 0.79 12.89
8/28/2023 2:30:00 PM 24.62 76.316 0.313 9.19 0.85 12.85
8/28/2023 2:45:00 PM 24.7 76.46 0.313 9.22 0.86 12.88
8/28/2023 3:00:00 PM 24.72 76.496 0.312 9.23 0.98 12.76
8/28/2023 3:15:00 PM 24.75 76.55 0.312 9.24 2.7 12.7
8/28/2023 3:30:00 PM 24.81 76.658 0.312 9.26 1.33 12.74
8/28/2023 3:45:00 PM 24.84 76.712 0.311 9.28 1.69 12.72
8/28/2023 4:00:00 PM 24.85 76.73 0.311 9.29 1.6 12.68
8/28/2023 4:15:00 PM 24.89 76.802 0.311 9.31 1.07 12.66
8/28/2023 4:30:00 PM 24.88 76.784 0.311 9.31 1.36 12.55
8/28/2023 4:45:00 PM 24.85 76.73 0.31 9.32 1 12.42
8/28/2023 5:00:00 PM 24.79 76.622 0.31 9.32 0.89 12.21
8/28/2023 5:15:00 PM 24.74 76.532 0.31 9.31 0.88 12
8/28/2023 5:30:00 PM 24.69 76.442 0.31 9.3 0.81 11.79
8/28/2023 5:45:00 PM 24.65 76.37 0.309 9.29 0.94 11.58
8/28/2023 6:00:00 PM 24.63 76.334 0.309 9.29 0.94 11.43
8/28/2023 6:15:00 PM 24.58 76.244 0.309 9.27 0.83 11.2
8/28/2023 6:30:00 PM 24.55 76.19 0.309 9.25 0.93 10.93
8/28/2023 6:45:00 PM 24.5 76.1 0.309 9.22 1.44 10.6
8/28/2023 7:00:00 PM 24.46 76.028 0.31 9.19 0.96 10.24
8/28/2023 7:15:00 PM 24.4 75.92 0.31 9.14 1.03 9.88
8/28/2023 7:30:00 PM 24.34 75.812 0.31 9.1 1.04 9.52
8/28/2023 7:45:00 PM 24.3 75.74 0.311 9.04 0.94 9.19
8/28/2023 8:00:00 PM 24.25 75.65 0.311 8.98 1.31 8.87
8/28/2023 8:15:00 PM 24.19 75.542 0.313 8.93 1.16 8.6
8/28/2023 8:30:00 PM 24.13 75.434 0.313 8.87 1.47 8.36
8/28/2023 8:45:00 PM 24.08 75.344 0.314 8.8 1.22 8.14
8/28/2023 9:00:00 PM 24.03 75.254 0.315 8.72 1.38 7.93
8/28/2023 9:15:00 PM 23.98 75.164 0.315 8.63 1.44 7.73
8/28/2023 9:30:00 PM 23.93 75.074 0.316 8.52 1.73 7.53
8/28/2023 9:45:00 PM 23.9 75.02 0.317 8.42 1.66 7.35
8/28/2023 10:00:00 PM 23.86 74.948 0.317 8.3 1.4 7.2
8/28/2023 10:15:00 PM 23.83 74.894 0.318 8.18 1.35 7.06
8/28/2023 10:30:00 PM 23.79 74.82201 0.318 8.07 1.5 6.94
8/28/2023 10:45:00 PM 23.75 74.75 0.319 7.96 1.41 6.83
8/28/2023 11:00:00 PM 23.72 74.696 0.319 7.87 1.25 6.72
8/28/2023 11:15:00 PM 23.68 74.624 0.319 7.79 1.26 6.63
8/28/2023 11:30:00 PM 23.63 74.534 0.32 7.72 1.19 6.54
8/28/2023 11:45:00 PM 23.59 74.462 0.32 7.67 1.22 6.46
8/29/2023 12:00:00 AM 23.54 74.372 0.321 7.62 1.29 6.38
8/29/2023 12:15:00 AM 23.48 74.264 0.321 7.58 1.35 6.32
8/29/2023 12:30:00 AM 23.43 74.174 0.322 7.55 1.42 6.26
8/29/2023 12:45:00 AM 23.37 74.066 0.322 7.51 1.69 6.21
8/29/2023 1:00:00 AM 23.31 73.958 0.323 7.49 1.2 6.16
8/29/2023 1:15:00 AM 23.26 73.868 0.323 7.46 1.14 6.12
8/29/2023 1:30:00 AM 23.23 73.814 0.323 7.44 1.37 6.08
8/29/2023 1:45:00 AM 23.18 73.724 0.324 7.43 1.5 6.03
8/29/2023 2:00:00 AM 23.14 73.652 0.324 7.41 1.98 6
8/29/2023 2:15:00 AM 23.1 73.58 0.324 7.4 1.71 5.98
8/29/2023 2:30:00 AM 23.05 73.49 0.325 7.39 1.41 5.96
8/29/2023 2:45:00 AM 23.01 73.418 0.325 7.38 1.48 5.94
8/29/2023 3:00:00 AM 22.96 73.328 0.325 7.37 3.5 5.91
8/29/2023 3:15:00 AM 22.92 73.256 0.325 7.36 1.6 5.9
8/29/2023 3:30:00 AM 22.88 73.184 0.326 7.35 1.35 5.88
8/29/2023 3:45:00 AM 22.83 73.094 0.326 7.34 1.4 5.87
8/29/2023 4:00:00 AM 22.79 73.022 0.326 7.34 1.46 5.86
8/29/2023 4:15:00 AM 22.74 72.932 0.326 7.33 1.36 5.85
8/29/2023 4:30:00 AM 22.7 72.86 0.326 7.33 1.36 5.84
8/29/2023 4:45:00 AM 22.65 72.77 0.326 7.32 1.33 5.84
8/29/2023 5:00:00 AM 22.6 72.68 0.327 7.32 1.44 5.83
8/29/2023 5:15:00 AM 22.55 72.59 0.327 7.32 1.31 5.84
8/29/2023 5:30:00 AM 22.51 72.518 0.327 7.31 1.32 5.84
8/29/2023 5:45:00 AM 22.47 72.446 0.327 7.31 1.5 5.84
8/29/2023 6:00:00 AM 22.43 72.374 0.327 7.31 1.42 5.84
8/29/2023 6:15:00 AM 22.38 72.284 0.327 7.3 1.39 5.84
8/29/2023 6:30:00 AM 22.32 72.176 0.327 7.3 1.26 5.84
8/29/2023 6:45:00 AM 22.27 72.086 0.327 7.3 1.25 5.88
8/29/2023 7:00:00 AM 22.24 72.032 0.327 7.31 1.24 5.98
8/29/2023 7:15:00 AM 22.22 71.996 0.327 7.32 1.09 6.1
8/29/2023 7:30:00 AM 22.2 71.96 0.327 7.33 1.01 6.23
8/29/2023 7:45:00 AM 22.19 71.942 0.327 7.34 0.99 6.36
8/29/2023 8:00:00 AM 22.18 71.924 0.327 7.36 1.03 6.53
8/29/2023 8:15:00 AM 22.18 71.924 0.327 7.38 1.01 6.69
8/29/2023 8:30:00 AM 22.17 71.906 0.327 7.4 1.06 6.9
8/29/2023 8:45:00 AM 22.18 71.924 0.327 7.44 0.9 7.2
8/29/2023 9:00:00 AM 22.2 71.96 0.327 7.49 0.87 7.49
8/29/2023 9:15:00 AM 22.24 72.032 0.326 7.55 0.9 7.89
8/29/2023 9:30:00 AM 22.32 72.176 0.326 7.65 0.84 8.37
8/29/2023 9:45:00 AM 22.43 72.374 0.326 7.76 0.82 8.87
8/29/2023 10:00:00 AM 22.56 72.608 0.325 7.92 0.83 9.41
8/29/2023 10:15:00 AM 22.66 72.788 0.325 8.07 0.85 9.85
8/29/2023 10:30:00 AM 22.79 73.022 0.324 8.24 0.75 10.33
8/29/2023 10:45:00 AM 22.89 73.202 0.323 8.38 0.78 10.7
8/29/2023 11:00:00 AM 22.98 73.364 0.322 8.49 0.77 11
8/29/2023 11:15:00 AM 23.03 73.454 0.322 8.56 0.79 11.19
8/29/2023 11:30:00 AM 23.1 73.58 0.321 8.63 0.8 11.38
8/29/2023 11:45:00 AM 23.16 73.688 0.32 8.68 0.8 11.49
8/29/2023 12:00:00 PM 23.28 73.904 0.32 8.75 0.88 11.73
8/29/2023 12:15:00 PM 23.36 74.048 0.319 8.8 0.92 11.83
8/29/2023 12:30:00 PM 23.52 74.336 0.318 8.86 1.02 12.08
8/29/2023 12:45:00 PM 23.6 74.48 0.318 8.91 0.79 12.18
8/29/2023 1:00:00 PM 23.75 74.75 0.317 8.96 0.82 12.39
8/29/2023 1:15:00 PM 23.82 74.876 0.316 9 0.91 12.44
8/29/2023 1:30:00 PM 23.87 74.966 0.316 9.02 0.82 12.42
8/29/2023 1:45:00 PM 24.05 75.29 0.315 9.07 0.81 12.64
8/29/2023 2:00:00 PM 24.13 75.434 0.315 9.09 1.01 12.62
8/29/2023 2:15:00 PM 24.17 75.506 0.314 9.12 0.84 12.65
8/29/2023 2:30:00 PM 24.17 75.506 0.314 9.13 0.89 12.51
8/29/2023 2:45:00 PM 24.33 75.794 0.313 9.16 0.87 12.6
8/29/2023 3:00:00 PM 24.25 75.65 0.313 9.14 0.82 12.19
8/29/2023 3:15:00 PM 24.19 75.542 0.313 9.13 0.85 11.88
8/29/2023 3:30:00 PM 24.14 75.452 0.313 9.11 0.89 11.55
8/29/2023 3:45:00 PM 24.09 75.362 0.314 9.08 0.86 11.21
8/29/2023 4:00:00 PM 24.04 75.272 0.314 9.04 1.05 10.83
8/29/2023 4:15:00 PM 24.03 75.254 0.313 9.02 1.07 10.63
8/29/2023 4:30:00 PM 24.05 75.29 0.314 9.02 1.09 10.58
8/29/2023 4:45:00 PM 24.08 75.344 0.314 9.02 0.94 10.55
8/29/2023 5:00:00 PM 24.09 75.362 0.314 9 1 10.42
8/29/2023 5:15:00 PM 24.11 75.398 0.314 9 0.93 10.38
8/29/2023 5:30:00 PM 24.1 75.38 0.314 8.97 0.94 10.17
8/29/2023 5:45:00 PM 24.07 75.326 0.315 8.92 0.86 9.92
8/29/2023 6:00:00 PM 24.04 75.272 0.315 8.88 1.37 9.75
8/29/2023 6:15:00 PM 24.01 75.218 0.315 8.84 0.98 9.58
8/29/2023 6:30:00 PM 23.98 75.164 0.316 8.79 0.94 9.4
8/29/2023 6:45:00 PM 23.94 75.092 0.316 8.74 0.96 9.2
8/29/2023 7:00:00 PM 23.91 75.038 0.316 8.7 0.86 9.03
8/29/2023 7:15:00 PM 23.87 74.966 0.317 8.64 0.91 8.82
8/29/2023 7:30:00 PM 23.83 74.894 0.317 8.56 0.95 8.59
8/29/2023 7:45:00 PM 23.78 74.804 0.318 8.47 0.95 8.34
8/29/2023 8:00:00 PM 23.74 74.732 0.318 8.37 1.03 8.1
8/29/2023 8:15:00 PM 23.7 74.66 0.319 8.25 1.12 7.88
8/29/2023 8:30:00 PM 23.66 74.588 0.319 8.12 1.07 7.69
8/29/2023 8:45:00 PM 23.63 74.534 0.32 8.02 1.14 7.52
8/29/2023 9:00:00 PM 23.6 74.48 0.32 7.92 1.13 7.37
8/29/2023 9:15:00 PM 23.58 74.444 0.32 7.83 1.03 7.24
8/29/2023 9:30:00 PM 23.55 74.39 0.32 7.77 1.17 7.11
8/29/2023 9:45:00 PM 23.53 74.354 0.321 7.71 1.04 6.98
8/29/2023 10:00:00 PM 23.51 74.318 0.321 7.66 1.19 6.87
8/29/2023 10:15:00 PM 23.49 74.282 0.321 7.61 1.18 6.76
8/29/2023 10:30:00 PM 23.46 74.228 0.322 7.57 1.15 6.65
8/29/2023 10:45:00 PM 23.44 74.192 0.322 7.53 1.33 6.56
8/29/2023 11:00:00 PM 23.41 74.138 0.322 7.5 1.27 6.48
8/29/2023 11:15:00 PM 23.38 74.084 0.322 7.47 1.28 6.4
8/29/2023 11:30:00 PM 23.36 74.048 0.323 7.45 1.27 6.33
8/29/2023 11:45:00 PM 23.33 73.994 0.323 7.42 1.54 6.27
8/30/2023 12:00:00 AM 23.3 73.94 0.323 7.41 2.03 6.22
8/30/2023 12:15:00 AM 23.27 73.886 0.323 7.39 1.23 6.18
8/30/2023 12:30:00 AM 23.25 73.85 0.323 7.38 1.32 6.13
8/30/2023 12:45:00 AM 23.23 73.814 0.324 7.37 1.04 6.1
8/30/2023 1:00:00 AM 23.21 73.778 0.324 7.36 1.03 6.07
8/30/2023 1:15:00 AM 23.2 73.76 0.324 7.35 1.19 6.04
8/30/2023 1:30:00 AM 23.18 73.724 0.324 7.35 1.16 6.01
8/30/2023 1:45:00 AM 23.16 73.688 0.324 7.34 1.22 5.99
8/30/2023 2:00:00 AM 23.14 73.652 0.325 7.34 1.11 5.96
8/30/2023 2:15:00 AM 23.12 73.616 0.325 7.33 4.1 5.93
8/30/2023 2:30:00 AM 23.09 73.562 0.325 7.33 1.33 5.93
8/30/2023 2:45:00 AM 23.07 73.526 0.326 7.33 1.36 5.91
8/30/2023 3:00:00 AM 23.04 73.472 0.326 7.32 1.36 5.89
8/30/2023 3:15:00 AM 23.01 73.418 0.326 7.32 1.25 5.88
8/30/2023 3:30:00 AM 22.99 73.382 0.326 7.32 1.57 5.87
8/30/2023 3:45:00 AM 22.96 73.328 0.326 7.31 1.85 5.86
8/30/2023 4:00:00 AM 22.94 73.292 0.327 7.31 1.62 5.84
8/30/2023 4:15:00 AM 22.91 73.238 0.327 7.31 1.54 5.83
8/30/2023 4:30:00 AM 22.88 73.184 0.327 7.3 1.38 5.82
8/30/2023 4:45:00 AM 22.86 73.148 0.327 7.3 1.54 5.81
8/30/2023 5:00:00 AM 22.84 73.112 0.327 7.3 2.91 5.8
8/30/2023 5:15:00 AM 22.81 73.058 0.327 7.3 1.46 5.8
8/30/2023 5:30:00 AM 22.79 73.022 0.327 7.29 2.79 5.8
8/30/2023 5:45:00 AM 22.77 72.986 0.327 7.29 1.63 5.8
8/30/2023 6:00:00 AM 22.74 72.932 0.326 7.29 1.65 5.83
8/30/2023 6:15:00 AM 22.72 72.896 0.327 7.29 1.38 5.79
8/30/2023 6:30:00 AM 22.7 72.86 0.327 7.28 1.29 5.79
8/30/2023 6:45:00 AM 22.68 72.824 0.327 7.28 1.25 5.79
8/30/2023 7:00:00 AM 22.66 72.788 0.323 7.29 1.32 5.94
8/30/2023 7:15:00 AM 22.63 72.734 0.323 7.29 1.38 5.94
8/30/2023 7:30:00 AM 22.59 72.662 0.322 7.29 1.8 5.93
8/30/2023 7:45:00 AM 22.56 72.608 0.322 7.29 1.49 5.95
8/30/2023 8:00:00 AM 22.57 72.626 0.322 7.31 1.4 6.24
8/30/2023 8:15:00 AM 22.56 72.608 0.322 7.32 1.32 6.33
8/30/2023 8:30:00 AM 22.58 72.644 0.321 7.36 1.1 6.67
8/30/2023 8:45:00 AM 22.62 72.716 0.32 7.42 1.08 7.08
8/30/2023 9:00:00 AM 22.64 72.752 0.319 7.46 1.03 7.39
8/30/2023 9:15:00 AM 22.7 72.86 0.319 7.54 0.86 7.84
8/30/2023 9:30:00 AM 22.74 72.932 0.319 7.62 0.91 8.27
8/30/2023 9:45:00 AM 22.88 73.184 0.319 7.76 0.84 8.85
8/30/2023 10:00:00 AM 22.98 73.364 0.318 7.91 0.96 9.35
8/30/2023 10:15:00 AM 23.2 73.76 0.318 8.1 0.92 9.93
8/30/2023 10:30:00 AM 23.32 73.976 0.318 8.27 0.87 10.37
8/30/2023 10:45:00 AM 23.52 74.336 0.318 8.43 0.85 10.82
8/30/2023 11:00:00 AM 23.62 74.516 0.317 8.55 0.9 11.14
8/30/2023 11:15:00 AM 23.78 74.804 0.316 8.64 0.88 11.43
8/30/2023 11:30:00 AM 24.01 75.218 0.316 8.74 0.86 11.75
8/30/2023 11:45:00 AM 24.28 75.704 0.315 8.82 0.84 12.01
8/30/2023 12:00:00 PM 24.53 76.154 0.314 8.88 0.92 12.25
8/30/2023 12:15:00 PM 24.65 76.37 0.314 8.93 0.92 12.36
8/30/2023 12:30:00 PM 24.83 76.694 0.313 8.99 0.9 12.57
8/30/2023 12:45:00 PM 25.15 77.27 0.312 9.04 0.91 12.76
8/30/2023 1:00:00 PM 25.31 77.558 0.311 9.08 0.88 12.8
8/30/2023 1:15:00 PM 25.46 77.828 0.31 9.11 0.9 12.87
8/30/2023 1:30:00 PM 25.59 78.062 0.31 9.14 1.01 12.92
8/30/2023 1:45:00 PM 25.67 78.206 0.309 9.17 0.98 12.92
8/30/2023 2:00:00 PM 25.8 78.44 0.309 9.2 1.04 12.99
8/30/2023 2:15:00 PM 25.8 78.44 0.308 9.22 0.98 12.9
8/30/2023 2:30:00 PM 25.78 78.404 0.308 9.24 1.06 12.84
8/30/2023 2:45:00 PM 25.9 78.62 0.308 9.26 1.14 12.85
8/30/2023 3:00:00 PM 25.99 78.782 0.308 9.27 1.09 12.82
8/30/2023 3:15:00 PM 26.05 78.89 0.308 9.29 1.67 12.81
8/30/2023 3:30:00 PM 26.02 78.836 0.307 9.3 1.28 12.78
8/30/2023 3:45:00 PM 25.99 78.782 0.307 9.32 1.09 12.72
8/30/2023 4:00:00 PM 25.92 78.656 0.307 9.32 1.04 12.6
8/30/2023 4:15:00 PM 25.89 78.602 0.307 9.32 1.15 12.52
8/30/2023 4:30:00 PM 25.82 78.476 0.307 9.33 1.06 12.39
8/30/2023 4:45:00 PM 25.75 78.35 0.307 9.33 1.02 12.25
8/30/2023 5:00:00 PM 25.67 78.206 0.306 9.33 1.12 12.11
8/30/2023 5:15:00 PM 25.59 78.062 0.306 9.33 1.12 11.93
8/30/2023 5:30:00 PM 25.49 77.882 0.306 9.33 1.07 11.77
8/30/2023 5:45:00 PM 25.4 77.72 0.306 9.32 1.2 11.59
8/30/2023 6:00:00 PM 25.31 77.558 0.305 9.3 1.13 11.32
8/30/2023 6:15:00 PM 25.23 77.414 0.305 9.29 1.06 11.1
8/30/2023 6:30:00 PM 25.15 77.27 0.305 9.26 1.33 10.76
8/30/2023 6:45:00 PM 25.05 77.09 0.305 9.23 1.14 10.42
8/30/2023 7:00:00 PM 24.97 76.946 0.305 9.19 1.13 10.07
8/30/2023 7:15:00 PM 24.9 76.82 0.306 9.15 1.04 9.71
8/30/2023 7:30:00 PM 24.82 76.676 0.306 9.1 1.26 9.36
8/30/2023 7:45:00 PM 24.74 76.532 0.307 9.05 1.23 9.02
8/30/2023 8:00:00 PM 24.67 76.406 0.307 8.99 1.14 8.71
8/30/2023 8:15:00 PM 24.59 76.262 0.308 8.94 1.32 8.43
8/30/2023 8:30:00 PM 24.52 76.136 0.308 8.88 1.47 8.18
8/30/2023 8:45:00 PM 24.45 76.01 0.309 8.82 1.34 7.95
8/30/2023 9:00:00 PM 24.38 75.884 0.309 8.75 1.41 7.75
8/30/2023 9:15:00 PM 24.32 75.776 0.31 8.68 1.42 7.55
8/30/2023 9:30:00 PM 24.26 75.668 0.311 8.59 1.35 7.36
8/30/2023 9:45:00 PM 24.2 75.56 0.312 8.5 1.48 7.19
8/30/2023 10:00:00 PM 24.14 75.452 0.313 8.39 1.34 7.03
8/30/2023 10:15:00 PM 24.1 75.38 0.314 8.29 1.31 6.88
8/30/2023 10:30:00 PM 24.04 75.272 0.314 8.18 1.4 6.74
8/30/2023 10:45:00 PM 24 75.2 0.315 8.07 1.25 6.62
8/30/2023 11:00:00 PM 23.96 75.128 0.316 7.97 1.21 6.5
8/30/2023 11:15:00 PM 23.91 75.038 0.316 7.88 1.3 6.39
8/30/2023 11:30:00 PM 23.86 74.948 0.317 7.8 2.48 6.3
8/30/2023 11:45:00 PM 23.81 74.858 0.317 7.72 1.88 6.21
8/31/2023 12:00:00 AM 23.75 74.75 0.318 7.66 1.4 6.14
8/31/2023 12:15:00 AM 23.69 74.642 0.318 7.61 1.31 6.06
8/31/2023 12:30:00 AM 23.61 74.498 0.318 7.57 1.47 6
8/31/2023 12:45:00 AM 23.55 74.39 0.319 7.53 1.5 5.94
8/31/2023 1:00:00 AM 23.47 74.246 0.319 7.5 1.45 5.9
8/31/2023 1:15:00 AM 23.38 74.084 0.319 7.48 1.24 5.86
8/31/2023 1:30:00 AM 23.28 73.904 0.32 7.46 1.19 5.83
8/31/2023 1:45:00 AM 23.19 73.742 0.32 7.44 1.19 5.81
8/31/2023 2:00:00 AM 23.09 73.562 0.32 7.42 1.24 5.79
8/31/2023 2:15:00 AM 22.98 73.364 0.32 7.41 1.23 5.77
8/31/2023 2:30:00 AM 22.89 73.202 0.32 7.4 1.23 5.76
8/31/2023 2:45:00 AM 22.79 73.022 0.32 7.38 1.45 5.75
8/31/2023 3:00:00 AM 22.7 72.86 0.32 7.37 1.44 5.75
8/31/2023 3:15:00 AM 22.6 72.68 0.32 7.37 1.35 5.75
8/31/2023 3:30:00 AM 22.51 72.518 0.32 7.36 1.43 5.75
8/31/2023 3:45:00 AM 22.41 72.338 0.32 7.35 1.27 5.75
8/31/2023 4:00:00 AM 22.3 72.14 0.321 7.35 1.27 5.76
8/31/2023 4:15:00 AM 22.21 71.978 0.321 7.34 1.33 5.77
8/31/2023 4:30:00 AM 22.11 71.798 0.321 7.34 1.3 5.77
8/31/2023 4:45:00 AM 22.01 71.618 0.321 7.33 1.31 5.78
8/31/2023 5:00:00 AM 21.92 71.456 0.321 7.33 1.3 5.79
8/31/2023 5:15:00 AM 21.82 71.276 0.321 7.32 1.44 5.8
8/31/2023 5:30:00 AM 21.74 71.132 0.322 7.32 1.74 5.8
8/31/2023 5:45:00 AM 21.65 70.97 0.322 7.32 2.74 5.81
8/31/2023 6:00:00 AM 21.56 70.808 0.322 7.31 1.41 5.82
8/31/2023 6:15:00 AM 21.47 70.646 0.322 7.31 1.35 5.83
8/31/2023 6:30:00 AM 21.39 70.502 0.322 7.31 1.31 5.84
8/31/2023 6:45:00 AM 21.31 70.358 0.322 7.31 1.81 5.87
8/31/2023 7:00:00 AM 21.24 70.232 0.322 7.28 1.17 5.93
8/31/2023 7:15:00 AM 21.18 70.124 0.322 7.29 1.17 6.06
8/31/2023 7:30:00 AM 21.12 70.016 0.322 7.31 1.22 6.29
8/31/2023 7:45:00 AM 21.06 69.908 0.322 7.34 1.11 6.53
8/31/2023 8:00:00 AM 21.04 69.872 0.322 7.38 0.98 6.86
8/31/2023 8:15:00 AM 20.99 69.782 0.321 7.42 1.01 7.14
8/31/2023 8:30:00 AM 20.95 69.71 0.321 7.47 1.2 7.5
8/31/2023 8:45:00 AM 20.94 69.692 0.321 7.56 0.91 8.01
8/31/2023 9:00:00 AM 20.98 69.764 0.321 7.65 0.9 8.47
8/31/2023 9:15:00 AM 20.99 69.782 0.32 7.74 0.86 8.86
8/31/2023 9:30:00 AM 21.07 69.926 0.32 7.85 0.87 9.25
8/31/2023 9:45:00 AM 21.15 70.07 0.319 7.98 0.79 9.66
8/31/2023 10:00:00 AM 21.29 70.32201 0.319 8.14 1.17 10.09
8/31/2023 10:15:00 AM 21.49 70.682 0.318 8.3 1.1 10.56
8/31/2023 10:30:00 AM 21.71 71.078 0.317 8.46 0.82 11.03
8/31/2023 10:45:00 AM 21.95 71.51 0.316 8.6 0.91 11.43
8/31/2023 11:00:00 AM 22.21 71.978 0.315 8.71 0.94 11.79
8/31/2023 11:15:00 AM 22.47 72.446 0.314 8.8 0.85 12.1
8/31/2023 11:30:00 AM 22.74 72.932 0.314 8.88 0.83 12.35
8/31/2023 11:45:00 AM 23.02 73.436 0.313 8.95 0.99 12.62
8/31/2023 12:00:00 PM 23.3 73.94 0.312 9 0.97 12.82
8/31/2023 12:15:00 PM 23.57 74.426 0.311 9.06 1.02 13.01
8/31/2023 12:30:00 PM 23.8 74.84 0.311 9.11 1.17 13.18
8/31/2023 12:45:00 PM 24.03 75.254 0.31 9.15 1.05 13.31
8/31/2023 1:00:00 PM 24.23 75.614 0.31 9.19 0.96 13.43
8/31/2023 1:15:00 PM 24.43 75.974 0.309 9.23 0.91 13.47
8/31/2023 1:30:00 PM 24.63 76.334 0.309 9.26 1.02 13.56
8/31/2023 1:45:00 PM 24.8 76.64 0.309 9.28 1.02 13.54
8/31/2023 2:00:00 PM 24.96 76.92799 0.309 9.31 1.31 13.54
8/31/2023 2:15:00 PM 25.07 77.126 0.309 9.33 0.96 13.54
8/31/2023 2:30:00 PM 25.13 77.234 0.308 9.34 1.07 13.47
8/31/2023 2:45:00 PM 25.2 77.36 0.308 9.36 1.19 13.47
8/31/2023 3:00:00 PM 25.25 77.45 0.308 9.37 1.3 13.4
8/31/2023 3:15:00 PM 25.23 77.414 0.308 9.37 1.15 13.28
8/31/2023 3:30:00 PM 25.21 77.378 0.308 9.38 1.14 13.18
8/31/2023 3:45:00 PM 25.14 77.252 0.308 9.38 0.97 13.05
8/31/2023 4:00:00 PM 25.08 77.144 0.308 9.37 1.03 12.91
8/31/2023 4:15:00 PM 24.99 76.982 0.306 9.37 0.9 12.76
8/31/2023 4:30:00 PM 24.88 76.784 0.306 9.36 0.95 12.57
8/31/2023 4:45:00 PM 24.72 76.496 0.306 9.35 0.98 12.35
8/31/2023 5:00:00 PM 24.56 76.208 0.306 9.34 1.14 12.13
8/31/2023 5:15:00 PM 24.42 75.956 0.306 9.33 1.16 11.94
8/31/2023 5:30:00 PM 24.25 75.65 0.306 9.32 0.95 11.72
8/31/2023 5:45:00 PM 24.05 75.29 0.306 9.3 0.98 11.45
8/31/2023 6:00:00 PM 23.89 75.002 0.306 9.28 1.15 11.18
8/31/2023 6:15:00 PM 23.73 74.714 0.306 9.25 1.04 10.92
8/31/2023 6:30:00 PM 23.57 74.426 0.306 9.22 1.05 10.61
8/31/2023 6:45:00 PM 23.43 74.174 0.306 9.19 0.98 10.32
8/31/2023 7:00:00 PM 23.3 73.94 0.306 9.16 0.99 10.01
8/31/2023 7:15:00 PM 23.19 73.742 0.306 9.13 1.01 9.7
8/31/2023 7:30:00 PM 23.09 73.562 0.306 9.09 1.01 9.38
8/31/2023 7:45:00 PM 23 73.4 0.307 9.05 1.09 9.1
8/31/2023 8:00:00 PM 22.95 73.31 0.307 9.01 0.99 8.84
8/31/2023 8:15:00 PM 22.88 73.184 0.307 8.98 2.54 8.63
8/31/2023 8:30:00 PM 22.81 73.058 0.307 8.94 1.12 8.43
8/31/2023 8:45:00 PM 22.76 72.968 0.308 8.9 1.17 8.26
8/31/2023 9:00:00 PM 22.68 72.824 0.308 8.85 1.19 8.1
8/31/2023 9:15:00 PM 22.61 72.698 0.309 8.8 1.2 7.94
8/31/2023 9:30:00 PM 22.52 72.536 0.309 8.74 1.51 7.79
8/31/2023 9:45:00 PM 22.45 72.41 0.31 8.68 1.44 7.63
8/31/2023 10:00:00 PM 22.38 72.284 0.31 8.6 1.27 7.49
8/31/2023 10:15:00 PM 22.32 72.176 0.311 8.52 3.49 7.35
8/31/2023 10:30:00 PM 22.25 72.05 0.312 8.43 1.24 7.23
8/31/2023 10:45:00 PM 22.18 71.924 0.312 8.33 1.13 7.12
8/31/2023 11:00:00 PM 22.13 71.834 0.313 8.23 1.17 7.01
8/31/2023 11:15:00 PM 22.07 71.726 0.313 8.13 1.08 6.91
8/31/2023 11:30:00 PM 22.01 71.618 0.314 8.02 1.05 6.81
8/31/2023 11:45:00 PM 21.94 71.492 0.315 7.93 1.07 6.72
9/1/2023 12:00:00 AM 21.87 71.366 0.315 7.85 1.25 6.65
9/1/2023 12:15:00 AM 21.8 71.24 0.316 7.77 1.02 6.58
9/1/2023 12:30:00 AM 21.72 71.096 0.316 7.71 1.07 6.52
9/1/2023 12:45:00 AM 21.65 70.97 0.317 7.66 0.96 6.44
9/1/2023 1:00:00 AM 21.56 70.808 0.318 7.61 0.98 6.39
9/1/2023 1:15:00 AM 21.47 70.646 0.318 7.57 1.01 6.35
9/1/2023 1:30:00 AM 21.38 70.484 0.319 7.53 1.3 6.32
9/1/2023 1:45:00 AM 21.28 70.304 0.319 7.51 1.45 6.29
9/1/2023 2:00:00 AM 21.18 70.124 0.32 7.48 1.25 6.26
9/1/2023 2:15:00 AM 21.08 69.944 0.32 7.45 1.3 6.23
9/1/2023 2:30:00 AM 20.99 69.782 0.321 7.43 1.04 6.21
9/1/2023 2:45:00 AM 20.88 69.584 0.321 7.41 2.27 6.18
9/1/2023 3:00:00 AM 20.79 69.422 0.321 7.4 2.97 6.18
9/1/2023 3:15:00 AM 20.68 69.224 0.322 7.39 1.15 6.18
9/1/2023 3:30:00 AM 20.57 69.026 0.322 7.35 1.1 6.18
9/1/2023 3:45:00 AM 20.46 68.828 0.322 7.34 1.2 6.18
9/1/2023 4:00:00 AM 20.35 68.63 0.323 7.33 1.1 6.18
9/1/2023 4:15:00 AM 20.24 68.432 0.323 7.31 1.19 6.18
9/1/2023 4:30:00 AM 20.13 68.234 0.323 7.3 1.39 6.19
9/1/2023 4:45:00 AM 20.01 68.018 0.323 7.29 1.25 6.22
9/1/2023 5:00:00 AM 19.89 67.802 0.323 7.28 1.4 6.24
9/1/2023 5:15:00 AM 19.76 67.568 0.324 7.27 1.21 6.27
9/1/2023 5:30:00 AM 19.65 67.37 0.324 7.27 1.24 6.28
9/1/2023 5:45:00 AM 19.52 67.136 0.324 7.26 1.17 6.3
9/1/2023 6:00:00 AM 19.39 66.902 0.324 7.25 1.15 6.31
9/1/2023 6:15:00 AM 19.27 66.686 0.324 7.24 1.24 6.33
9/1/2023 6:30:00 AM 19.15 66.47 0.324 7.24 1.18 6.37
9/1/2023 6:45:00 AM 19.03 66.254 0.324 7.24 1.01 6.45
9/1/2023 7:00:00 AM 18.92 66.056 0.325 7.24 1 6.53
9/1/2023 7:15:00 AM 18.82 65.876 0.325 7.25 0.96 6.65
9/1/2023 7:30:00 AM 18.73 65.714 0.325 7.27 0.9 6.8
9/1/2023 7:45:00 AM 18.66 65.588 0.325 7.29 0.96 6.98
9/1/2023 8:00:00 AM 18.6 65.48 0.325 7.31 1.62 7.19
9/1/2023 8:15:00 AM 18.57 65.426 0.324 7.35 0.81 7.43
9/1/2023 8:30:00 AM 18.57 65.426 0.324 7.4 0.79 7.74
9/1/2023 8:45:00 AM 18.61 65.498 0.324 7.46 0.89 8.09
9/1/2023 9:00:00 AM 18.68 65.624 0.324 7.53 0.79 8.49
9/1/2023 9:15:00 AM 18.78 65.804 0.324 7.62 0.75 8.93
9/1/2023 9:30:00 AM 18.92 66.056 0.324 7.73 0.75 9.41
9/1/2023 9:45:00 AM 19.09 66.362 0.324 7.87 0.74 9.92
9/1/2023 10:00:00 AM 19.3 66.74 0.323 8.03 0.66 10.41
9/1/2023 10:15:00 AM 19.56 67.208 0.323 8.22 0.68 10.9
9/1/2023 10:30:00 AM 19.85 67.73 0.322 8.4 0.7 11.37
9/1/2023 10:45:00 AM 20.14 68.252 0.321 8.56 0.8 11.79
9/1/2023 11:00:00 AM 20.44 68.792 0.321 8.68 0.77 12.17
9/1/2023 11:15:00 AM 20.72 69.296 0.32 8.78 0.7 12.52
9/1/2023 11:30:00 AM 21.04 69.872 0.32 8.86 0.74 12.8
9/1/2023 11:45:00 AM 21.34 70.412 0.319 8.94 0.71 13.06
9/1/2023 12:00:00 PM 21.67 71.006 0.319 9 0.87 13.29
9/1/2023 12:15:00 PM 21.97 71.546 0.318 9.06 0.72 13.51
9/1/2023 12:30:00 PM 22.27 72.086 0.318 9.1 0.77 13.67
9/1/2023 12:45:00 PM 22.55 72.59 0.317 9.15 0.75 13.78
9/1/2023 1:00:00 PM 22.83 73.094 0.317 9.19 0.74 13.9
9/1/2023 1:15:00 PM 23.07 73.526 0.316 9.23 0.76 13.97
9/1/2023 1:30:00 PM 23.29 73.922 0.316 9.26 0.85 14.03
9/1/2023 1:45:00 PM 23.5 74.3 0.316 9.29 0.8 14.06
9/1/2023 2:00:00 PM 23.69 74.642 0.316 9.31 0.84 14.05
9/1/2023 2:15:00 PM 23.85 74.93 0.316 9.34 1.05 14.04
9/1/2023 2:30:00 PM 23.99 75.182 0.316 9.36 0.81 14.03
9/1/2023 2:45:00 PM 24.1 75.38 0.316 9.37 0.82 13.99
9/1/2023 3:00:00 PM 24.19 75.542 0.315 9.38 0.73 13.94
9/1/2023 3:15:00 PM 24.22 75.596 0.315 9.39 0.99 13.83
9/1/2023 3:30:00 PM 24.26 75.668 0.315 9.4 1.1 13.74
9/1/2023 3:45:00 PM 24.25 75.65 0.315 9.4 0.95 13.6
9/1/2023 4:00:00 PM 24.2 75.56 0.315 9.4 0.94 13.47
9/1/2023 4:15:00 PM 24.11 75.398 0.315 9.39 1.1 13.28
9/1/2023 4:30:00 PM 24.02 75.236 0.314 9.39 0.93 13.13
9/1/2023 4:45:00 PM 23.9 75.02 0.313 9.38 0.84 12.93
9/1/2023 5:00:00 PM 23.75 74.75 0.313 9.37 0.98 12.73
9/1/2023 5:15:00 PM 23.58 74.444 0.313 9.36 1.04 12.49
9/1/2023 5:30:00 PM 23.4 74.12 0.313 9.35 0.95 12.26
9/1/2023 5:45:00 PM 23.22 73.796 0.313 9.33 0.97 11.98
9/1/2023 6:00:00 PM 23.04 73.472 0.313 9.31 0.91 11.71
9/1/2023 6:15:00 PM 22.87 73.166 0.313 9.28 0.9 11.43
9/1/2023 6:30:00 PM 22.7 72.86 0.313 9.25 1.58 11.14
9/1/2023 6:45:00 PM 22.54 72.57201 0.313 9.22 3.42 10.81
9/1/2023 7:00:00 PM 22.41 72.338 0.313 9.19 1.02 10.5
9/1/2023 7:15:00 PM 22.28 72.104 0.313 9.15 1.04 10.16
9/1/2023 7:30:00 PM 22.16 71.888 0.314 9.11 0.99 9.85
9/1/2023 7:45:00 PM 22.05 71.69 0.314 9.07 1.15 9.55
9/1/2023 8:00:00 PM 21.97 71.546 0.314 9.04 1.14 9.29
9/1/2023 8:15:00 PM 21.91 71.438 0.314 9 1.02 9.07
9/1/2023 8:30:00 PM 21.85 71.33 0.314 8.96 1.07 8.87
9/1/2023 8:45:00 PM 21.8 71.24 0.314 8.92 1.18 8.7
9/1/2023 9:00:00 PM 21.74 71.132 0.314 8.88 1.17 8.52
9/1/2023 9:15:00 PM 21.69 71.042 0.314 8.83 1.1 8.35
9/1/2023 9:30:00 PM 21.63 70.934 0.315 8.78 3.25 8.19
9/1/2023 9:45:00 PM 21.58 70.844 0.315 8.72 1.61 8.04
9/1/2023 10:00:00 PM 21.53 70.754 0.315 8.65 2.33 7.87
9/1/2023 10:15:00 PM 21.47 70.646 0.316 8.58 1.11 7.74
9/1/2023 10:30:00 PM 21.41 70.538 0.316 8.49 0.98 7.6
9/1/2023 10:45:00 PM 21.37 70.466 0.317 8.39 3.92 7.47
9/1/2023 11:00:00 PM 21.32 70.376 0.317 8.29 1.14 7.36
9/1/2023 11:15:00 PM 21.28 70.304 0.317 8.19 1.05 7.24
9/1/2023 11:30:00 PM 21.24 70.232 0.318 8.09 1.09 7.13
9/1/2023 11:45:00 PM 21.2 70.16 0.318 7.99 1.12 7.02
9/2/2023 12:00:00 AM 21.15 70.07 0.318 7.9 2.4 6.94
9/2/2023 12:15:00 AM 21.1 69.98 0.319 7.83 1.15 6.86
9/2/2023 12:30:00 AM 21.05 69.89 0.319 7.76 1.07 6.78
9/2/2023 12:45:00 AM 20.99 69.782 0.319 7.7 1.33 6.71
9/2/2023 1:00:00 AM 20.92 69.656 0.32 7.65 1.14 6.65
9/2/2023 1:15:00 AM 20.85 69.53 0.32 7.61 1.48 6.6
9/2/2023 1:30:00 AM 20.79 69.422 0.32 7.57 1.32 6.54
9/2/2023 1:45:00 AM 20.72 69.296 0.321 7.54 1.53 6.5
9/2/2023 2:00:00 AM 20.66 69.188 0.321 7.51 0.97 6.46
9/2/2023 2:15:00 AM 20.58 69.044 0.321 7.48 1.11 6.43
9/2/2023 2:30:00 AM 20.5 68.9 0.322 7.46 1.04 6.39
9/2/2023 2:45:00 AM 20.42 68.756 0.322 7.44 0.98 6.38
9/2/2023 3:00:00 AM 20.34 68.612 0.322 7.43 0.9 6.35
9/2/2023 3:15:00 AM 20.26 68.468 0.323 7.41 1.21 6.33
9/2/2023 3:30:00 AM 20.17 68.306 0.323 7.4 1.04 6.32
9/2/2023 3:45:00 AM 20.07 68.126 0.323 7.39 1.13 6.31
9/2/2023 4:00:00 AM 19.97 67.946 0.323 7.37 1.19 6.31
9/2/2023 4:15:00 AM 19.87 67.766 0.323 7.36 1.18 6.31
9/2/2023 4:30:00 AM 19.77 67.586 0.324 7.35 1 6.31
9/2/2023 4:45:00 AM 19.65 67.37 0.324 7.34 1.04 6.33
9/2/2023 5:00:00 AM 19.55 67.19 0.324 7.34 1.12 6.35
9/2/2023 5:15:00 AM 19.43 66.974 0.324 7.33 1.41 6.37
9/2/2023 5:30:00 AM 19.31 66.758 0.324 7.33 1.26 6.38
9/2/2023 5:45:00 AM 19.2 66.56 0.324 7.32 1.27 6.39
9/2/2023 6:00:00 AM 19.08 66.344 0.324 7.32 1.39 6.42
9/2/2023 6:15:00 AM 18.96 66.128 0.324 7.31 1.58 6.44
9/2/2023 6:30:00 AM 18.84 65.912 0.324 7.31 1.01 6.46
9/2/2023 6:45:00 AM 18.72 65.696 0.324 7.31 1.09 6.53
9/2/2023 7:00:00 AM 18.63 65.534 0.324 7.28 1.02 6.59
9/2/2023 7:15:00 AM 18.52 65.336 0.324 7.29 1.01 6.72
9/2/2023 7:30:00 AM 18.43 65.174 0.324 7.3 1.09 6.88
9/2/2023 7:45:00 AM 18.35 65.03 0.324 7.34 0.96 7.07
9/2/2023 8:00:00 AM 18.29 64.922 0.324 7.36 0.88 7.31
9/2/2023 8:15:00 AM 18.25 64.85 0.324 7.39 0.83 7.55
9/2/2023 8:30:00 AM 18.24 64.832 0.324 7.43 0.78 7.88
9/2/2023 8:45:00 AM 18.26 64.868 0.324 7.47 0.81 8.2
9/2/2023 9:00:00 AM 18.33 64.994 0.324 7.54 0.83 8.61
9/2/2023 9:15:00 AM 18.43 65.174 0.324 7.62 0.77 9.02
9/2/2023 9:30:00 AM 18.58 65.444 0.323 7.72 0.68 9.47
9/2/2023 9:45:00 AM 18.78 65.804 0.323 7.86 0.77 9.99
9/2/2023 10:00:00 AM 19 66.2 0.323 8.02 0.71 10.47
9/2/2023 10:15:00 AM 19.27 66.686 0.322 8.2 0.93 10.94
9/2/2023 10:30:00 AM 19.59 67.262 0.321 8.38 0.71 11.42
9/2/2023 10:45:00 AM 19.91 67.838 0.321 8.54 0.73 11.84
9/2/2023 11:00:00 AM 20.23 68.414 0.32 8.67 0.81 12.21
9/2/2023 11:15:00 AM 20.57 69.026 0.32 8.77 0.78 12.57
9/2/2023 11:30:00 AM 20.88 69.584 0.319 8.86 0.86 12.88
9/2/2023 11:45:00 AM 21.23 70.214 0.319 8.93 0.77 13.04
9/2/2023 12:00:00 PM 21.56 70.808 0.318 9 0.75 13.28
9/2/2023 12:15:00 PM 21.9 71.42 0.317 9.06 0.77 13.49
9/2/2023 12:30:00 PM 22.24 72.032 0.317 9.11 0.78 13.65
9/2/2023 12:45:00 PM 22.55 72.59 0.317 9.15 0.81 13.73
9/2/2023 1:00:00 PM 22.85 73.13 0.316 9.2 0.81 13.85
9/2/2023 1:15:00 PM 23.11 73.598 0.316 9.23 0.88 13.98
9/2/2023 1:30:00 PM 23.38 74.084 0.316 9.26 0.84 14.03
9/2/2023 1:45:00 PM 23.6 74.48 0.317 9.29 0.92 14.05
9/2/2023 2:00:00 PM 23.81 74.858 0.316 9.32 1.04 14.05
9/2/2023 2:15:00 PM 23.98 75.164 0.316 9.34 1.68 14.03
9/2/2023 2:30:00 PM 24.14 75.452 0.316 9.36 1.36 14.07
9/2/2023 2:45:00 PM 24.26 75.668 0.316 9.38 1.58 13.96
9/2/2023 3:00:00 PM 24.31 75.758 0.315 9.39 1.5 13.91
9/2/2023 3:15:00 PM 24.27 75.686 0.315 9.39 0.94 13.68
9/2/2023 3:30:00 PM 24.28 75.704 0.315 9.4 0.96 13.61
9/2/2023 3:45:00 PM 24.26 75.668 0.315 9.39 1.33 13.44
9/2/2023 4:00:00 PM 24.21 75.578 0.316 9.39 0.93 13.28
9/2/2023 4:15:00 PM 24.12 75.416 0.315 9.39 1.03 13.14
9/2/2023 4:30:00 PM 24.07 75.326 0.315 9.39 0.98 13
9/2/2023 4:45:00 PM 23.97 75.146 0.315 9.39 0.89 12.86
9/2/2023 5:00:00 PM 23.84 74.912 0.315 9.38 0.92 12.63
9/2/2023 5:15:00 PM 23.68 74.624 0.314 9.36 0.9 12.4
9/2/2023 5:30:00 PM 23.51 74.318 0.314 9.34 0.92 12.14
9/2/2023 5:45:00 PM 23.33 73.994 0.314 9.32 0.94 11.88
9/2/2023 6:00:00 PM 23.15 73.67 0.314 9.3 0.95 11.62
9/2/2023 6:15:00 PM 22.97 73.346 0.314 9.27 0.98 11.33
9/2/2023 6:30:00 PM 22.8 73.04 0.314 9.24 0.97 11.01
9/2/2023 6:45:00 PM 22.66 72.788 0.314 9.2 0.94 10.67
9/2/2023 7:00:00 PM 22.55 72.59 0.314 9.17 1.03 10.34
9/2/2023 7:15:00 PM 22.45 72.41 0.314 9.12 1.88 10
9/2/2023 7:30:00 PM 22.36 72.248 0.315 9.09 3.83 9.68
9/2/2023 7:45:00 PM 22.29 72.122 0.315 9.05 1.31 9.39
9/2/2023 8:00:00 PM 22.23 72.014 0.315 9.01 1.42 9.14
9/2/2023 8:15:00 PM 22.2 71.96 0.315 8.97 1.2 8.92
9/2/2023 8:30:00 PM 22.17 71.906 0.315 8.93 1.04 8.71
9/2/2023 8:45:00 PM 22.13 71.834 0.315 8.89 1.65 8.54
9/2/2023 9:00:00 PM 22.11 71.798 0.315 8.85 1.5 8.36
9/2/2023 9:15:00 PM 22.07 71.726 0.315 8.79 1.6 8.19
9/2/2023 9:30:00 PM 22.05 71.69 0.316 8.74 1.19 8.04
9/2/2023 9:45:00 PM 22.02 71.636 0.316 8.67 1.1 7.87
9/2/2023 10:00:00 PM 21.99 71.582 0.316 8.59 1.71 7.7
9/2/2023 10:15:00 PM 21.96 71.528 0.317 8.5 1.21 7.54
9/2/2023 10:30:00 PM 21.93 71.474 0.317 8.4 1.37 7.41
9/2/2023 10:45:00 PM 21.93 71.474 0.318 8.29 1.53 7.28
9/2/2023 11:00:00 PM 21.92 71.456 0.318 8.18 1.68 7.16
9/2/2023 11:15:00 PM 21.93 71.474 0.318 8.08 1.16 7.04
9/2/2023 11:30:00 PM 21.93 71.474 0.319 7.98 1.09 6.93
9/2/2023 11:45:00 PM 21.93 71.474 0.319 7.88 1.08 6.81
9/3/2023 12:00:00 AM 21.94 71.492 0.319 7.8 1.07 6.71
9/3/2023 12:15:00 AM 21.93 71.474 0.319 7.73 0.96 6.62
9/3/2023 12:30:00 AM 21.93 71.474 0.32 7.67 1.03 6.55
9/3/2023 12:45:00 AM 21.92 71.456 0.32 7.62 1 6.46
9/3/2023 1:00:00 AM 21.91 71.438 0.32 7.58 1.11 6.38
9/3/2023 1:15:00 AM 21.91 71.438 0.321 7.54 1.12 6.31
9/3/2023 1:30:00 AM 21.9 71.42 0.321 7.51 1.04 6.25
9/3/2023 1:45:00 AM 21.88 71.384 0.321 7.49 1.18 6.19
9/3/2023 2:00:00 AM 21.86 71.348 0.322 7.46 1.08 6.14
9/3/2023 2:15:00 AM 21.83 71.294 0.322 7.44 1.03 6.09
9/3/2023 2:30:00 AM 21.79 71.222 0.322 7.42 1.1 6.05
9/3/2023 2:45:00 AM 21.75 71.15 0.322 7.41 1.02 6.02
9/3/2023 3:00:00 AM 21.7 71.06 0.323 7.39 1.55 5.98
9/3/2023 3:15:00 AM 21.64 70.952 0.323 7.37 1.23 5.94
9/3/2023 3:30:00 AM 21.59 70.862 0.323 7.36 1.16 5.89
9/3/2023 3:45:00 AM 21.54 70.772 0.323 7.35 1.13 5.9
9/3/2023 4:00:00 AM 21.5 70.7 0.324 7.34 1.08 5.88
9/3/2023 4:15:00 AM 21.45 70.61 0.324 7.33 1.11 5.86
9/3/2023 4:30:00 AM 21.39 70.502 0.324 7.32 1.15 5.85
9/3/2023 4:45:00 AM 21.33 70.394 0.324 7.31 1.15 5.85
9/3/2023 5:00:00 AM 21.25 70.25 0.325 7.31 1.13 5.85
9/3/2023 5:15:00 AM 21.17 70.106 0.325 7.3 1.14 5.86
9/3/2023 5:30:00 AM 21.08 69.944 0.325 7.3 1.42 5.88
9/3/2023 5:45:00 AM 20.98 69.764 0.325 7.29 1.15 5.9
9/3/2023 6:00:00 AM 20.88 69.584 0.326 7.29 1.14 5.91
9/3/2023 6:15:00 AM 20.78 69.404 0.326 7.28 1.21 5.91
9/3/2023 6:30:00 AM 20.67 69.206 0.326 7.28 1.15 5.93
9/3/2023 6:45:00 AM 20.57 69.026 0.326 7.28 1.14 5.97
9/3/2023 7:00:00 AM 20.47 68.846 0.326 7.28 1.02 6.05
9/3/2023 7:15:00 AM 20.39 68.702 0.326 7.28 0.97 6.16
9/3/2023 7:30:00 AM 20.32 68.576 0.326 7.29 0.91 6.28
9/3/2023 7:45:00 AM 20.25 68.45 0.326 7.31 1.15 6.48
9/3/2023 8:00:00 AM 20.21 68.378 0.327 7.33 0.95 6.73
9/3/2023 8:15:00 AM 20.2 68.36 0.326 7.36 0.85 7.02
9/3/2023 8:30:00 AM 20.22 68.396 0.326 7.42 0.91 7.44
9/3/2023 8:45:00 AM 20.23 68.414 0.326 7.46 0.78 7.73
9/3/2023 9:00:00 AM 20.29 68.522 0.326 7.53 0.8 8.16
9/3/2023 9:15:00 AM 20.38 68.684 0.326 7.61 0.83 8.6
9/3/2023 9:30:00 AM 20.51 68.918 0.326 7.71 0.75 9.08
9/3/2023 9:45:00 AM 20.68 69.224 0.326 7.84 0.82 9.56
9/3/2023 10:00:00 AM 20.88 69.584 0.325 8.01 0.82 10.07
9/3/2023 10:15:00 AM 21.15 70.07 0.325 8.19 0.73 10.58
9/3/2023 10:30:00 AM 21.46 70.628 0.324 8.38 0.65 11.07
9/3/2023 10:45:00 AM 21.78 71.204 0.323 8.54 0.71 11.57
9/3/2023 11:00:00 AM 22.11 71.798 0.322 8.67 0.75 11.95
9/3/2023 11:15:00 AM 22.43 72.374 0.322 8.78 0.68 12.32
9/3/2023 11:30:00 AM 22.74 72.932 0.322 8.86 0.71 12.63
9/3/2023 11:45:00 AM 23.09 73.562 0.321 8.94 0.75 12.9
9/3/2023 12:00:00 PM 23.43 74.174 0.321 9.01 0.83 13.09
9/3/2023 12:15:00 PM 23.75 74.75 0.32 9.06 0.99 13.29
9/3/2023 12:30:00 PM 24.07 75.326 0.32 9.11 0.86 13.41
9/3/2023 12:45:00 PM 24.37 75.866 0.319 9.16 0.96 13.58
9/3/2023 1:00:00 PM 24.65 76.37 0.319 9.2 0.91 13.68
9/3/2023 1:15:00 PM 24.91 76.838 0.318 9.24 0.91 13.78
9/3/2023 1:30:00 PM 25.16 77.288 0.318 9.27 1.03 13.82
9/3/2023 1:45:00 PM 25.36 77.648 0.317 9.3 0.94 13.88
9/3/2023 2:00:00 PM 25.54 77.972 0.317 9.33 0.89 13.89
9/3/2023 2:15:00 PM 25.68 78.224 0.317 9.35 0.96 13.85
9/3/2023 2:30:00 PM 25.82 78.476 0.316 9.36 1.13 13.76
9/3/2023 2:45:00 PM 25.93 78.674 0.316 9.38 1.09 13.68
9/3/2023 3:00:00 PM 26 78.8 0.316 9.39 0.95 13.62
9/3/2023 3:15:00 PM 26.06 78.908 0.316 9.4 0.87 13.58
9/3/2023 3:30:00 PM 26.08 78.944 0.315 9.4 0.89 13.44
9/3/2023 3:45:00 PM 26.08 78.944 0.315 9.41 0.97 13.35
9/3/2023 4:00:00 PM 26.04 78.872 0.315 9.41 0.92 13.23
9/3/2023 4:15:00 PM 25.97 78.746 0.315 9.41 0.93 13.06
9/3/2023 4:30:00 PM 25.88 78.584 0.315 9.4 0.96 12.88
9/3/2023 4:45:00 PM 25.79 78.422 0.314 9.39 0.96 12.67
9/3/2023 5:00:00 PM 25.64 78.152 0.314 9.38 0.89 12.41
9/3/2023 5:15:00 PM 25.53 77.954 0.314 9.37 0.87 12.16
9/3/2023 5:30:00 PM 25.39 77.702 0.314 9.35 0.92 11.86
9/3/2023 5:45:00 PM 25.25 77.45 0.314 9.32 1.05 11.57
9/3/2023 6:00:00 PM 25.11 77.198 0.314 9.3 0.86 11.29
9/3/2023 6:15:00 PM 24.97 76.946 0.314 9.27 1.01 10.98
9/3/2023 6:30:00 PM 24.85 76.73 0.314 9.24 0.99 10.63
9/3/2023 6:45:00 PM 24.74 76.532 0.314 9.2 1.04 10.3
9/3/2023 7:00:00 PM 24.64 76.352 0.314 9.16 0.93 9.94
9/3/2023 7:15:00 PM 24.53 76.154 0.314 9.12 0.97 9.58
9/3/2023 7:30:00 PM 24.42 75.956 0.314 9.06 7.14 9.21
9/3/2023 7:45:00 PM 24.33 75.794 0.315 9.02 1.03 8.89
9/3/2023 8:00:00 PM 24.26 75.668 0.315 8.98 1.25 8.6
9/3/2023 8:15:00 PM 24.2 75.56 0.315 8.93 1.18 8.35
9/3/2023 8:30:00 PM 24.15 75.47 0.315 8.88 1.29 8.14
9/3/2023 8:45:00 PM 24.1 75.38 0.316 8.83 1.43 7.94
9/3/2023 9:00:00 PM 24.05 75.29 0.316 8.78 1.35 7.75
9/3/2023 9:15:00 PM 24 75.2 0.316 8.72 1.68 7.57
9/3/2023 9:30:00 PM 23.97 75.146 0.316 8.65 1.35 7.4
9/3/2023 9:45:00 PM 23.92 75.056 0.317 8.58 1.32 7.25
9/3/2023 10:00:00 PM 23.88 74.984 0.317 8.49 1.49 7.09
9/3/2023 10:15:00 PM 23.85 74.93 0.317 8.4 1.41 6.93
9/3/2023 10:30:00 PM 23.82 74.876 0.318 8.28 1.5 6.8
9/3/2023 10:45:00 PM 23.79 74.82201 0.318 8.17 1.26 6.66
9/3/2023 11:00:00 PM 23.77 74.786 0.319 8.05 1.22 6.52
9/3/2023 11:15:00 PM 23.75 74.75 0.319 7.94 1.21 6.4
9/3/2023 11:30:00 PM 23.72 74.696 0.319 7.84 1.21 6.29
9/3/2023 11:45:00 PM 23.68 74.624 0.319 7.76 1.06 6.19
9/4/2023 12:00:00 AM 23.66 74.588 0.32 7.69 1.08 6.08
9/4/2023 12:15:00 AM 23.63 74.534 0.32 7.63 1.21 6.01
9/4/2023 12:30:00 AM 23.6 74.48 0.32 7.58 1.31 5.92
9/4/2023 12:45:00 AM 23.57 74.426 0.32 7.53 1.08 5.84
9/4/2023 1:00:00 AM 23.52 74.336 0.321 7.49 1.11 5.77
9/4/2023 1:15:00 AM 23.49 74.282 0.321 7.46 1.08 5.71
9/4/2023 1:30:00 AM 23.43 74.174 0.321 7.43 1.17 5.66
9/4/2023 1:45:00 AM 23.38 74.084 0.321 7.41 1.07 5.6
9/4/2023 2:00:00 AM 23.33 73.994 0.321 7.38 1.23 5.55
9/4/2023 2:15:00 AM 23.28 73.904 0.322 7.36 1.64 5.51
9/4/2023 2:30:00 AM 23.23 73.814 0.322 7.35 1.1 5.47
9/4/2023 2:45:00 AM 23.17 73.706 0.322 7.33 1.02 5.46
9/4/2023 3:00:00 AM 23.1 73.58 0.322 7.32 0.98 5.44
9/4/2023 3:15:00 AM 23.04 73.472 0.322 7.31 0.94 5.42
9/4/2023 3:30:00 AM 22.99 73.382 0.322 7.3 0.99 5.36
9/4/2023 3:45:00 AM 22.93 73.274 0.322 7.29 0.97 5.37
9/4/2023 4:00:00 AM 22.87 73.166 0.323 7.28 0.95 5.35
9/4/2023 4:15:00 AM 22.8 73.04 0.323 7.27 1.05 5.33
9/4/2023 4:30:00 AM 22.73 72.914 0.323 7.26 1.07 5.36
9/4/2023 4:45:00 AM 22.64 72.752 0.323 7.26 1.15 5.35
9/4/2023 5:00:00 AM 22.57 72.626 0.323 7.25 1.06 5.36
9/4/2023 5:15:00 AM 22.5 72.5 0.324 7.25 2.77 5.35
9/4/2023 5:30:00 AM 22.43 72.374 0.322 7.24 3.65 5.35
9/4/2023 5:45:00 AM 22.37 72.266 0.323 7.24 1.22 5.36
9/4/2023 6:00:00 AM 22.3 72.14 0.323 7.24 1.18 5.36
9/4/2023 6:15:00 AM 22.21 71.978 0.323 7.23 1.18 5.36
9/4/2023 6:30:00 AM 22.14 71.852 0.323 7.23 1.21 5.38
9/4/2023 6:45:00 AM 22.07 71.726 0.323 7.23 1.03 5.43
9/4/2023 7:00:00 AM 22.01 71.618 0.323 7.23 0.97 5.5
9/4/2023 7:15:00 AM 21.95 71.51 0.323 7.24 0.92 5.6
9/4/2023 7:30:00 AM 21.92 71.456 0.323 7.26 0.93 5.84
9/4/2023 7:45:00 AM 21.91 71.438 0.323 7.29 0.87 6.17
9/4/2023 8:00:00 AM 21.92 71.456 0.323 7.33 1.14 6.51
9/4/2023 8:15:00 AM 21.93 71.474 0.323 7.36 0.91 6.83
9/4/2023 8:30:00 AM 21.95 71.51 0.323 7.4 0.8 7.11
9/4/2023 8:45:00 AM 21.96 71.528 0.323 7.42 0.92 7.34
9/4/2023 9:00:00 AM 21.99 71.582 0.323 7.47 0.88 7.64
9/4/2023 9:15:00 AM 22.03 71.654 0.323 7.52 0.78 7.92
9/4/2023 9:30:00 AM 22.08 71.744 0.323 7.58 0.91 8.23
9/4/2023 9:45:00 AM 22.13 71.834 0.323 7.63 0.75 8.51
9/4/2023 10:00:00 AM 22.18 71.924 0.323 7.69 0.71 8.77
9/4/2023 10:15:00 AM 22.23 72.014 0.323 7.77 0.78 9.07
9/4/2023 10:30:00 AM 22.33 72.194 0.323 7.88 0.68 9.44
9/4/2023 10:45:00 AM 22.39 72.302 0.323 7.99 0.71 9.8
9/4/2023 11:00:00 AM 22.6 72.68 0.323 8.17 0.72 10.33
9/4/2023 11:15:00 AM 22.74 72.932 0.323 8.31 0.73 10.69
9/4/2023 11:30:00 AM 23.04 73.472 0.322 8.48 0.78 11.21
9/4/2023 11:45:00 AM 23.4 74.12 0.321 8.6 0.76 11.62
9/4/2023 12:00:00 PM 23.71 74.67799 0.321 8.7 0.7 11.96
9/4/2023 12:15:00 PM 24.04 75.272 0.32 8.8 0.76 12.32
9/4/2023 12:30:00 PM 24.35 75.83 0.319 8.88 0.72 12.6
9/4/2023 12:45:00 PM 24.54 76.172 0.318 8.94 0.86 12.76
9/4/2023 1:00:00 PM 24.9 76.82 0.318 9.02 0.72 13.07
9/4/2023 1:15:00 PM 25.26 77.468 0.317 9.07 0.82 13.24
9/4/2023 1:30:00 PM 25.55 77.99 0.317 9.12 0.76 13.41
9/4/2023 1:45:00 PM 25.86 78.548 0.316 9.16 0.83 13.48
9/4/2023 2:00:00 PM 26.09 78.962 0.316 9.19 0.84 13.54
9/4/2023 2:15:00 PM 26.33 79.394 0.315 9.23 1.13 13.57
9/4/2023 2:30:00 PM 26.56 79.808 0.315 9.26 0.96 13.55
9/4/2023 2:45:00 PM 26.73 80.114 0.315 9.29 1.07 13.6
9/4/2023 3:00:00 PM 26.88 80.384 0.314 9.3 1.08 13.56
9/4/2023 3:15:00 PM 26.98 80.564 0.314 9.32 1.21 13.56
9/4/2023 3:30:00 PM 27.04 80.672 0.314 9.34 1.3 13.41
9/4/2023 3:45:00 PM 27.08 80.744 0.314 9.35 1.22 13.31
9/4/2023 4:00:00 PM 27.1 80.78 0.314 9.35 0.95 13.05
9/4/2023 4:15:00 PM 27.07 80.726 0.313 9.36 1.11 12.89
9/4/2023 4:30:00 PM 27.02 80.636 0.313 9.36 1.11 12.65
9/4/2023 4:45:00 PM 26.95 80.51 0.313 9.35 1 12.44
9/4/2023 5:00:00 PM 26.84 80.312 0.313 9.34 0.97 12.19
9/4/2023 5:15:00 PM 26.72 80.096 0.313 9.33 1.05 11.89
9/4/2023 5:30:00 PM 26.59 79.862 0.313 9.31 1 11.62
9/4/2023 5:45:00 PM 26.47 79.646 0.313 9.29 0.98 11.29
9/4/2023 6:00:00 PM 26.35 79.43 0.313 9.26 1.02 10.98
9/4/2023 6:15:00 PM 26.21 79.17799 0.314 9.23 0.94 10.63
9/4/2023 6:30:00 PM 26.06 78.908 0.314 9.2 0.99 10.28
9/4/2023 6:45:00 PM 25.92 78.656 0.314 9.15 0.98 9.89
9/4/2023 7:00:00 PM 25.8 78.44 0.314 9.11 1.04 9.5
9/4/2023 7:15:00 PM 25.68 78.224 0.315 9.06 1.36 9.13
9/4/2023 7:30:00 PM 25.59 78.062 0.315 9.01 1.04 8.76
9/4/2023 7:45:00 PM 25.51 77.918 0.316 8.95 1.19 8.42
9/4/2023 8:00:00 PM 25.44 77.792 0.316 8.9 1.12 8.11
9/4/2023 8:15:00 PM 25.38 77.684 0.316 8.86 1.14 7.89
9/4/2023 8:30:00 PM 25.33 77.594 0.316 8.81 1.21 7.67
9/4/2023 8:45:00 PM 25.28 77.504 0.317 8.75 1.74 7.49
9/4/2023 9:00:00 PM 25.23 77.414 0.317 8.69 1.3 7.3
9/4/2023 9:15:00 PM 25.16 77.288 0.317 8.62 1.35 7.13
9/4/2023 9:30:00 PM 25.1 77.18 0.318 8.54 1.41 7.01
9/4/2023 9:45:00 PM 25.04 77.07201 0.318 8.46 1.25 6.83
9/4/2023 10:00:00 PM 24.99 76.982 0.319 8.35 1.21 6.66
9/4/2023 10:15:00 PM 24.94 76.892 0.319 8.24 1.2 6.54
9/4/2023 10:30:00 PM 24.89 76.802 0.32 8.12 1.32 6.41
9/4/2023 10:45:00 PM 24.85 76.73 0.32 8 1.17 6.27
9/4/2023 11:00:00 PM 24.81 76.658 0.32 7.88 1.34 6.18
9/4/2023 11:15:00 PM 24.78 76.604 0.321 7.78 1.53 6.03
9/4/2023 11:30:00 PM 24.75 76.55 0.321 7.7 1.22 5.94
9/4/2023 11:45:00 PM 24.72 76.496 0.321 7.64 1.24 5.86
9/5/2023 12:00:00 AM 24.69 76.442 0.321 7.58 1.09 5.75
9/5/2023 12:15:00 AM 24.66 76.388 0.322 7.53 1.18 5.65
9/5/2023 12:30:00 AM 24.63 76.334 0.322 7.48 1.13 5.55
9/5/2023 12:45:00 AM 24.6 76.28 0.322 7.45 1.22 5.5
9/5/2023 1:00:00 AM 24.56 76.208 0.322 7.41 1.15 5.43
9/5/2023 1:15:00 AM 24.53 76.154 0.322 7.39 1.04 5.38
9/5/2023 1:30:00 AM 24.5 76.1 0.322 7.36 1.13 5.29
9/5/2023 1:45:00 AM 24.47 76.046 0.322 7.34 1.71 5.21
9/5/2023 2:00:00 AM 24.44 75.992 0.323 7.33 1.19 5.18
9/5/2023 2:15:00 AM 24.4 75.92 0.323 7.31 0.96 5.13
9/5/2023 2:30:00 AM 24.36 75.848 0.323 7.29 1.16 5.09
9/5/2023 2:45:00 AM 24.32 75.776 0.323 7.28 1.41 5.08
9/5/2023 3:00:00 AM 24.27 75.686 0.323 7.27 1.08 5.05
9/5/2023 3:15:00 AM 24.23 75.614 0.323 7.26 1.73 5.01
9/5/2023 3:30:00 AM 24.19 75.542 0.323 7.25 1.21 5
9/5/2023 3:45:00 AM 24.14 75.452 0.323 7.24 1.1 4.98
9/5/2023 4:00:00 AM 24.09 75.362 0.323 7.23 1.1 4.94
9/5/2023 4:15:00 AM 24.04 75.272 0.323 7.23 1.18 4.93
9/5/2023 4:30:00 AM 24 75.2 0.323 7.22 1.11 4.94
9/5/2023 4:45:00 AM 23.94 75.092 0.323 7.22 1.2 4.93
9/5/2023 5:00:00 AM 23.87 74.966 0.324 7.21 1.3 4.91
9/5/2023 5:15:00 AM 23.81 74.858 0.324 7.21 1.08 4.91
9/5/2023 5:30:00 AM 23.74 74.732 0.324 7.2 1.29 4.92
9/5/2023 5:45:00 AM 23.67 74.606 0.324 7.2 1.08 4.91
9/5/2023 6:00:00 AM 23.6 74.48 0.324 7.2 1.26 4.91
9/5/2023 6:15:00 AM 23.52 74.336 0.324 7.19 1.3 4.92
9/5/2023 6:30:00 AM 23.44 74.192 0.324 7.19 0.99 4.92
9/5/2023 6:45:00 AM 23.36 74.048 0.324 7.19 1.24 4.92
9/5/2023 7:00:00 AM 23.28 73.904 0.324 7.19 0.87 5.02
9/5/2023 7:15:00 AM 23.21 73.778 0.325 7.2 0.86 5.11
9/5/2023 7:30:00 AM 23.15 73.67 0.325 7.21 1.03 5.24
9/5/2023 7:45:00 AM 23.07 73.526 0.325 7.22 0.91 5.37
9/5/2023 8:00:00 AM 23.02 73.436 0.325 7.23 0.96 5.55
9/5/2023 8:15:00 AM 22.98 73.364 0.325 7.25 0.9 5.76
9/5/2023 8:30:00 AM 22.95 73.31 0.325 7.28 0.99 6.04
9/5/2023 8:45:00 AM 22.95 73.31 0.325 7.32 0.86 6.4
9/5/2023 9:00:00 AM 22.98 73.364 0.325 7.37 0.91 6.84
9/5/2023 9:15:00 AM 23.01 73.418 0.325 7.42 0.78 7.24
9/5/2023 9:30:00 AM 23.13 73.634 0.325 7.52 0.78 7.87
9/5/2023 9:45:00 AM 23.23 73.814 0.325 7.61 0.74 8.34
9/5/2023 10:00:00 AM 23.37 74.066 0.325 7.74 0.7 8.9
9/5/2023 10:15:00 AM 23.55 74.39 0.324 7.9 0.79 9.43
9/5/2023 10:30:00 AM 23.83 74.894 0.324 8.09 0.79 10.03
9/5/2023 10:45:00 AM 24.12 75.416 0.323 8.28 0.9 10.56
9/5/2023 11:00:00 AM 24.4 75.92 0.323 8.45 0.73 11.04
9/5/2023 11:15:00 AM 24.71 76.478 0.322 8.59 0.77 11.48
9/5/2023 11:30:00 AM 24.96 76.92799 0.322 8.7 0.86 11.82
9/5/2023 11:45:00 AM 25.31 77.558 0.321 8.8 0.68 12.19
9/5/2023 12:00:00 PM 25.61 78.098 0.321 8.88 0.79 12.5
9/5/2023 12:15:00 PM 25.93 78.674 0.32 8.96 0.77 12.79
9/5/2023 12:30:00 PM 26.27 79.286 0.32 9.02 0.78 13.04
9/5/2023 12:45:00 PM 26.54 79.772 0.319 9.06 0.78 13.16
9/5/2023 1:00:00 PM 26.8 80.24 0.319 9.11 0.82 13.35
9/5/2023 1:15:00 PM 27.06 80.708 0.318 9.16 0.8 13.42
9/5/2023 1:30:00 PM 27.32 81.176 0.318 9.19 0.86 13.51
9/5/2023 1:45:00 PM 27.57 81.626 0.318 9.22 0.85 13.56
9/5/2023 2:00:00 PM 27.75 81.95 0.318 9.25 0.79 13.53
9/5/2023 2:15:00 PM 27.94 82.292 0.318 9.28 0.84 13.53
9/5/2023 2:30:00 PM 28.11 82.598 0.317 9.3 1.08 13.49
9/5/2023 2:45:00 PM 28.24 82.832 0.317 9.32 1.19 13.45
9/5/2023 3:00:00 PM 28.28 82.904 0.317 9.33 1.15 13.37
9/5/2023 3:15:00 PM 28.4 83.12 0.317 9.35 1.14 13.37
9/5/2023 3:30:00 PM 28.46 83.228 0.317 9.36 1.22 13.32
9/5/2023 3:45:00 PM 28.45 83.21001 0.317 9.36 0.92 13.18
9/5/2023 4:00:00 PM 28.43 83.174 0.317 9.36 1.12 12.94
9/5/2023 4:15:00 PM 28.38 83.084 0.317 9.36 0.93 12.78
9/5/2023 4:30:00 PM 28.3 82.94 0.317 9.36 1.07 12.54
9/5/2023 4:45:00 PM 28.17 82.706 0.317 9.35 1.69 12.2
9/5/2023 5:00:00 PM 28.05 82.49 0.316 9.34 1.16 12.03
9/5/2023 5:15:00 PM 27.92 82.256 0.316 9.32 0.9 11.8
9/5/2023 5:30:00 PM 27.79 82.022 0.316 9.31 0.88 11.58
9/5/2023 5:45:00 PM 27.66 81.788 0.316 9.29 1.11 11.33
9/5/2023 6:00:00 PM 27.51 81.518 0.316 9.27 0.87 11.05
9/5/2023 6:15:00 PM 27.36 81.248 0.316 9.24 0.87 10.66
9/5/2023 6:30:00 PM 27.22 80.996 0.316 9.2 0.99 10.29
9/5/2023 6:45:00 PM 27.1 80.78 0.316 9.16 0.84 9.92
9/5/2023 7:00:00 PM 26.99 80.582 0.316 9.12 0.89 9.55
9/5/2023 7:15:00 PM 26.9 80.42 0.317 9.07 0.9 9.19
9/5/2023 7:30:00 PM 26.79 80.222 0.317 9.02 0.92 8.77
9/5/2023 7:45:00 PM 26.69 80.042 0.317 8.96 0.94 8.39
9/5/2023 8:00:00 PM 26.6 79.88 0.317 8.9 0.97 8.05
9/5/2023 8:15:00 PM 26.52 79.736 0.317 8.85 0.99 7.77
9/5/2023 8:30:00 PM 26.46 79.628 0.318 8.79 1.56 7.51
9/5/2023 8:45:00 PM 26.39 79.502 0.318 8.73 1.14 7.29
9/5/2023 9:00:00 PM 26.31 79.358 0.318 8.66 1.62 7.06
9/5/2023 9:15:00 PM 26.23 79.214 0.318 8.56 143.39 6.87
9/5/2023 9:30:00 PM 26.18 79.124 0.319 8.46 4.25 6.7
9/5/2023 9:45:00 PM 26.12 79.016 0.319 8.37 0.71 6.52
9/5/2023 10:00:00 PM 26.06 78.908 0.32 8.26 0.91 6.35
9/5/2023 10:15:00 PM 26 78.8 0.32 8.13 0.67 6.19
9/5/2023 10:30:00 PM 25.94 78.692 0.32 8 0.76 6.06
9/5/2023 10:45:00 PM 25.89 78.602 0.321 7.87 1.2 5.88
9/5/2023 11:00:00 PM 25.84 78.512 0.321 7.77 0.63 5.77
9/5/2023 11:15:00 PM 25.8 78.44 0.321 7.68 0.61 5.63
9/5/2023 11:30:00 PM 25.76 78.368 0.321 7.6 0.81 5.52
9/5/2023 11:45:00 PM 25.71 78.278 0.321 7.54 0.79 5.4
9/6/2023 12:00:00 AM 25.67 78.206 0.322 7.49 0.99 5.32
9/6/2023 12:15:00 AM 25.63 78.134 0.322 7.44 0.98 5.22
9/6/2023 12:30:00 AM 25.59 78.062 0.322 7.41 0.99 5.15
9/6/2023 12:45:00 AM 25.56 78.008 0.322 7.38 1.13 5.04
9/6/2023 1:00:00 AM 25.51 77.918 0.322 7.35 0.57 5
9/6/2023 1:15:00 AM 25.46 77.828 0.322 7.33 0.52 4.94
9/6/2023 1:30:00 AM 25.42 77.756 0.322 7.31 0.51 4.89
9/6/2023 1:45:00 AM 25.38 77.684 0.322 7.29 0.46 4.82
9/6/2023 2:00:00 AM 25.33 77.594 0.322 7.27 0.94 4.78
9/6/2023 2:15:00 AM 25.28 77.504 0.322 7.26 0.5 4.74
9/6/2023 2:30:00 AM 25.23 77.414 0.322 7.24 0.58 4.71
9/6/2023 2:45:00 AM 25.18 77.324 0.323 7.23 0.48 4.67
9/6/2023 3:00:00 AM 25.12 77.216 0.323 7.22 0.4 4.65
9/6/2023 3:15:00 AM 25.06 77.108 0.323 7.21 1.07 4.64
9/6/2023 3:30:00 AM 25.01 77.018 0.323 7.2 0.51 4.58
9/6/2023 3:45:00 AM 24.94 76.892 0.323 7.19 0.4 4.59
9/6/2023 4:00:00 AM 24.89 76.802 0.323 7.19 0.52 4.57
9/6/2023 4:15:00 AM 24.82 76.676 0.323 7.17 0.6 4.55
9/6/2023 4:30:00 AM 24.75 76.55 0.323 7.17 0.63 4.53
9/6/2023 4:45:00 AM 24.68 76.424 0.323 7.17 0.63 4.52
9/6/2023 5:00:00 AM 24.61 76.298 0.323 7.16 0.48 4.52
9/6/2023 5:15:00 AM 24.53 76.154 0.323 7.16 0.39 4.53
9/6/2023 5:30:00 AM 24.46 76.028 0.323 7.16 0.52 4.53
9/6/2023 5:45:00 AM 24.38 75.884 0.324 7.15 0.46 4.52
9/6/2023 6:00:00 AM 24.29 75.722 0.323 7.15 0.82 4.5
9/6/2023 6:15:00 AM 24.21 75.578 0.324 7.15 0.55 4.51
9/6/2023 6:30:00 AM 24.13 75.434 0.324 7.14 0.5 4.55
9/6/2023 6:45:00 AM 24.05 75.29 0.324 7.15 0.46 4.58
9/6/2023 7:00:00 AM 23.96 75.128 0.324 7.15 0.36 4.67
9/6/2023 7:15:00 AM 23.9 75.02 0.324 7.16 0.42 4.77
9/6/2023 7:30:00 AM 23.83 74.894 0.324 7.17 0.43 4.94
9/6/2023 7:45:00 AM 23.78 74.804 0.324 7.19 0.34 5.14
9/6/2023 8:00:00 AM 23.74 74.732 0.324 7.21 0.35 5.42
9/6/2023 8:15:00 AM 23.72 74.696 0.324 7.24 0.37 5.71
9/6/2023 8:30:00 AM 23.72 74.696 0.324 7.27 0.35 6.06
9/6/2023 8:45:00 AM 23.74 74.732 0.323 7.32 0.41 6.48
9/6/2023 9:00:00 AM 23.8 74.84 0.323 7.37 0.26 6.86
9/6/2023 9:15:00 AM 23.9 75.02 0.323 7.44 0.4 7.38
9/6/2023 9:30:00 AM 24.03 75.254 0.323 7.52 0.25 7.9
9/6/2023 9:45:00 AM 24.19 75.542 0.323 7.63 0.28 8.43
9/6/2023 10:00:00 AM 24.39 75.902 0.323 7.77 0.23 9.02
9/6/2023 10:15:00 AM 24.62 76.316 0.322 7.93 0.26 9.57
9/6/2023 10:30:00 AM 24.91 76.838 0.322 8.14 0.2 10.16
9/6/2023 10:45:00 AM 25.22 77.396 0.321 8.3 3.16 10.72
9/6/2023 11:00:00 AM 25.46 77.828 0.32 8.48 2.44 11.2
9/6/2023 11:15:00 AM 25.76 78.368 0.319 8.64 0.36 11.66
9/6/2023 11:30:00 AM 26.07 78.926 0.319 8.75 0.24 12.03
9/6/2023 11:45:00 AM 26.39 79.502 0.317 8.83 2.14 12.35
9/6/2023 12:00:00 PM 26.67 80.006 0.318 8.89 0.54 12.55
9/6/2023 12:15:00 PM 26.91 80.438 0.317 8.94 0.5 12.69
9/6/2023 12:30:00 PM 27.13 80.834 0.317 8.99 0.91 12.78
9/6/2023 12:45:00 PM 27.31 81.158 0.316 9.04 0.28 12.9
9/6/2023 1:00:00 PM 27.35 81.23 0.316 9.05 0.83 12.74
9/6/2023 1:15:00 PM 27.66 81.788 0.316 9.11 0.21 12.97
9/6/2023 1:30:00 PM 27.85 82.13 0.315 9.13 0.35 13
9/6/2023 1:45:00 PM 28.13 82.634 0.315 9.17 0.33 13.18
9/6/2023 2:00:00 PM 28.35 83.03 0.315 9.19 0.22 13.17
9/6/2023 2:15:00 PM 28.57 83.426 0.315 9.22 0.31 13.23
9/6/2023 2:30:00 PM 28.59 83.462 0.315 9.22 0.37 13.07
9/6/2023 2:45:00 PM 28.67 83.606 0.315 9.25 0.5 13.07
9/6/2023 3:00:00 PM 28.86 83.948 0.315 9.28 0.53 13.13
9/6/2023 3:15:00 PM 28.89 84.002 0.315 9.29 0.42 13.06
9/6/2023 3:30:00 PM 28.76 83.768 0.315 9.27 1.59 12.78
9/6/2023 3:45:00 PM 28.73 83.714 0.315 9.28 0.75 12.69
9/6/2023 4:00:00 PM 28.71 83.67799 0.315 9.28 0.43 12.58
9/6/2023 4:15:00 PM 28.66 83.588 0.315 9.28 0.36 12.43
9/6/2023 4:30:00 PM 28.55 83.39 0.315 9.27 0.35 12.19
9/6/2023 4:45:00 PM 28.43 83.174 0.315 9.26 0.47 11.99
9/6/2023 5:00:00 PM 28.3 82.94 0.315 9.25 0.36 11.77
9/6/2023 5:15:00 PM 28.14 82.652 0.315 9.23 0.29 11.42
9/6/2023 5:30:00 PM 27.99 82.382 0.315 9.2 0.52 11.18
9/6/2023 5:45:00 PM 27.84 82.112 0.315 9.17 0.47 10.86
9/6/2023 6:00:00 PM 27.7 81.86 0.316 9.15 0.39 10.57
9/6/2023 6:15:00 PM 27.54 81.57201 0.316 9.11 0.25 10.22
9/6/2023 6:30:00 PM 27.38 81.284 0.316 9.06 0.27 9.82
9/6/2023 6:45:00 PM 27.24 81.032 0.317 9.01 0.38 9.43
9/6/2023 7:00:00 PM 27.1 80.78 0.317 8.95 0.62 9.05
9/6/2023 7:15:00 PM 26.96 80.528 0.317 8.88 1.73 8.63
9/6/2023 7:30:00 PM 26.83 80.294 0.318 8.82 0.46 8.24
9/6/2023 7:45:00 PM 26.71 80.078 0.318 8.74 0.55 7.86
9/6/2023 8:00:00 PM 26.61 79.898 0.318 8.67 0.57 7.6
9/6/2023 8:15:00 PM 26.52 79.736 0.319 8.6 0.48 7.36
9/6/2023 8:30:00 PM 26.44 79.592 0.319 8.49 1.64 7.15
9/6/2023 8:45:00 PM 26.37 79.466 0.319 8.44 0.64 6.94
9/6/2023 9:00:00 PM 26.3 79.34 0.319 8.35 0.76 6.72
9/6/2023 9:15:00 PM 26.24 79.232 0.32 8.26 0.59 6.61
9/6/2023 9:30:00 PM 26.18 79.124 0.32 8.16 0.51 6.46
9/6/2023 9:45:00 PM 26.12 79.016 0.32 8.05 0.65 6.28
9/6/2023 10:00:00 PM 26.06 78.908 0.321 7.93 0.67 6.12
9/6/2023 10:15:00 PM 25.99 78.782 0.321 7.82 3.46 5.96
9/6/2023 10:30:00 PM 25.93 78.674 0.321 7.73 0.65 5.84
9/6/2023 10:45:00 PM 25.86 78.548 0.322 7.65 0.51 5.68
9/6/2023 11:00:00 PM 25.81 78.458 0.322 7.58 0.58 5.57
9/6/2023 11:15:00 PM 25.76 78.368 0.322 7.53 0.44 5.49
9/6/2023 11:30:00 PM 25.71 78.278 0.322 7.48 0.44 5.37
9/6/2023 11:45:00 PM 25.66 78.188 0.322 7.44 0.49 5.28
9/7/2023 12:00:00 AM 25.6 78.08 0.322 7.4 0.54 5.2
9/7/2023 12:15:00 AM 25.56 78.008 0.322 7.37 0.67 5.12
9/7/2023 12:30:00 AM 25.51 77.918 0.322 7.35 0.55 5.04
9/7/2023 12:45:00 AM 25.46 77.828 0.322 7.32 0.57 4.98
9/7/2023 1:00:00 AM 25.42 77.756 0.322 7.3 0.61 4.93
9/7/2023 1:15:00 AM 25.37 77.666 0.322 7.28 0.42 4.86
9/7/2023 1:30:00 AM 25.34 77.612 0.322 7.27 0.43 4.78
9/7/2023 1:45:00 AM 25.28 77.504 0.321 7.25 1.47 4.75
9/7/2023 2:00:00 AM 25.24 77.432 0.321 7.24 1.42 4.71
9/7/2023 2:15:00 AM 25.2 77.36 0.321 7.23 0.55 4.67
9/7/2023 2:30:00 AM 25.14 77.252 0.321 7.22 0.46 4.65
9/7/2023 2:45:00 AM 25.08 77.144 0.321 7.21 0.64 4.63
9/7/2023 3:00:00 AM 25.02 77.036 0.321 7.2 0.69 4.59
9/7/2023 3:15:00 AM 24.98 76.964 0.321 7.2 0.57 4.57
9/7/2023 3:30:00 AM 24.91 76.838 0.322 7.19 0.53 4.56
9/7/2023 3:45:00 AM 24.86 76.748 0.322 7.18 0.35 4.55
9/7/2023 4:00:00 AM 24.79 76.622 0.322 7.18 0.37 4.54
9/7/2023 4:15:00 AM 24.74 76.532 0.322 7.17 0.49 4.52
9/7/2023 4:30:00 AM 24.67 76.406 0.322 7.17 0.37 4.52
9/7/2023 4:45:00 AM 24.61 76.298 0.322 7.17 0.36 4.53
9/7/2023 5:00:00 AM 24.54 76.172 0.322 7.16 0.41 4.51
9/7/2023 5:15:00 AM 24.47 76.046 0.322 7.16 0.4 4.52
9/7/2023 5:30:00 AM 24.4 75.92 0.322 7.16 0.41 4.53
9/7/2023 5:45:00 AM 24.33 75.794 0.322 7.16 0.42 4.52
9/7/2023 6:00:00 AM 24.26 75.668 0.322 7.15 0.49 4.53
9/7/2023 6:15:00 AM 24.18 75.524 0.322 7.15 0.54 4.54
9/7/2023 6:30:00 AM 24.1 75.38 0.322 7.15 0.58 4.55
9/7/2023 6:45:00 AM 24.03 75.254 0.322 7.15 0.46 4.58
9/7/2023 7:00:00 AM 23.97 75.146 0.322 7.15 0.67 4.63
9/7/2023 7:15:00 AM 23.91 75.038 0.322 7.16 0.45 4.75
9/7/2023 7:30:00 AM 23.85 74.93 0.322 7.18 0.36 4.95
9/7/2023 7:45:00 AM 23.82 74.876 0.322 7.19 0.3 5.16
9/7/2023 8:00:00 AM 23.79 74.82201 0.321 7.22 0.47 5.43
9/7/2023 8:15:00 AM 23.78 74.804 0.322 7.25 0.31 5.78
9/7/2023 8:30:00 AM 23.79 74.82201 0.321 7.29 0.23 6.14
9/7/2023 8:45:00 AM 23.81 74.858 0.321 7.33 0.23 6.53
9/7/2023 9:00:00 AM 23.87 74.966 0.321 7.39 0.29 6.98
9/7/2023 9:15:00 AM 23.96 75.128 0.321 7.45 0.29 7.46
9/7/2023 9:30:00 AM 24.09 75.362 0.321 7.53 0.23 7.98
9/7/2023 9:45:00 AM 24.25 75.65 0.321 7.64 0.18 8.52
9/7/2023 10:00:00 AM 24.44 75.992 0.321 7.77 0.17 9.06
9/7/2023 10:15:00 AM 24.66 76.388 0.32 7.95 0.19 9.63
9/7/2023 10:30:00 AM 24.94 76.892 0.32 8.14 0.12 10.21
9/7/2023 10:45:00 AM 25.24 77.432 0.319 8.33 0.18 10.72
9/7/2023 11:00:00 AM 25.54 77.972 0.319 8.49 0.11 11.22
9/7/2023 11:15:00 AM 25.87 78.566 0.318 8.63 0.1 11.68
9/7/2023 11:30:00 AM 26.11 78.998 0.317 8.74 0.16 12.03
9/7/2023 11:45:00 AM 26.35 79.43 0.317 8.81 0.19 12.26
9/7/2023 12:00:00 PM 26.69 80.042 0.316 8.9 0.14 12.57
9/7/2023 12:15:00 PM 27.01 80.618 0.316 8.96 0.2 12.79
9/7/2023 12:30:00 PM 27.24 81.032 0.316 9.01 0.19 12.9
9/7/2023 12:45:00 PM 27.43 81.374 0.315 9.05 0.17 12.97
9/7/2023 1:00:00 PM 27.7 81.86 0.315 9.1 0.09 13.1
9/7/2023 1:15:00 PM 27.98 82.364 0.315 9.14 0.19 13.23
9/7/2023 1:30:00 PM 28.22 82.796 0.315 9.17 0.23 13.31
9/7/2023 1:45:00 PM 28.41 83.138 0.314 9.21 2.4 13.29
9/7/2023 2:00:00 PM 28.56 83.408 0.314 9.24 0.31 13.34
9/7/2023 2:15:00 PM 28.6 83.48 0.314 9.25 0.26 13.18
9/7/2023 2:30:00 PM 28.82 83.876 0.314 9.29 0.23 13.26
9/7/2023 2:45:00 PM 28.88 83.98399 0.314 9.31 0.22 13.21
9/7/2023 3:00:00 PM 28.97 84.146 0.314 9.32 0.29 13.14
9/7/2023 3:15:00 PM 28.88 83.98399 0.315 9.32 0.35 12.86
9/7/2023 3:30:00 PM 28.7 83.66 0.315 9.31 0.3 12.55
9/7/2023 3:45:00 PM 28.56 83.408 0.315 9.32 0.46 12.45
9/7/2023 4:00:00 PM 28.35 83.03 0.315 9.3 0.42 12.05
9/7/2023 4:15:00 PM 28.15 82.67 0.315 9.29 0.52 11.71
9/7/2023 4:30:00 PM 28 82.4 0.316 9.27 0.46 11.42
9/7/2023 4:45:00 PM 27.86 82.148 0.316 9.24 0.49 11.02
9/7/2023 5:00:00 PM 27.72 81.896 0.316 9.2 0.36 10.63
9/7/2023 5:15:00 PM 27.53 81.554 0.317 9.14 0.42 10.08
9/7/2023 5:30:00 PM 27.32 81.176 0.318 9.09 0.3 9.63
9/7/2023 5:45:00 PM 27.17 80.906 0.318 9.04 0.4 9.25
9/7/2023 6:00:00 PM 27.04 80.672 0.319 8.98 0.34 8.89
9/7/2023 6:15:00 PM 26.9 80.42 0.32 8.92 0.3 8.56
9/7/2023 6:30:00 PM 26.77 80.186 0.32 8.86 0.33 8.29
9/7/2023 6:45:00 PM 26.67 80.006 0.321 8.8 0.32 8.07
9/7/2023 7:00:00 PM 26.55 79.79 0.321 8.73 0.34 7.85
9/7/2023 7:15:00 PM 26.45 79.61 0.322 8.66 0.31 7.61
9/7/2023 7:30:00 PM 26.32 79.376 0.322 8.58 0.63 7.38
9/7/2023 7:45:00 PM 26.15 79.07 0.323 8.49 0.42 7.15
9/7/2023 8:00:00 PM 25.9 78.62 0.318 8.35 2.85 6.98
9/7/2023 8:15:00 PM 25.81 78.458 0.319 8.21 0.67 6.74
9/7/2023 8:30:00 PM 25.72 78.296 0.32 8.07 0.75 6.53
9/7/2023 8:45:00 PM 25.65 78.17 0.32 7.93 1.28 6.34
9/7/2023 9:00:00 PM 25.59 78.062 0.321 7.82 0.83 6.16
9/7/2023 9:15:00 PM 25.51 77.918 0.321 7.72 0.64 5.98
9/7/2023 9:30:00 PM 25.45 77.81 0.322 7.65 0.74 5.84
9/7/2023 9:45:00 PM 25.39 77.702 0.322 7.58 0.6 5.7
9/7/2023 10:00:00 PM 25.34 77.612 0.322 7.53 0.53 5.57
9/7/2023 10:15:00 PM 25.29 77.522 0.322 7.48 0.53 5.45
9/7/2023 10:30:00 PM 25.22 77.396 0.322 7.44 0.6 5.35
9/7/2023 10:45:00 PM 25.17 77.306 0.322 7.41 0.49 5.24
9/7/2023 11:00:00 PM 25.12 77.216 0.322 7.38 0.66 5.15
9/7/2023 11:15:00 PM 25.07 77.126 0.322 7.35 0.48 5.09
9/7/2023 11:30:00 PM 25.03 77.054 0.322 7.33 0.45 5.01
9/7/2023 11:45:00 PM 24.99 76.982 0.322 7.31 0.46 4.95
9/8/2023 12:00:00 AM 24.95 76.91 0.322 7.29 0.4 4.89
9/8/2023 12:15:00 AM 24.92 76.856 0.322 7.28 0.48 4.83
9/8/2023 12:30:00 AM 24.89 76.802 0.322 7.27 0.98 4.79
9/8/2023 12:45:00 AM 24.86 76.748 0.321 7.25 0.81 4.73
9/8/2023 1:00:00 AM 24.83 76.694 0.321 7.24 0.71 4.69
9/8/2023 1:15:00 AM 24.8 76.64 0.321 7.23 0.38 4.59
9/8/2023 1:30:00 AM 24.76 76.568 0.321 7.23 0.42 4.56
9/8/2023 1:45:00 AM 24.72 76.496 0.321 7.22 0.32 4.58
9/8/2023 2:00:00 AM 24.69 76.442 0.321 7.22 0.32 4.58
9/8/2023 2:15:00 AM 24.65 76.37 0.32 7.21 0.49 4.55
9/8/2023 2:30:00 AM 24.62 76.316 0.32 7.2 0.46 4.55
9/8/2023 2:45:00 AM 24.59 76.262 0.32 7.2 0.41 4.53
9/8/2023 3:00:00 AM 24.56 76.208 0.32 7.19 0.42 4.51
9/8/2023 3:15:00 AM 24.52 76.136 0.32 7.19 0.37 4.43
9/8/2023 3:30:00 AM 24.48 76.064 0.32 7.19 0.35 4.47
9/8/2023 3:45:00 AM 24.43 75.974 0.319 7.18 0.37 4.5
9/8/2023 4:00:00 AM 24.37 75.866 0.319 7.18 0.37 4.5
9/8/2023 4:15:00 AM 24.32 75.776 0.319 7.18 0.49 4.5
9/8/2023 4:30:00 AM 24.26 75.668 0.319 7.17 0.41 4.53
9/8/2023 4:45:00 AM 24.2 75.56 0.319 7.17 0.47 4.52
9/8/2023 5:00:00 AM 24.15 75.47 0.319 7.17 0.41 4.55
9/8/2023 5:15:00 AM 24.1 75.38 0.319 7.17 0.54 4.55
9/8/2023 5:30:00 AM 24.04 75.272 0.32 7.17 0.52 4.56
9/8/2023 5:45:00 AM 23.99 75.182 0.32 7.17 0.43 4.57
9/8/2023 6:00:00 AM 23.93 75.074 0.32 7.17 0.41 4.57
9/8/2023 6:15:00 AM 23.87 74.966 0.32 7.17 0.59 4.57
9/8/2023 6:30:00 AM 23.81 74.858 0.32 7.17 0.51 4.59
9/8/2023 6:45:00 AM 23.74 74.732 0.32 7.17 0.48 4.63
9/8/2023 7:00:00 AM 23.67 74.606 0.32 7.18 0.38 4.73
9/8/2023 7:15:00 AM 23.61 74.498 0.32 7.19 0.35 4.86
9/8/2023 7:30:00 AM 23.55 74.39 0.32 7.2 0.41 4.98
9/8/2023 7:45:00 AM 23.5 74.3 0.32 7.21 0.37 5.15
9/8/2023 8:00:00 AM 23.47 74.246 0.32 7.24 0.29 5.45
9/8/2023 8:15:00 AM 23.45 74.21 0.32 7.27 0.25 5.72
9/8/2023 8:30:00 AM 23.43 74.174 0.32 7.29 0.22 5.99
9/8/2023 8:45:00 AM 23.43 74.174 0.32 7.34 0.24 6.37
9/8/2023 9:00:00 AM 23.45 74.21 0.32 7.39 0.13 6.82
9/8/2023 9:15:00 AM 23.48 74.264 0.319 7.45 0.14 7.29
9/8/2023 9:30:00 AM 23.53 74.354 0.319 7.53 0.23 7.76
9/8/2023 9:45:00 AM 23.61 74.498 0.319 7.62 0.21 8.3
9/8/2023 10:00:00 AM 23.73 74.714 0.319 7.74 0.31 8.78
9/8/2023 10:15:00 AM 23.87 74.966 0.318 7.85 0.37 9.23
9/8/2023 10:30:00 AM 24.08 75.344 0.318 8.02 0.21 9.78
9/8/2023 10:45:00 AM 24.33 75.794 0.317 8.2 0.2 10.31
9/8/2023 11:00:00 AM 24.59 76.262 0.316 8.38 0.18 10.83
9/8/2023 11:15:00 AM 24.9 76.82 0.315 8.53 0.23 11.31
9/8/2023 11:30:00 AM 25.25 77.45 0.315 8.67 0.26 11.8
9/8/2023 11:45:00 AM 25.61 78.098 0.314 8.77 0.13 12.22
9/8/2023 12:00:00 PM 25.93 78.674 0.313 8.86 0.12 12.5
9/8/2023 12:15:00 PM 26.28 79.304 0.313 8.93 0.24 12.67
9/8/2023 12:30:00 PM 26.61 79.898 0.312 9 0.25 12.97
9/8/2023 12:45:00 PM 26.92 80.456 0.312 9.05 0.18 13.2
9/8/2023 1:00:00 PM 27.23 81.014 0.312 9.1 0.42 13.32
9/8/2023 1:15:00 PM 27.53 81.554 0.311 9.14 0.3 13.46
9/8/2023 1:30:00 PM 27.78 82.004 0.311 9.18 0.28 13.53
9/8/2023 1:45:00 PM 27.96 82.328 0.311 9.22 0.35 13.62
9/8/2023 2:00:00 PM 28.16 82.688 0.31 9.25 0.7 13.69
9/8/2023 2:15:00 PM 28.34 83.012 0.31 9.28 0.31 13.73
9/8/2023 2:30:00 PM 28.51 83.318 0.31 9.3 0.85 13.72
9/8/2023 2:45:00 PM 28.62 83.51601 0.31 9.32 0.37 13.65
9/8/2023 3:00:00 PM 28.7 83.66 0.31 9.34 0.29 13.58
9/8/2023 3:15:00 PM 28.69 83.642 0.31 9.35 0.37 13.42
9/8/2023 3:30:00 PM 28.5 83.3 0.31 9.33 0.45 12.94
9/8/2023 3:45:00 PM 28.49 83.282 0.31 9.35 0.46 12.94
9/8/2023 4:00:00 PM 28.47 83.24599 0.31 9.34 0.3 12.77
9/8/2023 4:15:00 PM 28.36 83.048 0.31 9.33 0.35 12.41
9/8/2023 4:30:00 PM 28.32 82.976 0.31 9.33 0.44 12.31
9/8/2023 4:45:00 PM 28.26 82.868 0.31 9.32 0.4 12.09
9/8/2023 5:00:00 PM 28.16 82.688 0.31 9.3 0.29 11.85
9/8/2023 5:15:00 PM 28.07 82.526 0.31 9.29 0.36 11.69
9/8/2023 5:30:00 PM 27.9 82.22 0.31 9.26 0.31 11.29
9/8/2023 5:45:00 PM 27.72 81.896 0.31 9.23 0.42 10.82
9/8/2023 6:00:00 PM 27.51 81.518 0.31 9.18 0.33 10.33
9/8/2023 6:15:00 PM 27.3 81.14 0.311 9.12 0.33 9.85
9/8/2023 6:30:00 PM 27.13 80.834 0.311 9.07 0.31 9.47
9/8/2023 6:45:00 PM 26.99 80.582 0.311 9.01 0.31 9.07
9/8/2023 7:00:00 PM 26.88 80.384 0.312 8.95 0.25 8.68
9/8/2023 7:15:00 PM 26.78 80.204 0.312 8.89 0.56 8.33
9/8/2023 7:30:00 PM 26.68 80.024 0.312 8.83 0.34 8.03
9/8/2023 7:45:00 PM 26.62 79.916 0.313 8.76 0.42 7.72
9/8/2023 8:00:00 PM 26.57 79.826 0.313 8.69 0.53 7.49
9/8/2023 8:15:00 PM 26.53 79.754 0.314 8.61 0.47 7.24
9/8/2023 8:30:00 PM 26.49 79.682 0.314 8.52 0.5 7.01
9/8/2023 8:45:00 PM 26.46 79.628 0.315 8.41 0.41 6.79
9/8/2023 9:00:00 PM 26.39 79.502 0.316 8.3 0.55 6.58
9/8/2023 9:15:00 PM 26.23 79.214 0.313 8.16 0.57 6.49
9/8/2023 9:30:00 PM 26.18 79.124 0.314 8.02 0.46 6.26
9/8/2023 9:45:00 PM 26.13 79.034 0.315 7.89 0.48 6.06
9/8/2023 10:00:00 PM 26.09 78.962 0.315 7.79 0.51 5.89
9/8/2023 10:15:00 PM 26.06 78.908 0.316 7.69 0.44 5.72
9/8/2023 10:30:00 PM 26 78.8 0.316 7.61 0.8 5.56
9/8/2023 10:45:00 PM 25.97 78.746 0.317 7.55 0.42 5.44
9/8/2023 11:00:00 PM 25.92 78.656 0.317 7.5 0.45 5.31
9/8/2023 11:15:00 PM 25.86 78.548 0.317 7.46 0.44 5.21
9/8/2023 11:30:00 PM 25.8 78.44 0.317 7.42 0.39 5.09
9/8/2023 11:45:00 PM 25.76 78.368 0.317 7.38 0.3 5
9/9/2023 12:00:00 AM 25.71 78.278 0.317 7.36 0.36 4.95
9/9/2023 12:15:00 AM 25.68 78.224 0.316 7.33 0.33 4.89
9/9/2023 12:30:00 AM 25.64 78.152 0.316 7.32 0.49 4.83
9/9/2023 12:45:00 AM 25.56 78.008 0.315 7.3 0.35 4.84
9/9/2023 1:00:00 AM 25.51 77.918 0.314 7.29 0.34 4.82
9/9/2023 1:15:00 AM 25.47 77.846 0.313 7.28 0.47 4.79
9/9/2023 1:30:00 AM 25.42 77.756 0.313 7.26 0.36 4.73
9/9/2023 1:45:00 AM 25.37 77.666 0.313 7.24 0.45 4.62
9/9/2023 2:00:00 AM 25.33 77.594 0.313 7.23 0.53 4.57
9/9/2023 2:15:00 AM 25.25 77.45 0.313 7.22 0.48 4.52
9/9/2023 2:30:00 AM 25.19 77.342 0.313 7.21 0.32 4.48
9/9/2023 2:45:00 AM 25.11 77.198 0.312 7.2 1.33 4.45
9/9/2023 3:00:00 AM 25.03 77.054 0.312 7.2 0.49 4.45
9/9/2023 3:15:00 AM 24.95 76.91 0.312 7.19 0.54 4.44
9/9/2023 3:30:00 AM 24.88 76.784 0.312 7.19 0.33 4.45
9/9/2023 3:45:00 AM 24.81 76.658 0.312 7.18 0.34 4.43
9/9/2023 4:00:00 AM 24.73 76.514 0.312 7.18 0.39 4.44
9/9/2023 4:15:00 AM 24.64 76.352 0.312 7.17 0.42 4.46
9/9/2023 4:30:00 AM 24.54 76.172 0.311 7.17 0.43 4.46
9/9/2023 4:45:00 AM 24.45 76.01 0.311 7.17 0.45 4.5
9/9/2023 5:00:00 AM 24.36 75.848 0.31 7.17 0.43 4.52
9/9/2023 5:15:00 AM 24.27 75.686 0.31 7.17 0.45 4.54
9/9/2023 5:30:00 AM 24.17 75.506 0.31 7.17 0.57 4.55
9/9/2023 5:45:00 AM 24.08 75.344 0.311 7.17 0.42 4.58
9/9/2023 6:00:00 AM 23.98 75.164 0.311 7.17 0.47 4.6
9/9/2023 6:15:00 AM 23.88 74.984 0.311 7.17 0.62 4.62
9/9/2023 6:30:00 AM 23.79 74.82201 0.311 7.17 0.47 4.61
9/9/2023 6:45:00 AM 23.7 74.66 0.311 7.17 0.44 4.65
9/9/2023 7:00:00 AM 23.61 74.498 0.311 7.18 0.33 4.77
9/9/2023 7:15:00 AM 23.54 74.372 0.312 7.19 0.42 4.88
9/9/2023 7:30:00 AM 23.47 74.246 0.312 7.2 0.34 5.03
9/9/2023 7:45:00 AM 23.4 74.12 0.312 7.21 0.41 5.22
9/9/2023 8:00:00 AM 23.37 74.066 0.312 7.24 0.31 5.53
9/9/2023 8:15:00 AM 23.36 74.048 0.312 7.28 0.32 5.87
9/9/2023 8:30:00 AM 23.4 74.12 0.312 7.33 0.37 6.39
9/9/2023 8:45:00 AM 23.46 74.228 0.312 7.4 0.32 6.94
9/9/2023 9:00:00 AM 23.51 74.318 0.312 7.45 0.24 7.31
9/9/2023 9:15:00 AM 23.6 74.48 0.312 7.53 0.33 7.8
9/9/2023 9:30:00 AM 23.7 74.66 0.312 7.63 0.17 8.32
9/9/2023 9:45:00 AM 23.89 75.002 0.312 7.79 0.33 8.99
9/9/2023 10:00:00 AM 24.02 75.236 0.311 7.93 0.29 9.47
9/9/2023 10:15:00 AM 24.17 75.506 0.311 8.08 0.17 9.91
9/9/2023 10:30:00 AM 24.3 75.74 0.311 8.22 0.26 10.29
9/9/2023 10:45:00 AM 24.46 76.028 0.31 8.38 0.27 10.72
9/9/2023 11:00:00 AM 24.66 76.388 0.31 8.52 0.18 11.16
9/9/2023 11:15:00 AM 24.86 76.748 0.31 8.63 0.25 11.52
9/9/2023 11:30:00 AM 25.04 77.07201 0.309 8.72 0.22 11.82
9/9/2023 11:45:00 AM 25.23 77.414 0.309 8.79 0.23 12.06
9/9/2023 12:00:00 PM 25.53 77.954 0.308 8.87 0.22 12.4
9/9/2023 12:15:00 PM 25.74 78.332 0.308 8.93 0.24 12.6
9/9/2023 12:30:00 PM 25.95 78.71 0.307 8.99 0.34 12.81
9/9/2023 12:45:00 PM 26.19 79.142 0.307 9.04 0.22 12.99
9/9/2023 1:00:00 PM 26.34 79.412 0.306 9.08 0.24 13.12
9/9/2023 1:15:00 PM 26.49 79.682 0.306 9.12 0.26 13.22
9/9/2023 1:30:00 PM 26.72 80.096 0.306 9.16 0.23 13.27
9/9/2023 1:45:00 PM 27 80.6 0.305 9.19 0.33 13.38
9/9/2023 2:00:00 PM 27.17 80.906 0.305 9.22 0.19 13.41
9/9/2023 2:15:00 PM 27.36 81.248 0.305 9.25 0.42 13.43
9/9/2023 2:30:00 PM 27.42 81.356 0.305 9.26 0.25 13.28
9/9/2023 2:45:00 PM 27.42 81.356 0.305 9.27 0.8 13.18
9/9/2023 3:00:00 PM 27.46 81.42799 0.305 9.28 0.34 13.12
9/9/2023 3:15:00 PM 27.53 81.554 0.305 9.29 0.29 13.04
9/9/2023 3:30:00 PM 27.64 81.752 0.305 9.3 0.24 13.04
9/9/2023 3:45:00 PM 27.6 81.68 0.305 9.3 0.27 12.84
9/9/2023 4:00:00 PM 27.63 81.734 0.305 9.32 0.29 12.82
9/9/2023 4:15:00 PM 27.54 81.57201 0.304 9.31 0.44 12.55
9/9/2023 4:30:00 PM 27.37 81.266 0.304 9.31 0.31 12.27
9/9/2023 4:45:00 PM 27.23 81.014 0.305 9.3 0.28 12.03
9/9/2023 5:00:00 PM 27.09 80.762 0.305 9.27 0.25 11.65
9/9/2023 5:15:00 PM 26.96 80.528 0.305 9.24 0.32 11.25
9/9/2023 5:30:00 PM 26.86 80.348 0.305 9.21 0.36 10.9
9/9/2023 5:45:00 PM 26.79 80.222 0.306 9.18 0.34 10.57
9/9/2023 6:00:00 PM 26.7 80.06 0.306 9.14 0.31 10.21
9/9/2023 6:15:00 PM 26.63 79.934 0.306 9.1 0.33 9.89
9/9/2023 6:30:00 PM 26.56 79.808 0.307 9.05 0.28 9.53
9/9/2023 6:45:00 PM 26.48 79.664 0.307 9 0.47 9.2
9/9/2023 7:00:00 PM 26.4 79.52 0.308 8.95 0.27 8.86
9/9/2023 7:15:00 PM 26.29 79.32201 0.308 8.89 0.4 8.52
9/9/2023 7:30:00 PM 26.18 79.124 0.309 8.81 0.32 8.17
9/9/2023 7:45:00 PM 25.71 78.278 0.294 8.71 0.64 7.9
9/9/2023 8:00:00 PM 25.62 78.116 0.294 8.59 0.75 7.59
9/9/2023 8:15:00 PM 25.58 78.044 0.297 8.48 0.98 7.29
9/9/2023 8:30:00 PM 25.54 77.972 0.3 8.34 1.1 7.02
9/9/2023 8:45:00 PM 25.47 77.846 0.3 8.2 0.91 6.78
9/9/2023 9:00:00 PM 25.43 77.774 0.301 8.05 1.07 6.56
9/9/2023 9:15:00 PM 25.36 77.648 0.299 7.9 1.43 6.35
9/9/2023 9:30:00 PM 25.32 77.576 0.299 7.77 1.22 6.13
9/9/2023 9:45:00 PM 25.31 77.558 0.3 7.67 1.57 5.95
9/9/2023 10:00:00 PM 25.29 77.522 0.3 7.58 2.9 5.79
9/9/2023 10:15:00 PM 25.28 77.504 0.301 7.52 2.72 5.65
9/9/2023 10:30:00 PM 25.26 77.468 0.301 7.47 2.84 5.54
9/9/2023 10:45:00 PM 25.26 77.468 0.302 7.43 3 5.43
9/9/2023 11:00:00 PM 25.24 77.432 0.302 7.4 2.9 5.33
9/9/2023 11:15:00 PM 25.17 77.306 0.299 7.36 5.61 5.23
9/9/2023 11:30:00 PM 25.07 77.126 0.294 7.32 12.98 5.17
9/9/2023 11:45:00 PM 24.99 76.982 0.291 7.29 17.77 5.1
9/10/2023 12:00:00 AM 24.93 76.874 0.291 7.27 18.28 5.07
9/10/2023 12:15:00 AM 24.89 76.802 0.292 7.26 15.89 5.03
9/10/2023 12:30:00 AM 24.84 76.712 0.292 7.25 12.03 5.02
9/10/2023 12:45:00 AM 24.77 76.586 0.293 7.24 9.64 5.02
9/10/2023 1:00:00 AM 24.68 76.424 0.293 7.24 7.65 5.05
9/10/2023 1:15:00 AM 24.6 76.28 0.293 7.24 6.74 5.07
9/10/2023 1:30:00 AM 24.53 76.154 0.295 7.24 7.1 5.07
9/10/2023 1:45:00 AM 24.44 75.992 0.297 7.24 7.33 5.11
9/10/2023 2:00:00 AM 24.33 75.794 0.299 7.25 7.11 5.17
9/10/2023 2:15:00 AM 24.19 75.542 0.299 7.25 7.06 5.24
9/10/2023 2:30:00 AM 24.01 75.218 0.299 7.25 6.92 5.31
9/10/2023 2:45:00 AM 23.84 74.912 0.297 7.25 6.43 5.35
9/10/2023 3:00:00 AM 23.69 74.642 0.296 7.24 6.13 5.37
9/10/2023 3:15:00 AM 23.56 74.408 0.297 7.23 7.02 5.37
9/10/2023 3:30:00 AM 23.47 74.246 0.298 7.23 6.72 5.36
9/10/2023 3:45:00 AM 23.4 74.12 0.3 7.23 6.18 5.37
9/10/2023 4:00:00 AM 23.36 74.048 0.303 7.23 5.85 5.38
9/10/2023 4:15:00 AM 23.33 73.994 0.304 7.23 5.32 5.4
9/10/2023 4:30:00 AM 23.29 73.922 0.305 7.23 4.44 5.43
9/10/2023 4:45:00 AM 23.26 73.868 0.305 7.23 4.51 5.46
9/10/2023 5:00:00 AM 23.23 73.814 0.305 7.23 4.36 5.48
9/10/2023 5:15:00 AM 23.2 73.76 0.304 7.23 3.7 5.49
9/10/2023 5:30:00 AM 23.16 73.688 0.302 7.23 4.21 5.5
9/10/2023 5:45:00 AM 23.12 73.616 0.301 7.23 4.1 5.5
9/10/2023 6:00:00 AM 23.09 73.562 0.3 7.23 4.61 5.5
9/10/2023 6:15:00 AM 23.06 73.508 0.299 7.23 4.23 5.51
9/10/2023 6:30:00 AM 23.03 73.454 0.298 7.22 4.68 5.51
9/10/2023 6:45:00 AM 23 73.4 0.298 7.22 4.04 5.5
9/10/2023 7:00:00 AM 22.97 73.346 0.297 7.22 3.86 5.52
9/10/2023 7:15:00 AM 22.94 73.292 0.296 7.22 3.67 5.53
9/10/2023 7:30:00 AM 22.9 73.22 0.295 7.22 3.52 5.56
9/10/2023 7:45:00 AM 22.87 73.166 0.294 7.22 3.57 5.59
9/10/2023 8:00:00 AM 22.84 73.112 0.293 7.22 3.11 5.64
9/10/2023 8:15:00 AM 22.82 73.076 0.292 7.23 3.16 5.72
9/10/2023 8:30:00 AM 22.79 73.022 0.291 7.24 2.98 5.84
9/10/2023 8:45:00 AM 22.78 73.004 0.29 7.25 3.19 6
9/10/2023 9:00:00 AM 22.77 72.986 0.289 7.27 3.24 6.17
9/10/2023 9:15:00 AM 22.76 72.968 0.288 7.29 3.19 6.37
9/10/2023 9:30:00 AM 22.77 72.986 0.287 7.31 3.17 6.61
9/10/2023 9:45:00 AM 22.79 73.022 0.286 7.34 3.2 6.88
9/10/2023 10:00:00 AM 22.83 73.094 0.285 7.38 3.41 7.15
9/10/2023 10:15:00 AM 22.82 73.076 0.284 7.4 3.81 7.24
9/10/2023 10:30:00 AM 22.81 73.058 0.283 7.4 4.2 7.3
9/10/2023 10:45:00 AM 22.82 73.076 0.281 7.42 4.39 7.42
9/10/2023 11:00:00 AM 22.85 73.13 0.28 7.45 4.57 7.63
9/10/2023 11:15:00 AM 22.95 73.31 0.28 7.51 4.94 7.94
9/10/2023 11:30:00 AM 23.02 73.436 0.279 7.56 5.13 8.17
9/10/2023 11:45:00 AM 23.09 73.562 0.279 7.6 5.06 8.37
9/10/2023 12:00:00 PM 23.16 73.688 0.28 7.65 5.22 8.54
9/10/2023 12:15:00 PM 23.19 73.742 0.28 7.67 5.32 8.62
9/10/2023 12:30:00 PM 23.21 73.778 0.281 7.68 5.01 8.66
9/10/2023 12:45:00 PM 23.38 74.084 0.282 7.76 5.27 8.97
9/10/2023 1:00:00 PM 23.58 74.444 0.282 7.85 5.02 9.23
9/10/2023 1:15:00 PM 23.73 74.714 0.283 7.94 5.17 9.5
9/10/2023 1:30:00 PM 23.99 75.182 0.284 8.06 4.55 9.81
9/10/2023 1:45:00 PM 24.14 75.452 0.285 8.13 4.69 9.94
9/10/2023 2:00:00 PM 24.38 75.884 0.285 8.23 4.53 10.2
9/10/2023 2:15:00 PM 24.57 76.226 0.286 8.31 4.3 10.38
9/10/2023 2:30:00 PM 24.75 76.55 0.286 8.37 3.95 10.54
9/10/2023 2:45:00 PM 24.8 76.64 0.287 8.38 4.01 10.48
9/10/2023 3:00:00 PM 24.94 76.892 0.288 8.43 3.96 10.56
9/10/2023 3:15:00 PM 25 77 0.288 8.45 3.88 10.57
9/10/2023 3:30:00 PM 24.97 76.946 0.289 8.43 3.66 10.41
9/10/2023 3:45:00 PM 25.08 77.144 0.29 8.47 3.88 10.47
9/10/2023 4:00:00 PM 25.12 77.216 0.291 8.46 3.66 10.36
9/10/2023 4:15:00 PM 25.07 77.126 0.292 8.43 3.32 10.16
9/10/2023 4:30:00 PM 25.01 77.018 0.293 8.38 3.43 9.96
9/10/2023 4:45:00 PM 25 77 0.294 8.36 3.16 9.85
9/10/2023 5:00:00 PM 25 77 0.295 8.34 3.15 9.76
9/10/2023 5:15:00 PM 25.07 77.126 0.296 8.36 2.98 9.74
9/10/2023 5:30:00 PM 25.12 77.216 0.297 8.35 3.12 9.65
9/10/2023 5:45:00 PM 25.1 77.18 0.299 8.28 2.9 9.36
9/10/2023 6:00:00 PM 25.04 77.07201 0.3 8.19 3 9.05
9/10/2023 6:15:00 PM 25.01 77.018 0.301 8.09 2.76 8.73
9/10/2023 6:30:00 PM 24.97 76.946 0.303 7.99 2.79 8.44
9/10/2023 6:45:00 PM 24.93 76.874 0.304 7.91 2.69 8.18
9/10/2023 7:00:00 PM 24.89 76.802 0.305 7.83 2.62 7.92
9/10/2023 7:15:00 PM 24.84 76.712 0.306 7.75 2.45 7.66
9/10/2023 7:30:00 PM 24.79 76.622 0.308 7.68 2.43 7.44
9/10/2023 7:45:00 PM 24.75 76.55 0.31 7.63 2.37 7.21
9/10/2023 8:00:00 PM 24.69 76.442 0.311 7.58 2.33 7
9/10/2023 8:15:00 PM 24.63 76.334 0.312 7.53 2.46 6.78
9/10/2023 8:30:00 PM 24.57 76.226 0.312 7.49 2.58 6.62
9/10/2023 8:45:00 PM 24.51 76.118 0.313 7.46 2.81 6.45
9/10/2023 9:00:00 PM 24.44 75.992 0.314 7.43 2.71 6.32
9/10/2023 9:15:00 PM 24.37 75.866 0.314 7.41 2.26 6.2
9/10/2023 9:30:00 PM 24.32 75.776 0.315 7.39 2.52 6.09
9/10/2023 9:45:00 PM 24.26 75.668 0.315 7.37 2.37 5.99
9/10/2023 10:00:00 PM 24.18 75.524 0.315 7.36 2.11 5.89
9/10/2023 10:15:00 PM 24.1 75.38 0.316 7.35 2.38 5.81
9/10/2023 10:30:00 PM 24.03 75.254 0.316 7.34 2.38 5.76
9/10/2023 10:45:00 PM 23.95 75.11 0.316 7.33 2.22 5.71
9/10/2023 11:00:00 PM 23.87 74.966 0.316 7.32 2.57 5.67
9/10/2023 11:15:00 PM 23.8 74.84 0.316 7.31 2.19 5.64
9/10/2023 11:30:00 PM 23.73 74.714 0.316 7.31 2.18 5.61
9/10/2023 11:45:00 PM 23.67 74.606 0.315 7.3 1.98 5.59
9/11/2023 12:00:00 AM 23.6 74.48 0.314 7.29 1.89 5.58
9/11/2023 12:15:00 AM 23.53 74.354 0.314 7.29 1.88 5.55
9/11/2023 12:30:00 AM 23.46 74.228 0.314 7.28 1.85 5.53
9/11/2023 12:45:00 AM 23.4 74.12 0.314 7.28 1.73 5.54
9/11/2023 1:00:00 AM 23.34 74.012 0.313 7.27 1.64 5.49
9/11/2023 1:15:00 AM 23.29 73.922 0.313 7.27 1.84 5.48
9/11/2023 1:30:00 AM 23.24 73.832 0.313 7.26 1.63 5.47
9/11/2023 1:45:00 AM 23.18 73.724 0.312 7.26 1.67 5.45
9/11/2023 2:00:00 AM 23.12 73.616 0.312 7.25 1.69 5.42
9/11/2023 2:15:00 AM 23.06 73.508 0.311 7.25 1.59 5.43
9/11/2023 2:30:00 AM 23.01 73.418 0.311 7.24 1.67 5.43
9/11/2023 2:45:00 AM 22.97 73.346 0.31 7.24 1.64 5.41
9/11/2023 3:00:00 AM 22.93 73.274 0.31 7.24 1.57 5.42
9/11/2023 3:15:00 AM 22.9 73.22 0.309 7.23 1.64 5.44
9/11/2023 3:30:00 AM 22.86 73.148 0.308 7.22 1.58 5.42
9/11/2023 3:45:00 AM 22.82 73.076 0.308 7.22 1.48 5.44
9/11/2023 4:00:00 AM 22.79 73.022 0.307 7.22 1.51 5.43
9/11/2023 4:15:00 AM 22.76 72.968 0.306 7.21 1.39 5.41
9/11/2023 4:30:00 AM 22.73 72.914 0.305 7.21 1.42 5.42
9/11/2023 4:45:00 AM 22.7 72.86 0.305 7.21 1.47 5.41
9/11/2023 5:00:00 AM 22.68 72.824 0.304 7.21 1.48 5.42
9/11/2023 5:15:00 AM 22.65 72.77 0.303 7.2 1.51 5.42
9/11/2023 5:30:00 AM 22.63 72.734 0.302 7.2 1.54 5.42
9/11/2023 5:45:00 AM 22.61 72.698 0.301 7.2 1.45 5.41
9/11/2023 6:00:00 AM 22.59 72.662 0.301 7.2 1.69 5.42
9/11/2023 6:15:00 AM 22.57 72.626 0.3 7.19 1.44 5.4
9/11/2023 6:30:00 AM 22.55 72.59 0.299 7.19 1.37 5.4
9/11/2023 6:45:00 AM 22.54 72.57201 0.298 7.19 1.38 5.4
9/11/2023 7:00:00 AM 22.53 72.554 0.298 7.2 1.32 5.5
9/11/2023 7:15:00 AM 22.53 72.554 0.297 7.2 1.36 5.6
9/11/2023 7:30:00 AM 22.51 72.518 0.296 7.21 1.36 5.68
9/11/2023 7:45:00 AM 22.5 72.5 0.295 7.21 1.39 5.72
9/11/2023 8:00:00 AM 22.48 72.464 0.295 7.21 1.47 5.74
9/11/2023 8:15:00 AM 22.47 72.446 0.294 7.21 1.28 5.77
9/11/2023 8:30:00 AM 22.45 72.41 0.294 7.22 1.23 5.8
9/11/2023 8:45:00 AM 22.45 72.41 0.293 7.23 1.28 5.93
9/11/2023 9:00:00 AM 22.47 72.446 0.293 7.25 1.08 6.17
9/11/2023 9:15:00 AM 22.52 72.536 0.293 7.29 1.12 6.55
9/11/2023 9:30:00 AM 22.55 72.59 0.292 7.32 1.1 6.82
9/11/2023 9:45:00 AM 22.62 72.716 0.292 7.39 1.03 7.25
9/11/2023 10:00:00 AM 22.67 72.806 0.292 7.43 1.11 7.53
9/11/2023 10:15:00 AM 22.86 73.148 0.292 7.52 1.03 8.06
9/11/2023 10:30:00 AM 22.98 73.364 0.292 7.59 1.13 8.44
9/11/2023 10:45:00 AM 23.09 73.562 0.292 7.68 1.09 8.79
9/11/2023 11:00:00 AM 23.29 73.922 0.292 7.8 1.21 9.26
9/11/2023 11:15:00 AM 23.58 74.444 0.292 7.95 1.08 9.7
9/11/2023 11:30:00 AM 23.83 74.894 0.292 8.08 1.01 10.05
9/11/2023 11:45:00 AM 24.16 75.488 0.291 8.22 1.08 10.39
9/11/2023 12:00:00 PM 24.4 75.92 0.292 8.34 1.02 10.7
9/11/2023 12:15:00 PM 24.56 76.208 0.292 8.43 1.1 10.9
9/11/2023 12:30:00 PM 24.79 76.622 0.292 8.5 1 11.05
9/11/2023 12:45:00 PM 25.26 77.468 0.292 8.6 1.05 11.42
9/11/2023 1:00:00 PM 25.46 77.828 0.292 8.65 1.04 11.51
9/11/2023 1:15:00 PM 25.71 78.278 0.292 8.7 1.11 11.65
9/11/2023 1:30:00 PM 25.68 78.224 0.292 8.71 1.07 11.56
9/11/2023 1:45:00 PM 25.82 78.476 0.293 8.76 1.23 11.73
9/11/2023 2:00:00 PM 25.74 78.332 0.293 8.77 1.16 11.64
9/11/2023 2:15:00 PM 25.65 78.17 0.293 8.75 1.12 11.42
9/11/2023 2:30:00 PM 25.76 78.368 0.293 8.78 1.21 11.53
9/11/2023 2:45:00 PM 25.56 78.008 0.294 8.73 1.28 11.15
9/11/2023 3:00:00 PM 25.57 78.026 0.294 8.75 1.29 11.15
9/11/2023 3:15:00 PM 25.38 77.684 0.294 8.69 1.21 10.79
9/11/2023 3:30:00 PM 25.38 77.684 0.294 8.69 1.46 10.75
9/11/2023 3:45:00 PM 25.37 77.666 0.295 8.69 1.35 10.67
9/11/2023 4:00:00 PM 25.29 77.522 0.295 8.61 1.2 10.21
9/11/2023 4:15:00 PM 25.22 77.396 0.295 8.55 1.15 9.88
9/11/2023 4:30:00 PM 25.32 77.576 0.295 8.6 1.16 10.11
9/11/2023 4:45:00 PM 25.44 77.792 0.295 8.62 1.15 10.17
9/11/2023 5:00:00 PM 25.48 77.864 0.295 8.63 1.2 10.19
9/11/2023 5:15:00 PM 25.45 77.81 0.295 8.64 1.2 10.17
9/11/2023 5:30:00 PM 25.47 77.846 0.295 8.66 1.23 10.22
9/11/2023 5:45:00 PM 25.45 77.81 0.295 8.62 1.1 9.97
9/11/2023 6:00:00 PM 25.39 77.702 0.296 8.56 1.09 9.7
9/11/2023 6:15:00 PM 25.29 77.522 0.296 8.46 1.1 9.37
9/11/2023 6:30:00 PM 25.23 77.414 0.296 8.37 1.11 9.07
9/11/2023 6:45:00 PM 25.22 77.396 0.296 8.31 1.27 8.85
9/11/2023 7:00:00 PM 25.19 77.342 0.296 8.22 1.06 8.56

These are provisional data and have not been subject to a quality assurance process, but rather are the raw data reported by the instrument.
H: value is above sensor operating range
L: value is below sensor operating range
Offline: station is not reporting data
NC: parameter is not collected at site

Data Availability & Limitations

Uncertainty and potential for error can be associated with environmental monitoring data. Provisional data have not been subject to a quality assurance process, but rather are the raw data reported by the instrument. Data users are cautioned to consider carefully the provisional nature of the information before using it for decisions that concern personal or public safety or the conduct of business that involves substantial monetary or operational consequences.

Approved data are currently available by request by emailing: [email protected]. Approved data have been subject to a quality assurance process to correct for equipment or fouling drift. Data recorded during equipment malfunctions have been removed.

View Historical Stations that have been discontinued.